Provisional Data: Little Juniata River near Tipton, PA


Please select a monitoring station.
Please select start date.
Please select start date.

Toggle Unit: C/F Toggle Unit: C/F
Sample Time Temperature (C) Temperature (F) Specific Conductivity (mS/cm) pH   Turbidity (NTU+) DO (mg/L)
4/18/2023 12:00:00 AM 10.79 51.422 0.236 7.49 8.73 9.76
4/18/2023 12:15:00 AM 10.73 51.314 0.235 7.49 5.21 9.77
4/18/2023 12:30:00 AM 10.67 51.206 0.235 7.48 5.15 9.78
4/18/2023 12:45:00 AM 10.62 51.116 0.236 7.48 7.64 9.79
4/18/2023 1:00:00 AM 10.57 51.026 0.239 7.48 5.21 9.8
4/18/2023 1:15:00 AM 10.51 50.918 0.241 7.48 5.22 9.8
4/18/2023 1:30:00 AM 10.46 50.828 0.242 7.48 5.26 9.82
4/18/2023 1:45:00 AM 10.4 50.72 0.241 7.48 5.2 9.84
4/18/2023 2:00:00 AM 10.34 50.612 0.24 7.47 5.4 9.85
4/18/2023 2:15:00 AM 10.29 50.522 0.238 7.47 6.56 9.86
4/18/2023 2:30:00 AM 10.24 50.432 0.236 7.47 5 9.89
4/18/2023 2:45:00 AM 10.2 50.36 0.235 7.47 5.29 9.9
4/18/2023 3:00:00 AM 10.13 50.234 0.234 7.46 5.8 9.93
4/18/2023 3:15:00 AM 10.07 50.126 0.235 7.46 5.01 9.94
4/18/2023 3:30:00 AM 10.03 50.054 0.236 7.46 10.9 9.95
4/18/2023 3:45:00 AM 9.98 49.964 0.239 7.46 6.96 9.96
4/18/2023 4:00:00 AM 9.94 49.892 0.24 7.47 5.63 9.97
4/18/2023 4:15:00 AM 9.89 49.802 0.241 7.5 18.43 10
4/18/2023 4:30:00 AM 9.83 49.694 0.241 7.48 8.75 10.02
4/18/2023 4:45:00 AM 9.78 49.604 0.24 7.47 4.66 10.03
4/18/2023 5:00:00 AM 9.73 49.514 0.239 7.48 6.17 10.05
4/18/2023 5:15:00 AM 9.68 49.424 0.238 7.47 4.68 10.07
4/18/2023 5:30:00 AM 9.62 49.316 0.237 7.47 4.8 10.09
4/18/2023 5:45:00 AM 9.57 49.226 0.237 7.47 4.77 10.1
4/18/2023 6:00:00 AM 9.52 49.136 0.238 7.47 4.74 10.12
4/18/2023 6:15:00 AM 9.46 49.028 0.24 7.48 4.79 10.13
4/18/2023 6:30:00 AM 9.41 48.938 0.242 7.48 4.84 10.15
4/18/2023 6:45:00 AM 9.36 48.848 0.243 7.47 4.45 10.16
4/18/2023 7:00:00 AM 9.3 48.74 0.244 7.48 7.57 10.18
4/18/2023 7:15:00 AM 9.25 48.65 0.244 7.48 4.42 10.21
4/18/2023 7:30:00 AM 9.2 48.56 0.243 7.48 4.33 10.24
4/18/2023 7:45:00 AM 9.15 48.47 0.242 7.48 4.4 10.27
4/18/2023 8:00:00 AM 9.11 48.398 0.241 7.49 4.32 10.33
4/18/2023 8:15:00 AM 9.07 48.326 0.241 7.5 4.27 10.39
4/18/2023 8:30:00 AM 9.03 48.254 0.241 7.5 4.1 10.43
4/18/2023 8:45:00 AM 8.98 48.164 0.243 7.51 4.27 10.46
4/18/2023 9:00:00 AM 8.94 48.092 0.245 7.51 3.96 10.48
4/18/2023 9:15:00 AM 8.91 48.038 0.247 7.52 4.05 10.5
4/18/2023 9:30:00 AM 8.87 47.966 0.248 7.53 3.85 10.53
4/18/2023 9:45:00 AM 8.84 47.912 0.249 7.54 3.99 10.56
4/18/2023 10:00:00 AM 8.8 47.84 0.249 7.54 7.5 10.59
4/18/2023 10:15:00 AM 8.77 47.786 0.247 7.55 3.86 10.64
4/18/2023 10:30:00 AM 8.74 47.732 0.246 7.56 4.51 10.68
4/18/2023 10:45:00 AM 8.72 47.696 0.245 7.57 3.87 10.75
4/18/2023 11:00:00 AM 8.73 47.714 0.244 7.58 4.1 10.85
4/18/2023 11:15:00 AM 8.8 47.84 0.244 7.61 3.79 10.97
4/18/2023 11:30:00 AM 8.8 47.84 0.245 7.63 3.92 11.01
4/18/2023 11:45:00 AM 8.77 47.786 0.247 7.65 4.89 11.04
4/18/2023 12:00:00 PM 8.73 47.714 0.25 7.66 4.29 11.06
4/18/2023 12:15:00 PM 8.73 47.714 0.252 7.67 3.74 11.11
4/18/2023 12:30:00 PM 8.71 47.678 0.253 7.69 4.14 11.16
4/18/2023 12:45:00 PM 8.7 47.66 0.253 7.71 3.96 11.2
4/18/2023 1:00:00 PM 8.68 47.624 0.251 7.72 3.92 11.24
4/18/2023 1:15:00 PM 8.66 47.588 0.25 7.73 5.67 11.29
4/18/2023 1:30:00 PM 8.65 47.57 0.248 7.75 4.41 11.34
4/18/2023 1:45:00 PM 8.64 47.552 0.246 7.76 4.19 11.38
4/18/2023 2:00:00 PM 8.62 47.516 0.246 7.77 4.11 11.4
4/18/2023 2:15:00 PM 8.6 47.48 0.246 7.78 3.93 11.42
4/18/2023 2:30:00 PM 8.59 47.462 0.247 7.79 12.51 11.44
4/18/2023 2:45:00 PM 8.58 47.444 0.246 7.81 6.75 11.46
4/18/2023 3:00:00 PM 8.55 47.39 0.248 7.81 4.06 11.44
4/18/2023 3:15:00 PM 8.58 47.444 0.247 7.82 4.01 11.48
4/18/2023 3:30:00 PM 8.57 47.426 0.246 7.83 3.77 11.5
4/18/2023 3:45:00 PM 8.55 47.39 0.245 7.83 3.78 11.5
4/18/2023 4:00:00 PM 8.56 47.408 0.244 7.84 3.81 11.52
4/18/2023 4:15:00 PM 8.58 47.444 0.243 7.85 4.05 11.54
4/18/2023 4:30:00 PM 8.6 47.48 0.242 7.86 3.94 11.56
4/18/2023 4:45:00 PM 8.67 47.606 0.243 7.88 3.93 11.61
4/18/2023 5:00:00 PM 8.73 47.714 0.244 7.9 3.91 11.63
4/18/2023 5:15:00 PM 8.75 47.75 0.245 7.91 4 11.64
4/18/2023 5:30:00 PM 8.77 47.786 0.246 7.92 4.13 11.64
4/18/2023 5:45:00 PM 8.78 47.804 0.184 7.93 5.76 11.64
4/18/2023 6:00:00 PM 8.81 47.858 0.246 7.94 3.85 11.64
4/18/2023 6:15:00 PM 8.83 47.894 0.15 7.94 5.12 11.63
4/18/2023 6:30:00 PM 8.83 47.894 0.244 7.93 6.86 11.61
4/18/2023 6:45:00 PM 8.81 47.858 0.219 7.91 6.53 11.59
4/18/2023 7:00:00 PM 8.79 47.822 0.242 7.93 4.11 11.55
4/18/2023 7:15:00 PM 8.77 47.786 0.243 7.91 4.16 11.49
4/18/2023 7:30:00 PM 8.74 47.732 0.243 7.9 4.41 11.41
4/18/2023 7:45:00 PM 8.71 47.678 0.246 7.87 3.99 11.34
4/18/2023 8:00:00 PM 8.68 47.624 0.247 7.85 3.95 11.27
4/18/2023 8:15:00 PM 8.66 47.588 0.248 7.83 3.98 11.2
4/18/2023 8:30:00 PM 8.63 47.534 0.247 7.8 4.74 11.14
4/18/2023 8:45:00 PM 8.6 47.48 0.247 7.78 4.31 11.09
4/18/2023 9:00:00 PM 8.57 47.426 0.246 7.75 10.02 11.03
4/18/2023 9:15:00 PM 8.53 47.354 0.246 7.74 4.37 10.99
4/18/2023 9:30:00 PM 8.49 47.282 0.245 7.72 4.27 10.96
4/18/2023 9:45:00 PM 8.46 47.228 0.245 7.7 4.6 10.93
4/18/2023 10:00:00 PM 8.43 47.174 0.247 7.69 4.86 10.89
4/18/2023 10:15:00 PM 8.39 47.102 0.249 7.67 4.55 10.85
4/18/2023 10:30:00 PM 8.36 47.048 0.253 7.66 4.45 10.82
4/18/2023 10:45:00 PM 8.32 46.976 0.256 7.64 4.36 10.78
4/18/2023 11:00:00 PM 8.27 46.886 0.257 7.62 4.39 10.77
4/18/2023 11:15:00 PM 8.22 46.796 0.256 7.61 4.29 10.75
4/18/2023 11:30:00 PM 8.16 46.688 0.255 7.6 4.13 10.74
4/18/2023 11:45:00 PM 8.1 46.58 0.253 7.58 4.46 10.74
4/19/2023 12:00:00 AM 8.04 46.472 0.251 7.57 4.54 10.75
4/19/2023 12:15:00 AM 7.97 46.346 0.249 7.56 4.21 10.76
4/19/2023 12:30:00 AM 7.91 46.238 0.248 7.56 4.33 10.77
4/19/2023 12:45:00 AM 7.85 46.13 0.247 7.55 7.35 10.79
4/19/2023 1:00:00 AM 7.8 46.04 0.248 7.54 4.86 10.8
4/19/2023 1:15:00 AM 7.75 45.95 0.251 7.54 4.77 10.81
4/19/2023 1:30:00 AM 7.7 45.86 0.252 7.54 4.17 10.82
4/19/2023 1:45:00 AM 7.66 45.788 0.254 7.54 4.1 10.83
4/19/2023 2:00:00 AM 7.61 45.698 0.254 7.53 4.25 10.84
4/19/2023 2:15:00 AM 7.57 45.626 0.254 7.53 4.1 10.86
4/19/2023 2:30:00 AM 7.52 45.536 0.252 7.53 4.18 10.88
4/19/2023 2:45:00 AM 7.47 45.446 0.25 7.53 4.33 10.89
4/19/2023 3:00:00 AM 7.41 45.338 0.249 7.52 4.01 10.91
4/19/2023 3:15:00 AM 7.37 45.266 0.247 7.52 4.45 10.93
4/19/2023 3:30:00 AM 7.33 45.194 0.247 7.52 4.24 10.95
4/19/2023 3:45:00 AM 7.29 45.122 0.248 7.51 4.33 10.96
4/19/2023 4:00:00 AM 7.26 45.068 0.25 7.52 4 10.97
4/19/2023 4:15:00 AM 7.22 44.996 0.252 7.52 4.51 10.99
4/19/2023 4:30:00 AM 7.18 44.924 0.253 7.52 4.1 11
4/19/2023 4:45:00 AM 7.14 44.852 0.254 7.52 3.91 11.01
4/19/2023 5:00:00 AM 7.1 44.78 0.254 7.52 4.02 11.02
4/19/2023 5:15:00 AM 7.06 44.708 0.254 7.52 3.87 11.03
4/19/2023 5:30:00 AM 7.02 44.636 0.252 7.52 3.84 11.05
4/19/2023 5:45:00 AM 6.97 44.546 0.25 7.52 4.14 11.07
4/19/2023 6:00:00 AM 6.91 44.438 0.249 7.51 3.99 11.09
4/19/2023 6:15:00 AM 6.87 44.366 0.248 7.51 3.98 11.11
4/19/2023 6:30:00 AM 6.82 44.276 0.249 7.51 3.75 11.13
4/19/2023 6:45:00 AM 6.77 44.186 0.25 7.52 5.75 11.15
4/19/2023 7:00:00 AM 6.73 44.114 0.251 7.52 3.73 11.2
4/19/2023 7:15:00 AM 6.7 44.06 0.251 7.53 4.06 11.25
4/19/2023 7:30:00 AM 6.67 44.006 0.252 7.53 3.68 11.3
4/19/2023 7:45:00 AM 6.65 43.97 0.251 7.54 3.6 11.36
4/19/2023 8:00:00 AM 6.64 43.952 0.25 7.56 3.56 11.43
4/19/2023 8:15:00 AM 6.67 44.006 0.248 7.57 3.61 11.5
4/19/2023 8:30:00 AM 6.72 44.096 0.247 7.59 3.6 11.57
4/19/2023 8:45:00 AM 6.81 44.258 0.246 7.61 6.2 11.66
4/19/2023 9:00:00 AM 6.92 44.456 0.245 7.64 3.56 11.72
4/19/2023 9:15:00 AM 7.03 44.654 0.246 7.66 3.4 11.79
4/19/2023 9:30:00 AM 7.17 44.906 0.248 7.68 3.31 11.84
4/19/2023 9:45:00 AM 7.32 45.176 0.25 7.71 3.37 11.88
4/19/2023 10:00:00 AM 7.5 45.5 0.252 7.73 3.38 11.93
4/19/2023 10:15:00 AM 7.71 45.878 0.253 7.75 3.44 11.94
4/19/2023 10:30:00 AM 7.92 46.256 0.254 7.78 3.5 11.99
4/19/2023 10:45:00 AM 8.15 46.67 0.253 7.8 3.42 12.02
4/19/2023 11:00:00 AM 8.37 47.066 0.251 7.82 6.17 12.02
4/19/2023 11:15:00 AM 8.61 47.498 0.249 7.84 3.55 12.04
4/19/2023 11:30:00 AM 8.83 47.894 0.247 7.86 3.45 12.06
4/19/2023 11:45:00 AM 9.05 48.29 0.246 7.88 3.74 12.06
4/19/2023 12:00:00 PM 9.28 48.704 0.245 7.9 3.41 12.07
4/19/2023 12:15:00 PM 9.51 49.118 0.245 7.93 3.46 12.06
4/19/2023 12:30:00 PM 9.75 49.55 0.246 7.95 3.33 12.06
4/19/2023 12:45:00 PM 9.99 49.982 0.246 7.98 3.68 12.04
4/19/2023 1:00:00 PM 10.22 50.396 0.246 8 5.06 12.01
4/19/2023 1:15:00 PM 10.43 50.774 0.246 8.03 3.8 11.99
4/19/2023 1:30:00 PM 10.71 51.278 0.236 8.06 6.37 11.95
4/19/2023 1:45:00 PM 10.94 51.692 0.243 8.08 3.53 11.91
4/19/2023 2:00:00 PM 11.2 52.16 0.242 8.1 4.74 11.86
4/19/2023 2:15:00 PM 11.49 52.682 0.241 8.12 3.62 11.81
4/19/2023 2:30:00 PM 11.73 53.114 0.24 8.14 3.94 11.76
4/19/2023 2:45:00 PM 11.99 53.582 0.24 8.15 3.79 11.7
4/19/2023 3:00:00 PM 12.23 54.014 0.241 8.18 4.15 11.65
4/19/2023 3:15:00 PM 12.46 54.428 0.122 8.2 4.8 11.58
4/19/2023 3:30:00 PM 12.66 54.788 0.242 8.21 3.98 11.51
4/19/2023 3:45:00 PM 12.83 55.094 0.242 8.22 4.1 11.45
4/19/2023 4:00:00 PM 12.96 55.328 0.242 8.23 4.36 11.38
4/19/2023 4:15:00 PM 13.08 55.544 0.241 8.23 4.1 11.3
4/19/2023 4:30:00 PM 13.15 55.67 0.24 8.23 6.55 11.23
4/19/2023 4:45:00 PM 13.19 55.742 0.239 8.23 6.85 11.16
4/19/2023 5:00:00 PM 13.23 55.814 0.238 8.23 4.3 11.09
4/19/2023 5:15:00 PM 13.23 55.814 0.238 8.22 4.12 11.02
4/19/2023 5:30:00 PM 13.22 55.796 0.238 8.21 4.15 10.95
4/19/2023 5:45:00 PM 13.2 55.76 0.239 8.2 4.38 10.87
4/19/2023 6:00:00 PM 13.17 55.706 0.239 8.18 4.52 10.79
4/19/2023 6:15:00 PM 13.13 55.634 0.239 8.15 4.22 10.7
4/19/2023 6:30:00 PM 13.09 55.562 0.239 8.12 4.2 10.61
4/19/2023 6:45:00 PM 13.04 55.472 0.239 8.09 5.4 10.52
4/19/2023 7:00:00 PM 12.99 55.382 0.239 8.05 4.4 10.43
4/19/2023 7:15:00 PM 12.93 55.274 0.238 8.01 5.5 10.35
4/19/2023 7:30:00 PM 12.86 55.148 0.238 7.97 4.68 10.27
4/19/2023 7:45:00 PM 12.78 55.004 0.171 7.93 5.93 10.18
4/19/2023 8:00:00 PM 12.7 54.86 0.239 7.89 4.69 10.1
4/19/2023 8:15:00 PM 12.62 54.716 0.241 7.85 4.69 10
4/19/2023 8:30:00 PM 12.54 54.572 0.243 7.81 4.66 9.94
4/19/2023 8:45:00 PM 12.47 54.446 0.244 7.78 5.51 9.88
4/19/2023 9:00:00 PM 12.4 54.32 0.245 7.75 5.29 9.82
4/19/2023 9:15:00 PM 12.33 54.194 0.245 7.72 5.4 9.77
4/19/2023 9:30:00 PM 12.26 54.068 0.245 7.7 5.12 9.73
4/19/2023 9:45:00 PM 12.19 53.942 0.245 7.67 5.06 9.69
4/19/2023 10:00:00 PM 12.12 53.816 0.244 7.65 5.27 9.67
4/19/2023 10:15:00 PM 12.06 53.708 0.244 7.63 5.38 9.64
4/19/2023 10:30:00 PM 12.01 53.618 0.245 7.62 5.25 9.62
4/19/2023 10:45:00 PM 11.96 53.528 0.247 7.61 7.6 9.6
4/19/2023 11:00:00 PM 11.92 53.456 0.249 7.59 7.71 9.58
4/19/2023 11:15:00 PM 11.87 53.366 0.251 7.58 7.15 9.57
4/19/2023 11:30:00 PM 11.84 53.312 0.253 7.58 7.67 9.55
4/19/2023 11:45:00 PM 11.79 53.222 0.254 7.56 4.68 9.54
4/20/2023 12:00:00 AM 11.75 53.15 0.254 7.56 4.74 9.54
4/20/2023 12:15:00 AM 11.7 53.06 0.253 7.55 9.12 9.54
4/20/2023 12:30:00 AM 11.66 52.988 0.251 7.54 4.8 9.54
4/20/2023 12:45:00 AM 11.61 52.898 0.25 7.53 4.8 9.55
4/20/2023 1:00:00 AM 11.57 52.826 0.249 7.52 7.73 9.56
4/20/2023 1:15:00 AM 11.54 52.772 0.249 7.52 4.5 9.57
4/20/2023 1:30:00 AM 11.5 52.7 0.25 7.51 4.76 9.57
4/20/2023 1:45:00 AM 11.47 52.646 0.252 7.51 5.91 9.58
4/20/2023 2:00:00 AM 11.44 52.592 0.254 7.51 4.46 9.59
4/20/2023 2:15:00 AM 11.42 52.556 0.255 7.51 4.69 9.59
4/20/2023 2:30:00 AM 11.38 52.484 0.256 7.51 4.73 9.6
4/20/2023 2:45:00 AM 11.34 52.412 0.256 7.51 4.73 9.62
4/20/2023 3:00:00 AM 11.3 52.34 0.255 7.51 4.45 9.63
4/20/2023 3:15:00 AM 11.24 52.232 0.254 7.51 6.15 9.65
4/20/2023 3:30:00 AM 11.17 52.106 0.252 7.5 4.49 9.67
4/20/2023 3:45:00 AM 11.1 51.98 0.25 7.5 4.35 9.7
4/20/2023 4:00:00 AM 11.04 51.872 0.25 7.5 4.52 9.72
4/20/2023 4:15:00 AM 10.97 51.746 0.25 7.5 4.72 9.75
4/20/2023 4:30:00 AM 10.89 51.602 0.251 7.49 4.7 9.78
4/20/2023 4:45:00 AM 10.81 51.458 0.252 7.49 4.68 9.8
4/20/2023 5:00:00 AM 10.73 51.314 0.253 7.5 4.65 9.82
4/20/2023 5:15:00 AM 10.65 51.17 0.254 7.5 4.66 9.84
4/20/2023 5:30:00 AM 10.57 51.026 0.253 7.49 4.52 9.88
4/20/2023 5:45:00 AM 10.47 50.846 0.252 7.49 5.55 9.88
4/20/2023 6:00:00 AM 10.39 50.702 0.251 7.49 7.18 9.94
4/20/2023 6:15:00 AM 10.3 50.54 0.25 7.49 4.83 9.96
4/20/2023 6:30:00 AM 10.22 50.396 0.249 7.49 8.26 9.99
4/20/2023 6:45:00 AM 10.13 50.234 0.249 7.49 4.4 10.04
4/20/2023 7:00:00 AM 10.05 50.09 0.249 7.49 4.42 10.09
4/20/2023 7:15:00 AM 9.98 49.964 0.25 7.5 4.47 10.16
4/20/2023 7:30:00 AM 9.93 49.874 0.251 7.51 4.18 10.23
4/20/2023 7:45:00 AM 9.87 49.766 0.253 7.52 4.12 10.31
4/20/2023 8:00:00 AM 9.83 49.694 0.253 7.53 4.26 10.39
4/20/2023 8:15:00 AM 9.82 49.676 0.253 7.54 4.09 10.49
4/20/2023 8:30:00 AM 9.82 49.676 0.253 7.56 3.94 10.57
4/20/2023 8:45:00 AM 9.87 49.766 0.251 7.58 4.05 10.68
4/20/2023 9:00:00 AM 9.94 49.892 0.249 7.6 5.74 10.79
4/20/2023 9:15:00 AM 10.02 50.036 0.249 7.63 3.86 10.88
4/20/2023 9:30:00 AM 10.13 50.234 0.249 7.65 3.69 10.97
4/20/2023 9:45:00 AM 10.26 50.468 0.249 7.68 3.69 11.05
4/20/2023 10:00:00 AM 10.42 50.756 0.25 7.7 3.82 11.11
4/20/2023 10:15:00 AM 10.6 51.08 0.25 7.73 3.75 11.18
4/20/2023 10:30:00 AM 10.8 51.44 0.251 7.76 3.75 11.23
4/20/2023 10:45:00 AM 11.01 51.818 0.251 7.78 3.59 11.29
4/20/2023 11:00:00 AM 11.22 52.196 0.242 7.82 6.12 11.32
4/20/2023 11:15:00 AM 11.43 52.574 0.25 7.84 3.65 11.35
4/20/2023 11:30:00 AM 11.63 52.934 0.25 7.87 3.98 11.39
4/20/2023 11:45:00 AM 11.84 53.312 0.249 7.9 3.66 11.41
4/20/2023 12:00:00 PM 12.05 53.69 0.248 7.92 3.93 11.43
4/20/2023 12:15:00 PM 12.28 54.104 0.248 7.95 4.01 11.43
4/20/2023 12:30:00 PM 12.51 54.518 0.248 7.98 4.09 11.44
4/20/2023 12:45:00 PM 12.74 54.932 0.249 8.01 6.3 11.44
4/20/2023 1:00:00 PM 12.98 55.364 0.25 8.04 6.58 11.42
4/20/2023 1:15:00 PM 13.23 55.814 0.251 8.06 4.1 11.38
4/20/2023 1:30:00 PM 13.47 56.246 0.251 8.1 6.92 11.38
4/20/2023 1:45:00 PM 13.72 56.696 0.252 8.12 4 11.35
4/20/2023 2:00:00 PM 13.97 57.146 0.247 8.15 6.63 11.31
4/20/2023 2:15:00 PM 14.24 57.632 0.25 8.18 3.99 11.27
4/20/2023 2:30:00 PM 14.48 58.064 0.249 8.2 4.03 11.24
4/20/2023 2:45:00 PM 14.71 58.478 0.248 8.22 6.2 11.17
4/20/2023 3:00:00 PM 14.96 58.928 0.247 8.25 4.12 11.12
4/20/2023 3:15:00 PM 15.19 59.342 0.247 8.27 4.06 11.07
4/20/2023 3:30:00 PM 15.44 59.792 0.246 8.29 4.07 10.99
4/20/2023 3:45:00 PM 15.66 60.188 0.246 8.3 6.71 10.92
4/20/2023 4:00:00 PM 15.81 60.458 0.246 8.31 4.18 10.85
4/20/2023 4:15:00 PM 15.95 60.71 0.246 8.32 4.31 10.77
4/20/2023 4:30:00 PM 16 60.8 0.246 8.34 4.31 10.67
4/20/2023 4:45:00 PM 16.07 60.926 0.245 8.32 7.04 10.59
4/20/2023 5:00:00 PM 16.08 60.944 0.245 8.3 14 10.48
4/20/2023 5:15:00 PM 16.06 60.908 0.244 8.29 5.48 10.4
4/20/2023 5:30:00 PM 16.03 60.854 0.244 8.27 6.52 10.32
4/20/2023 5:45:00 PM 16.03 60.854 0.244 8.25 7.08 10.23
4/20/2023 6:00:00 PM 16.04 60.872 0.244 8.23 4.5 10.14
4/20/2023 6:15:00 PM 16.03 60.854 0.134 8.2 5.25 10.06
4/20/2023 6:30:00 PM 16.01 60.818 0.246 8.17 4.46 9.95
4/20/2023 6:45:00 PM 15.96 60.728 0.246 8.13 4.38 9.84
4/20/2023 7:00:00 PM 15.9 60.62 0.215 8.07 6.57 9.7
4/20/2023 7:15:00 PM 15.83 60.494 0.244 8.01 6.18 9.57
4/20/2023 7:30:00 PM 15.77 60.386 0.243 7.96 5.69 9.48
4/20/2023 7:45:00 PM 15.7 60.26 0.242 7.91 5.38 9.39
4/20/2023 8:00:00 PM 15.61 60.098 0.242 7.86 8.07 9.28
4/20/2023 8:15:00 PM 15.51 59.918 0.24 7.81 7.86 9.19
4/20/2023 8:30:00 PM 15.41 59.738 0.241 7.76 11.76 9.11
4/20/2023 8:45:00 PM 15.33 59.594 0.241 7.73 6.54 9.06
4/20/2023 9:00:00 PM 15.24 59.432 0.242 7.69 5.34 8.99
4/20/2023 9:15:00 PM 15.14 59.252 0.243 7.66 5.55 8.95
4/20/2023 9:30:00 PM 15.05 59.09 0.243 7.64 6.43 8.92
4/20/2023 9:45:00 PM 14.96 58.928 0.244 7.62 5.73 8.86
4/20/2023 10:00:00 PM 14.88 58.784 0.244 7.59 5.11 8.85
4/20/2023 10:15:00 PM 14.81 58.658 0.245 7.57 5.3 8.83
4/20/2023 10:30:00 PM 14.73 58.514 0.244 7.55 5.4 8.8
4/20/2023 10:45:00 PM 14.66 58.388 0.244 7.54 5.53 8.79
4/20/2023 11:00:00 PM 14.59 58.262 0.243 7.53 5.45 8.78
4/20/2023 11:15:00 PM 14.53 58.154 0.243 7.52 5.37 8.76
4/20/2023 11:30:00 PM 14.47 58.046 0.244 7.51 12.28 8.76
4/20/2023 11:45:00 PM 14.41 57.938 0.246 7.5 8.16 8.75
4/21/2023 12:00:00 AM 14.35 57.83 0.247 7.49 5.68 8.74
4/21/2023 12:15:00 AM 14.3 57.74 0.248 7.49 5.49 8.74
4/21/2023 12:30:00 AM 14.26 57.668 0.249 7.48 5.34 8.74
4/21/2023 12:45:00 AM 14.21 57.578 0.248 7.48 8.15 8.74
4/21/2023 1:00:00 AM 14.16 57.488 0.248 7.47 5.26 8.75
4/21/2023 1:15:00 AM 14.11 57.398 0.247 7.46 7.25 8.76
4/21/2023 1:30:00 AM 14.06 57.308 0.246 7.46 5.28 8.77
4/21/2023 1:45:00 AM 14.01 57.218 0.244 7.46 6.91 8.79
4/21/2023 2:00:00 AM 13.95 57.11 0.243 7.45 5.66 8.81
4/21/2023 2:15:00 AM 13.89 57.002 0.243 7.45 5.41 8.83
4/21/2023 2:30:00 AM 13.83 56.894 0.243 7.45 4.99 8.83
4/21/2023 2:45:00 AM 13.76 56.768 0.243 7.45 5.32 8.86
4/21/2023 3:00:00 AM 13.7 56.66 0.243 7.45 7.02 8.88
4/21/2023 3:15:00 AM 13.63 56.534 0.242 7.45 8 8.9
4/21/2023 3:30:00 AM 13.56 56.408 0.241 7.45 4.91 8.92
4/21/2023 3:45:00 AM 13.49 56.282 0.239 7.45 4.98 8.95
4/21/2023 4:00:00 AM 13.41 56.138 0.238 7.46 7.16 8.97
4/21/2023 4:15:00 AM 13.34 56.012 0.234 7.45 8.03 8.99
4/21/2023 4:30:00 AM 13.25 55.85 0.239 7.45 5.13 9.01
4/21/2023 4:45:00 AM 13.17 55.706 0.24 7.45 5.58 9.03
4/21/2023 5:00:00 AM 13.08 55.544 0.24 7.45 4.73 9.06
4/21/2023 5:15:00 AM 13 55.4 0.225 7.45 5.8 9.08
4/21/2023 5:30:00 AM 12.9 55.22 0.238 7.45 9.62 9.11
4/21/2023 5:45:00 AM 12.81 55.058 0.237 7.44 9.34 9.12
4/21/2023 6:00:00 AM 12.71 54.878 0.182 7.44 10.23 9.16
4/21/2023 6:15:00 AM 12.61 54.698 0.233 7.45 4.5 9.2
4/21/2023 6:30:00 AM 12.52 54.536 0.232 7.45 6.61 9.24
4/21/2023 6:45:00 AM 12.42 54.356 0.231 7.45 4.88 9.27
4/21/2023 7:00:00 AM 12.34 54.212 0.232 7.45 4.45 9.35
4/21/2023 7:15:00 AM 12.27 54.086 0.233 7.46 4.42 9.41
4/21/2023 7:30:00 AM 12.2 53.96 0.159 7.2 5.65 9.5
4/21/2023 7:45:00 AM 12.14 53.852 0.236 7.48 7.03 9.59
4/21/2023 8:00:00 AM 12.1 53.78 0.238 7.5 4.29 9.67
4/21/2023 8:15:00 AM 12.08 53.744 0.239 7.51 4.57 9.78
4/21/2023 8:30:00 AM 12.09 53.762 0.241 7.53 6.64 9.89
4/21/2023 8:45:00 AM 12.13 53.834 0.243 7.55 4.35 10.02
4/21/2023 9:00:00 AM 12.21 53.978 0.245 7.58 4.02 10.14
4/21/2023 9:15:00 AM 12.28 54.104 0.248 7.61 4.29 10.24
4/21/2023 9:30:00 AM 12.39 54.302 0.252 7.64 4.03 10.34
4/21/2023 9:45:00 AM 12.52 54.536 0.256 7.66 4.05 10.44
4/21/2023 10:00:00 AM 12.67 54.806 0.26 7.69 3.95 10.51
4/21/2023 10:15:00 AM 12.86 55.148 0.263 7.72 3.87 10.6
4/21/2023 10:30:00 AM 13.05 55.49 0.266 7.76 3.73 10.66
4/21/2023 10:45:00 AM 13.28 55.904 0.268 7.79 4.02 10.73
4/21/2023 11:00:00 AM 13.48 56.264 0.268 7.82 4.49 10.78
4/21/2023 11:15:00 AM 13.7 56.66 0.268 7.86 3.92 10.83
4/21/2023 11:30:00 AM 13.91 57.038 0.268 7.89 3.85 10.86
4/21/2023 11:45:00 AM 14.13 57.434 0.266 7.92 6.61 10.9
4/21/2023 12:00:00 PM 14.35 57.83 0.267 7.96 5.48 10.93
4/21/2023 12:15:00 PM 14.55 58.19 0.267 8 3.89 10.96
4/21/2023 12:30:00 PM 14.77 58.586 0.267 8.03 4.1 10.98
4/21/2023 12:45:00 PM 15 59 0.268 8.07 3.88 10.98
4/21/2023 1:00:00 PM 15.23 59.414 0.268 8.1 3.91 10.98
4/21/2023 1:15:00 PM 15.45 59.81 0.269 8.14 4.89 10.96
4/21/2023 1:30:00 PM 15.66 60.188 0.269 8.16 4.26 10.93
4/21/2023 1:45:00 PM 15.8 60.44 0.269 8.18 3.85 10.88
4/21/2023 2:00:00 PM 15.93 60.674 0.268 8.21 4.14 10.83
4/21/2023 2:15:00 PM 16.04 60.872 0.266 8.22 5.19 10.74
4/21/2023 2:30:00 PM 16.25 61.25 0.266 8.24 4.33 10.73
4/21/2023 2:45:00 PM 16.4 61.52 0.265 8.25 4.29 10.66
4/21/2023 3:00:00 PM 16.47 61.646 0.264 8.26 4.09 10.56
4/21/2023 3:15:00 PM 16.54 61.772 0.263 8.26 4.39 10.48
4/21/2023 3:30:00 PM 16.55 61.79 0.264 8.26 4.4 10.36
4/21/2023 3:45:00 PM 16.59 61.862 0.263 8.25 4.38 10.27
4/21/2023 4:00:00 PM 16.63 61.934 0.263 8.23 4.69 10.19
4/21/2023 4:15:00 PM 16.71 62.078 0.262 8.23 4.69 10.15
4/21/2023 4:30:00 PM 16.75 62.15 0.261 8.22 4.79 10.06
4/21/2023 4:45:00 PM 16.75 62.15 0.26 8.21 4.71 10
4/21/2023 5:00:00 PM 16.69 62.042 0.259 8.17 4.85 9.83
4/21/2023 5:15:00 PM 16.64 61.952 0.259 8.12 6.48 9.65
4/21/2023 5:30:00 PM 16.6 61.88 0.258 8.06 4.98 9.53
4/21/2023 5:45:00 PM 16.57 61.826 0.258 8.01 8 9.43
4/21/2023 6:00:00 PM 16.52 61.736 0.258 7.97 4.97 9.36
4/21/2023 6:15:00 PM 16.46 61.628 0.258 7.93 6.8 9.25
4/21/2023 6:30:00 PM 16.38 61.484 0.259 7.88 7.85 9.14
4/21/2023 6:45:00 PM 16.33 61.394 0.258 7.84 5.09 9.08
4/21/2023 7:00:00 PM 16.29 61.322 0.258 7.82 4.75 9.04
4/21/2023 7:15:00 PM 16.24 61.232 0.257 7.79 4.88 8.98
4/21/2023 7:30:00 PM 16.18 61.124 0.258 7.76 5.23 8.91
4/21/2023 7:45:00 PM 16.12 61.016 0.258 7.73 5.49 8.83
4/21/2023 8:00:00 PM 16.05 60.89 0.258 7.69 6.54 8.75
4/21/2023 8:15:00 PM 15.99 60.782 0.259 7.66 7.12 8.68
4/21/2023 8:30:00 PM 15.93 60.674 0.258 7.64 6.01 8.65
4/21/2023 8:45:00 PM 15.88 60.584 0.259 7.62 5.59 8.61
4/21/2023 9:00:00 PM 15.83 60.494 0.234 7.61 8.43 8.56
4/21/2023 9:15:00 PM 15.77 60.386 0.259 7.58 5.4 8.52
4/21/2023 9:30:00 PM 15.71 60.278 0.259 7.56 6 8.5
4/21/2023 9:45:00 PM 15.67 60.206 0.258 7.55 6.76 8.48
4/21/2023 10:00:00 PM 15.63 60.134 0.257 7.54 8.77 8.47
4/21/2023 10:15:00 PM 15.6 60.08 0.256 7.53 8.57 8.46
4/21/2023 10:30:00 PM 15.57 60.026 0.256 7.52 9.34 8.45
4/21/2023 10:45:00 PM 15.54 59.972 0.258 7.51 8.27 8.44
4/21/2023 11:00:00 PM 15.5 59.9 0.26 7.5 6.51 8.43
4/21/2023 11:15:00 PM 15.47 59.846 0.261 7.5 6.97 8.41
4/21/2023 11:30:00 PM 15.44 59.792 0.262 7.49 5.58 8.41
4/21/2023 11:45:00 PM 15.41 59.738 0.262 7.49 5.67 8.41
4/22/2023 12:00:00 AM 15.38 59.684 0.261 7.48 5.65 8.41
4/22/2023 12:15:00 AM 15.35 59.63 0.26 7.48 5.67 8.41
4/22/2023 12:30:00 AM 15.32 59.576 0.257 7.47 5.46 8.41
4/22/2023 12:45:00 AM 15.29 59.522 0.255 7.47 7.68 8.42
4/22/2023 1:00:00 AM 15.25 59.45 0.253 7.46 5.89 8.42
4/22/2023 1:15:00 AM 15.21 59.378 0.252 7.46 5.79 8.44
4/22/2023 1:30:00 AM 15.18 59.324 0.253 7.46 6.63 8.43
4/22/2023 1:45:00 AM 15.14 59.252 0.23 7.46 8.08 8.45
4/22/2023 2:00:00 AM 15.09 59.162 0.25 7.46 9.68 8.46
4/22/2023 2:15:00 AM 15.03 59.054 0.258 7.46 7.47 8.47
4/22/2023 2:30:00 AM 14.96 58.928 0.26 7.45 5.32 8.48
4/22/2023 2:45:00 AM 14.9 58.82 0.261 7.45 5.79 8.48
4/22/2023 3:00:00 AM 14.83 58.694 0.261 7.44 5.58 8.5
4/22/2023 3:15:00 AM 14.77 58.586 0.26 7.44 6.39 8.52
4/22/2023 3:30:00 AM 14.7 58.46 0.177 7.44 7.1 8.54
4/22/2023 3:45:00 AM 14.63 58.334 0.258 7.44 5.52 8.56
4/22/2023 4:00:00 AM 14.56 58.208 0.257 7.44 5.33 8.58
4/22/2023 4:15:00 AM 14.5 58.1 0.258 7.44 5.98 8.6
4/22/2023 4:30:00 AM 14.43 57.974 0.236 7.44 7.21 8.63
4/22/2023 4:45:00 AM 14.36 57.848 0.165 7.44 6.98 8.65
4/22/2023 5:00:00 AM 14.29 57.722 0.26 7.43 10.02 8.65
4/22/2023 5:15:00 AM 14.22 57.596 0.26 7.44 5.06 8.68
4/22/2023 5:30:00 AM 14.15 57.47 0.259 7.44 7.88 8.71
4/22/2023 5:45:00 AM 14.08 57.344 0.258 7.43 8.03 8.73
4/22/2023 6:00:00 AM 14 57.2 0.257 7.43 8.96 8.76
4/22/2023 6:15:00 AM 13.93 57.074 0.255 7.43 7.13 8.78
4/22/2023 6:30:00 AM 13.86 56.948 0.254 7.44 10.6 8.81
4/22/2023 6:45:00 AM 13.79 56.822 0.254 7.44 5.12 8.85
4/22/2023 7:00:00 AM 13.73 56.714 0.255 7.44 8.5 8.88
4/22/2023 7:15:00 AM 13.68 56.624 0.256 7.45 5.26 8.96
4/22/2023 7:30:00 AM 13.64 56.552 0.257 7.46 4.79 9.04
4/22/2023 7:45:00 AM 13.61 56.498 0.259 7.47 4.99 9.14
4/22/2023 8:00:00 AM 13.6 56.48 0.259 7.49 7.4 9.24
4/22/2023 8:15:00 AM 13.59 56.462 0.259 7.51 7.21 9.35
4/22/2023 8:30:00 AM 13.6 56.48 0.258 7.53 4.5 9.48
4/22/2023 8:45:00 AM 13.61 56.498 0.257 7.56 5.27 9.58
4/22/2023 9:00:00 AM 13.65 56.57 0.256 7.58 4.33 9.7
4/22/2023 9:15:00 AM 13.68 56.624 0.255 7.61 4.39 9.8
4/22/2023 9:30:00 AM 13.72 56.696 0.255 7.64 6.3 9.89
4/22/2023 9:45:00 AM 13.71 56.678 0.256 7.65 4.35 9.9
4/22/2023 10:00:00 AM 13.69 56.642 0.256 7.66 4.34 9.85
4/22/2023 10:15:00 AM 13.66 56.588 0.258 7.66 4.34 9.77
4/22/2023 10:30:00 AM 13.62 56.516 0.258 7.65 4.33 9.73
4/22/2023 10:45:00 AM 13.67 56.606 0.241 7.69 6.29 9.87
4/22/2023 11:00:00 AM 13.72 56.696 0.257 7.7 4.35 9.99
4/22/2023 11:15:00 AM 13.9 57.02 0.256 7.75 6.62 10.19
4/22/2023 11:30:00 AM 13.94 57.092 0.254 7.79 4.14 10.26
4/22/2023 11:45:00 AM 13.89 57.002 0.253 7.8 4.31 10.2
4/22/2023 12:00:00 PM 13.86 56.948 0.252 7.8 4.26 10.17
4/22/2023 12:15:00 PM 13.87 56.966 0.252 7.81 4.32 10.19
4/22/2023 12:30:00 PM 13.88 56.984 0.252 7.83 4.3 10.22
4/22/2023 12:45:00 PM 13.87 56.966 0.253 7.85 6 10.2
4/22/2023 1:00:00 PM 13.85 56.93 0.253 7.84 4.38 10.17
4/22/2023 1:15:00 PM 13.84 56.912 0.254 7.84 4.87 10.16
4/22/2023 1:30:00 PM 13.83 56.894 0.254 7.84 7.61 10.12
4/22/2023 1:45:00 PM 13.81 56.858 0.253 7.83 7.14 10.07
4/22/2023 2:00:00 PM 13.79 56.822 0.252 7.83 4.37 10.04
4/22/2023 2:15:00 PM 13.78 56.804 0.25 7.83 4.36 10.02
4/22/2023 2:30:00 PM 13.75 56.75 0.248 7.81 4.78 9.99
4/22/2023 2:45:00 PM 13.71 56.678 0.246 7.81 4.84 9.98
4/22/2023 3:00:00 PM 13.66 56.588 0.243 7.8 7.61 9.93
4/22/2023 3:15:00 PM 13.62 56.516 0.242 7.78 4.97 9.88
4/22/2023 3:30:00 PM 13.59 56.462 0.241 7.77 7.84 9.87
4/22/2023 3:45:00 PM 13.58 56.444 0.239 7.77 8.49 9.88
4/22/2023 4:00:00 PM 13.59 56.462 0.237 7.76 8.53 9.92
4/22/2023 4:15:00 PM 13.59 56.462 0.18 7.77 9.71 9.94
4/22/2023 4:30:00 PM 13.58 56.444 0.228 7.75 12.39 9.92
4/22/2023 4:45:00 PM 13.55 56.39 0.225 7.74 16.54 9.89
4/22/2023 5:00:00 PM 13.5 56.3 0.225 7.71 20.88 9.8
4/22/2023 5:15:00 PM 13.46 56.228 0.226 7.69 21.68 9.74
4/22/2023 5:30:00 PM 13.45 56.21 0.227 7.69 22.8 9.79
4/22/2023 5:45:00 PM 13.44 56.192 0.224 7.55 26.85 9.82
4/22/2023 6:00:00 PM 13.45 56.21 0.23 7.71 28.02 9.89
4/22/2023 6:15:00 PM 13.46 56.228 0.231 7.72 20.47 9.94
4/22/2023 6:30:00 PM 13.44 56.192 0.233 7.73 20.39 9.95
4/22/2023 6:45:00 PM 13.39 56.102 0.232 7.74 19.81 9.91
4/22/2023 7:00:00 PM 13.34 56.012 0.231 7.7 18.6 9.83
4/22/2023 7:15:00 PM 13.3 55.94 0.231 7.69 24.17 9.76
4/22/2023 7:30:00 PM 13.27 55.886 0.229 7.67 37.06 9.72
4/22/2023 7:45:00 PM 13.26 55.868 0.229 7.65 24.78 9.68
4/22/2023 8:00:00 PM 13.23 55.814 0.229 7.63 23.1 9.64
4/22/2023 8:15:00 PM 13.18 55.724 0.228 7.61 21.25 9.58
4/22/2023 8:30:00 PM 13.13 55.634 0.231 7.59 17.23 9.54
4/22/2023 8:45:00 PM 13.1 55.58 0.239 7.57 19.02 9.49
4/22/2023 9:00:00 PM 13.07 55.526 0.247 7.57 21.14 9.45
4/22/2023 9:15:00 PM 13.03 55.454 0.254 7.56 22.98 9.41
4/22/2023 9:30:00 PM 12.98 55.364 0.257 7.55 20.72 9.39
4/22/2023 9:45:00 PM 12.93 55.274 0.26 7.54 20.7 9.38
4/22/2023 10:00:00 PM 12.87 55.166 0.159 7.54 21.49 9.37
4/22/2023 10:15:00 PM 12.82 55.076 0.256 7.53 18.32 9.37
4/22/2023 10:30:00 PM 12.79 55.022 0.183 7.53 19.47 9.36
4/22/2023 10:45:00 PM 12.73 54.914 0.256 7.52 8.78 9.36
4/22/2023 11:00:00 PM 12.68 54.824 0.275 7.51 14.13 9.35
4/22/2023 11:15:00 PM 12.62 54.716 0.277 7.5 16.31 9.35
4/22/2023 11:30:00 PM 12.58 54.644 0.278 7.5 16.48 9.36
4/22/2023 11:45:00 PM 12.51 54.518 0.279 7.49 16.06 9.36
4/23/2023 12:00:00 AM 12.44 54.392 0.278 7.49 15.96 9.36
4/23/2023 12:15:00 AM 12.38 54.284 0.277 7.49 16.33 9.37
4/23/2023 12:30:00 AM 12.3 54.14 0.274 7.48 16.28 9.38
4/23/2023 12:45:00 AM 12.23 54.014 0.272 7.48 16.53 9.4
4/23/2023 1:00:00 AM 12.15 53.87 0.269 7.47 16.23 9.41
4/23/2023 1:15:00 AM 12.07 53.726 0.266 7.47 15.63 9.42
4/23/2023 1:30:00 AM 11.99 53.582 0.264 7.46 14.98 9.44
4/23/2023 1:45:00 AM 11.91 53.438 0.263 7.46 16.12 9.45
4/23/2023 2:00:00 AM 11.84 53.312 0.263 7.46 15.64 9.46
4/23/2023 2:15:00 AM 11.76 53.168 0.263 7.46 15.54 9.47
4/23/2023 2:30:00 AM 11.68 53.024 0.262 7.45 14.1 9.49
4/23/2023 2:45:00 AM 11.6 52.88 0.261 7.44 13.61 9.5
4/23/2023 3:00:00 AM 11.53 52.754 0.26 7.44 13.54 9.52
4/23/2023 3:15:00 AM 11.47 52.646 0.257 7.44 13.5 9.54
4/23/2023 3:30:00 AM 11.4 52.52 0.255 7.44 13.89 9.55
4/23/2023 3:45:00 AM 11.34 52.412 0.157 7.44 13.76 9.58
4/23/2023 4:00:00 AM 11.29 52.322 0.249 7.43 13.58 9.6
4/23/2023 4:15:00 AM 11.21 52.178 0.247 7.43 13.17 9.61
4/23/2023 4:30:00 AM 11.13 52.034 0.245 7.43 24.39 9.64
4/23/2023 4:45:00 AM 11.05 51.89 0.243 7.42 13.43 9.67
4/23/2023 5:00:00 AM 10.97 51.746 0.243 7.42 12.57 9.7
4/23/2023 5:15:00 AM 10.89 51.602 0.243 7.43 11.97 9.72
4/23/2023 5:30:00 AM 10.82 51.476 0.244 7.43 11.09 9.72
4/23/2023 5:45:00 AM 10.74 51.332 0.245 7.42 11.88 9.75
4/23/2023 6:00:00 AM 10.68 51.224 0.246 7.42 13.62 9.76
4/23/2023 6:15:00 AM 10.61 51.098 0.246 7.42 10.16 9.8
4/23/2023 6:30:00 AM 10.57 51.026 0.245 7.42 14.31 9.8
4/23/2023 6:45:00 AM 10.51 50.918 0.244 7.42 15.54 9.85
4/23/2023 7:00:00 AM 10.46 50.828 0.242 7.43 11.49 9.9
4/23/2023 7:15:00 AM 10.41 50.738 0.241 7.44 12.43 9.98
4/23/2023 7:30:00 AM 10.38 50.684 0.24 7.45 17.46 10.07
4/23/2023 7:45:00 AM 10.37 50.666 0.239 7.47 14.61 10.16
4/23/2023 8:00:00 AM 10.36 50.648 0.24 7.48 18.46 10.24
4/23/2023 8:15:00 AM 10.37 50.666 0.24 7.5 13.54 10.33
4/23/2023 8:30:00 AM 10.41 50.738 0.242 7.54 10.1 10.43
4/23/2023 8:45:00 AM 10.41 50.738 0.245 7.54 11.42 10.45
4/23/2023 9:00:00 AM 10.45 50.81 0.247 7.56 7.69 10.56
4/23/2023 9:15:00 AM 10.54 50.972 0.248 7.58 7.21 10.66
4/23/2023 9:30:00 AM 10.59 51.062 0.248 7.61 7.3 10.69
4/23/2023 9:45:00 AM 10.53 50.954 0.247 7.61 6.84 10.67
4/23/2023 10:00:00 AM 10.68 51.224 0.246 7.63 6.79 10.79
4/23/2023 10:15:00 AM 10.69 51.242 0.245 7.65 6.85 10.81
4/23/2023 10:30:00 AM 10.67 51.206 0.243 7.67 6.73 10.9
4/23/2023 10:45:00 AM 10.67 51.206 0.243 7.7 6.4 10.96
4/23/2023 11:00:00 AM 10.71 51.278 0.243 7.72 6.1 11.02
4/23/2023 11:15:00 AM 10.76 51.368 0.243 7.75 8.85 11.08
4/23/2023 11:30:00 AM 10.74 51.332 0.244 7.77 8.95 11.12
4/23/2023 11:45:00 AM 10.78 51.404 0.246 7.79 8.88 11.17
4/23/2023 12:00:00 PM 10.89 51.602 0.243 7.83 8.8 11.25
4/23/2023 12:15:00 PM 10.97 51.746 0.247 7.86 6.46 11.3
4/23/2023 12:30:00 PM 11.01 51.818 0.247 7.89 6.03 11.32
4/23/2023 12:45:00 PM 11.02 51.836 0.246 7.9 8.48 11.31
4/23/2023 1:00:00 PM 11.04 51.872 0.245 7.92 5.72 11.31
4/23/2023 1:15:00 PM 11.08 51.944 0.244 7.94 5.43 11.35
4/23/2023 1:30:00 PM 11.06 51.908 0.243 7.95 5.51 11.28
4/23/2023 1:45:00 PM 11.09 51.962 0.241 7.97 6.94 11.31
4/23/2023 2:00:00 PM 11.11 51.998 0.242 7.98 5.43 11.33
4/23/2023 2:15:00 PM 11.12 52.016 0.243 8 5.66 11.35
4/23/2023 2:30:00 PM 11.12 52.016 0.244 8.01 5.32 11.34
4/23/2023 2:45:00 PM 11.16 52.088 0.245 8.02 5.48 11.36
4/23/2023 3:00:00 PM 11.2 52.16 0.245 8.03 5.49 11.35
4/23/2023 3:15:00 PM 11.27 52.286 0.245 8.05 5.22 11.38
4/23/2023 3:30:00 PM 11.32 52.376 0.245 8.08 5.35 11.41
4/23/2023 3:45:00 PM 11.34 52.412 0.244 8.1 5.44 11.42
4/23/2023 4:00:00 PM 11.32 52.376 0.243 8.11 5.14 11.39
4/23/2023 4:15:00 PM 11.29 52.322 0.243 8.11 5.2 11.36
4/23/2023 4:30:00 PM 11.26 52.268 0.242 8.11 5.03 11.34
4/23/2023 4:45:00 PM 11.23 52.214 0.243 8.11 6.21 11.31
4/23/2023 5:00:00 PM 11.18 52.124 0.243 8.09 5.25 11.28
4/23/2023 5:15:00 PM 11.14 52.052 0.244 8.09 5.36 11.25
4/23/2023 5:30:00 PM 11.07 51.926 0.245 8.07 5.15 11.18
4/23/2023 5:45:00 PM 11.03 51.854 0.246 8.04 5.41 11.11
4/23/2023 6:00:00 PM 11.01 51.818 0.245 8.02 4.96 11.09
4/23/2023 6:15:00 PM 11 51.8 0.245 8.02 7.88 11.07
4/23/2023 6:30:00 PM 10.95 51.71 0.244 8 5.43 11.05
4/23/2023 6:45:00 PM 10.88 51.584 0.243 7.99 5.14 11.01
4/23/2023 7:00:00 PM 10.83 51.494 0.243 7.96 5 10.95
4/23/2023 7:15:00 PM 10.8 51.44 0.242 7.93 4.92 10.86
4/23/2023 7:30:00 PM 10.74 51.332 0.243 7.91 6.71 10.79
4/23/2023 7:45:00 PM 10.68 51.224 0.244 7.87 5.09 10.7
4/23/2023 8:00:00 PM 10.61 51.098 0.245 7.83 5.25 10.62
4/23/2023 8:15:00 PM 10.56 51.008 0.246 7.8 4.94 10.54
4/23/2023 8:30:00 PM 10.53 50.954 0.247 7.76 6.05 10.47
4/23/2023 8:45:00 PM 10.49 50.882 0.247 7.74 5.74 10.42
4/23/2023 9:00:00 PM 10.45 50.81 0.239 7.72 8.1 10.38
4/23/2023 9:15:00 PM 10.42 50.756 0.246 7.7 5.4 10.34
4/23/2023 9:30:00 PM 10.38 50.684 0.245 7.68 5.8 10.32
4/23/2023 9:45:00 PM 10.35 50.63 0.244 7.66 5.35 10.29
4/23/2023 10:00:00 PM 10.31 50.558 0.243 7.65 5.69 10.27
4/23/2023 10:15:00 PM 10.26 50.468 0.243 7.63 5.77 10.26
4/23/2023 10:30:00 PM 10.21 50.378 0.243 7.62 5.64 10.24
4/23/2023 10:45:00 PM 10.15 50.27 0.244 7.61 5.77 10.24
4/23/2023 11:00:00 PM 10.08 50.144 0.245 7.6 5.62 10.22
4/23/2023 11:15:00 PM 10.02 50.036 0.246 7.59 5.45 10.22
4/23/2023 11:30:00 PM 9.96 49.928 0.246 7.58 5.48 10.22
4/23/2023 11:45:00 PM 9.9 49.82 0.246 7.57 5.56 10.22
4/24/2023 12:00:00 AM 9.83 49.694 0.245 7.56 5.26 10.22
4/24/2023 12:15:00 AM 9.76 49.568 0.244 7.56 5.22 10.24
4/24/2023 12:30:00 AM 9.7 49.46 0.242 7.55 8.79 10.25
4/24/2023 12:45:00 AM 9.64 49.352 0.241 7.54 5.5 10.25
4/24/2023 1:00:00 AM 9.57 49.226 0.24 7.54 5.55 10.28
4/24/2023 1:15:00 AM 9.51 49.118 0.241 7.54 5.26 10.29
4/24/2023 1:30:00 AM 9.46 49.028 0.242 7.53 5.25 10.3
4/24/2023 1:45:00 AM 9.42 48.956 0.242 7.51 5.72 10.32
4/24/2023 2:00:00 AM 9.36 48.848 0.243 7.53 8.08 10.33
4/24/2023 2:15:00 AM 9.3 48.74 0.244 7.53 5.15 10.35
4/24/2023 2:30:00 AM 9.24 48.632 0.244 7.52 5.08 10.36
4/24/2023 2:45:00 AM 9.17 48.506 0.244 7.52 5.08 10.37
4/24/2023 3:00:00 AM 9.11 48.398 0.243 7.52 5.33 10.38
4/24/2023 3:15:00 AM 9.03 48.254 0.242 7.5 5.1 10.4
4/24/2023 3:30:00 AM 8.96 48.128 0.241 7.5 5.08 10.43
4/24/2023 3:45:00 AM 8.89 48.002 0.24 7.5 4.89 10.45
4/24/2023 4:00:00 AM 8.81 47.858 0.24 7.5 5.43 10.47
4/24/2023 4:15:00 AM 8.74 47.732 0.241 7.49 10.02 10.49
4/24/2023 4:30:00 AM 8.67 47.606 0.242 7.49 5.07 10.52
4/24/2023 4:45:00 AM 8.6 47.48 0.242 7.49 4.82 10.54
4/24/2023 5:00:00 AM 8.53 47.354 0.243 7.48 5.16 10.56
4/24/2023 5:15:00 AM 8.46 47.228 0.243 7.48 4.82 10.58
4/24/2023 5:30:00 AM 8.39 47.102 0.243 7.48 5.18 10.6
4/24/2023 5:45:00 AM 8.33 46.994 0.145 7.49 6.69 10.61
4/24/2023 6:00:00 AM 8.26 46.868 0.241 7.48 5.32 10.64
4/24/2023 6:15:00 AM 8.19 46.742 0.24 7.47 4.93 10.67
4/24/2023 6:30:00 AM 8.12 46.616 0.24 7.47 5.05 10.7
4/24/2023 6:45:00 AM 8.07 46.526 0.24 7.48 6.95 10.74
4/24/2023 7:00:00 AM 8.03 46.454 0.241 7.49 4.73 10.81
4/24/2023 7:15:00 AM 8 46.4 0.242 7.5 4.73 10.88
4/24/2023 7:30:00 AM 7.97 46.346 0.243 7.51 8.06 10.96
4/24/2023 7:45:00 AM 7.94 46.292 0.243 7.53 4.38 11.04
4/24/2023 8:00:00 AM 7.92 46.256 0.244 7.54 4.11 11.11
4/24/2023 8:15:00 AM 7.93 46.274 0.243 7.56 4.2 11.2
4/24/2023 8:30:00 AM 7.97 46.346 0.242 7.59 3.94 11.29
4/24/2023 8:45:00 AM 8.08 46.544 0.236 7.48 5.2 11.43
4/24/2023 9:00:00 AM 8.2 46.76 0.24 7.65 3.81 11.53
4/24/2023 9:15:00 AM 8.25 46.85 0.24 7.68 3.76 11.59
4/24/2023 9:30:00 AM 8.27 46.886 0.239 7.71 6.38 11.63
4/24/2023 9:45:00 AM 8.36 47.048 0.24 7.73 4.79 11.68
4/24/2023 10:00:00 AM 8.38 47.084 0.24 7.75 3.78 11.71
4/24/2023 10:15:00 AM 8.47 47.246 0.241 7.77 3.6 11.79
4/24/2023 10:30:00 AM 8.47 47.246 0.241 7.79 3.67 11.84
4/24/2023 10:45:00 AM 8.55 47.39 0.242 7.83 3.66 11.9
4/24/2023 11:00:00 AM 8.69 47.642 0.241 7.85 3.58 11.94
4/24/2023 11:15:00 AM 8.63 47.534 0.241 7.86 3.59 11.88
4/24/2023 11:30:00 AM 8.61 47.498 0.24 7.88 3.52 11.91
4/24/2023 11:45:00 AM 8.87 47.966 0.239 7.91 3.67 12
4/24/2023 12:00:00 PM 9.02 48.236 0.238 7.94 3.54 12.04
4/24/2023 12:15:00 PM 9.06 48.308 0.238 7.97 3.6 12.06
4/24/2023 12:30:00 PM 9.2 48.56 0.238 8 3.65 12.11
4/24/2023 12:45:00 PM 9.29 48.722 0.238 8.03 3.48 12.1
4/24/2023 1:00:00 PM 9.28 48.704 0.239 8.04 3.58 12.07
4/24/2023 1:15:00 PM 9.49 49.082 0.24 8.07 3.53 12.11
4/24/2023 1:30:00 PM 9.83 49.694 0.24 8.1 3.59 12.12
4/24/2023 1:45:00 PM 10.07 50.126 0.239 8.13 3.47 12.12
4/24/2023 2:00:00 PM 10.32 50.576 0.238 8.15 3.6 12.11
4/24/2023 2:15:00 PM 10.57 51.026 0.238 8.07 4.28 12.1
4/24/2023 2:30:00 PM 10.81 51.458 0.237 8.21 3.53 12.07
4/24/2023 2:45:00 PM 10.95 51.71 0.236 8.23 3.68 12.03
4/24/2023 3:00:00 PM 11.02 51.836 0.236 8.26 3.84 11.98
4/24/2023 3:15:00 PM 10.96 51.728 0.236 8.26 3.6 11.88
4/24/2023 3:30:00 PM 10.84 51.512 0.236 8.25 3.84 11.8
4/24/2023 3:45:00 PM 10.88 51.584 0.236 8.24 3.79 11.79
4/24/2023 4:00:00 PM 11.01 51.818 0.236 8.25 3.8 11.79
4/24/2023 4:15:00 PM 11.18 52.124 0.236 8.27 3.95 11.79
4/24/2023 4:30:00 PM 11.31 52.358 0.236 8.29 3.95 11.77
4/24/2023 4:45:00 PM 11.3 52.34 0.235 8.29 4.05 11.69
4/24/2023 5:00:00 PM 11.2 52.16 0.235 8.28 4.13 11.63
4/24/2023 5:15:00 PM 11.1 51.98 0.235 8.26 3.87 11.53
4/24/2023 5:30:00 PM 11.03 51.854 0.235 8.24 4.14 11.46
4/24/2023 5:45:00 PM 10.97 51.746 0.235 8.21 4.22 11.38
4/24/2023 6:00:00 PM 10.97 51.746 0.235 8.19 3.98 11.34
4/24/2023 6:15:00 PM 11.01 51.818 0.235 8.18 4.11 11.35
4/24/2023 6:30:00 PM 11.05 51.89 0.235 8.17 4.09 11.28
4/24/2023 6:45:00 PM 11.04 51.872 0.235 8.15 4 11.21
4/24/2023 7:00:00 PM 11.04 51.872 0.235 8.13 6.32 11.14
4/24/2023 7:15:00 PM 11.01 51.818 0.236 7.96 4.6 11.04
4/24/2023 7:30:00 PM 10.94 51.692 0.125 8.05 5.36 10.89
4/24/2023 7:45:00 PM 10.86 51.548 0.235 7.99 4.4 10.78
4/24/2023 8:00:00 PM 10.78 51.404 0.235 7.94 4.19 10.67
4/24/2023 8:15:00 PM 10.72 51.296 0.236 7.9 4.27 10.6
4/24/2023 8:30:00 PM 10.66 51.188 0.237 7.87 7.01 10.53
4/24/2023 8:45:00 PM 10.62 51.116 0.238 7.84 4.36 10.48
4/24/2023 9:00:00 PM 10.56 51.008 0.238 7.81 10.33 10.43
4/24/2023 9:15:00 PM 10.5 50.9 0.239 7.79 6.59 10.4
4/24/2023 9:30:00 PM 10.42 50.756 0.239 7.69 5.38 10.37
4/24/2023 9:45:00 PM 10.35 50.63 0.24 7.74 4.53 10.34
4/24/2023 10:00:00 PM 10.27 50.486 0.24 7.72 4.78 10.32
4/24/2023 10:15:00 PM 10.19 50.342 0.24 7.7 4.68 10.3
4/24/2023 10:30:00 PM 10.11 50.198 0.236 7.67 5.99 10.29
4/24/2023 10:45:00 PM 10.04 50.072 0.239 7.68 6.71 10.28
4/24/2023 11:00:00 PM 9.97 49.946 0.242 7.65 4.75 10.27
4/24/2023 11:15:00 PM 9.9 49.82 0.243 7.64 4.66 10.26
4/24/2023 11:30:00 PM 9.83 49.694 0.245 7.63 4.75 10.25
4/24/2023 11:45:00 PM 9.76 49.568 0.247 7.61 4.85 10.24
4/25/2023 12:00:00 AM 9.69 49.442 0.249 7.6 4.85 10.24
4/25/2023 12:15:00 AM 9.62 49.316 0.234 7.6 7.79 10.24
4/25/2023 12:30:00 AM 9.55 49.19 0.25 7.59 4.52 10.25
4/25/2023 12:45:00 AM 9.49 49.082 0.249 7.58 6.03 10.26
4/25/2023 1:00:00 AM 9.42 48.956 0.248 7.57 4.36 10.27
4/25/2023 1:15:00 AM 9.35 48.83 0.247 7.56 4.29 10.3
4/25/2023 1:30:00 AM 9.29 48.722 0.246 7.56 4.46 10.31
4/25/2023 1:45:00 AM 9.23 48.614 0.246 7.56 4.49 10.33
4/25/2023 2:00:00 AM 9.16 48.488 0.247 7.55 4.71 10.35
4/25/2023 2:15:00 AM 9.09 48.362 0.248 7.55 4.64 10.37
4/25/2023 2:30:00 AM 9.02 48.236 0.248 7.54 4.44 10.39
4/25/2023 2:45:00 AM 8.96 48.128 0.249 7.55 4.58 10.4
4/25/2023 3:00:00 AM 8.88 47.984 0.249 7.54 4.66 10.42
4/25/2023 3:15:00 AM 8.81 47.858 0.249 7.54 4.25 10.45
4/25/2023 3:30:00 AM 8.73 47.714 0.248 7.54 4.54 10.48
4/25/2023 3:45:00 AM 8.65 47.57 0.247 7.54 4.33 10.5
4/25/2023 4:00:00 AM 8.57 47.426 0.247 7.53 4.33 10.53
4/25/2023 4:15:00 AM 8.49 47.282 0.247 7.53 4.46 10.56
4/25/2023 4:30:00 AM 8.41 47.138 0.247 7.53 4.15 10.59
4/25/2023 4:45:00 AM 8.33 46.994 0.249 7.53 4.29 10.61
4/25/2023 5:00:00 AM 8.25 46.85 0.25 7.53 4.12 10.63
4/25/2023 5:15:00 AM 8.17 46.706 0.251 7.52 4.35 10.66
4/25/2023 5:30:00 AM 8.08 46.544 0.252 7.52 4.01 10.67
4/25/2023 5:45:00 AM 8 46.4 0.252 7.52 4.16 10.7
4/25/2023 6:00:00 AM 7.92 46.256 0.252 7.5 4.44 10.72
4/25/2023 6:15:00 AM 7.84 46.112 0.252 7.5 4.36 10.75
4/25/2023 6:30:00 AM 7.76 45.968 0.251 7.51 4.26 10.79
4/25/2023 6:45:00 AM 7.68 45.824 0.25 7.51 4.18 10.85
4/25/2023 7:00:00 AM 7.61 45.698 0.249 7.51 3.97 10.91
4/25/2023 7:15:00 AM 7.54 45.572 0.249 7.52 3.91 11
4/25/2023 7:30:00 AM 7.48 45.464 0.25 7.53 3.87 11.08
4/25/2023 7:45:00 AM 7.44 45.392 0.25 7.55 3.91 11.18
4/25/2023 8:00:00 AM 7.4 45.32 0.251 7.56 3.67 11.28
4/25/2023 8:15:00 AM 7.4 45.32 0.251 7.58 3.49 11.39
4/25/2023 8:30:00 AM 7.42 45.356 0.251 7.6 3.73 11.5
4/25/2023 8:45:00 AM 7.49 45.482 0.25 7.63 3.35 11.64
4/25/2023 9:00:00 AM 7.58 45.644 0.249 7.66 3.57 11.75
4/25/2023 9:15:00 AM 7.69 45.842 0.248 7.69 3.41 11.85
4/25/2023 9:30:00 AM 7.82 46.076 0.248 7.72 3.29 11.94
4/25/2023 9:45:00 AM 7.96 46.328 0.247 7.76 6.14 12.03
4/25/2023 10:00:00 AM 8.04 46.472 0.247 7.79 3.28 12.09
4/25/2023 10:15:00 AM 8.17 46.706 0.248 7.82 3.14 12.15
4/25/2023 10:30:00 AM 8.25 46.85 0.249 7.87 5.25 12.19
4/25/2023 10:45:00 AM 8.31 46.958 0.25 7.88 3.31 12.22
4/25/2023 11:00:00 AM 8.55 47.39 0.251 7.91 3.31 12.29
4/25/2023 11:15:00 AM 8.72 47.696 0.252 7.95 3.09 12.3
4/25/2023 11:30:00 AM 9.02 48.236 0.251 7.98 3.25 12.33
4/25/2023 11:45:00 AM 9.21 48.578 0.25 8.01 3.2 12.34
4/25/2023 12:00:00 PM 9.3 48.74 0.249 8.03 3.3 12.34
4/25/2023 12:15:00 PM 9.31 48.758 0.248 8.06 3.47 12.35
4/25/2023 12:30:00 PM 9.53 49.154 0.247 8.1 3.42 12.38
4/25/2023 12:45:00 PM 9.5 49.1 0.246 8.12 3.45 12.35
4/25/2023 1:00:00 PM 9.56 49.208 0.246 8.15 3.27 12.34
4/25/2023 1:15:00 PM 9.67 49.406 0.247 8.18 3.24 12.36
4/25/2023 1:30:00 PM 9.96 49.928 0.248 8.21 3.16 12.36
4/25/2023 1:45:00 PM 10.28 50.504 0.248 8.25 3.3 12.36
4/25/2023 2:00:00 PM 10.52 50.936 0.248 8.28 3.43 12.36
4/25/2023 2:15:00 PM 10.55 50.99 0.248 8.3 3.29 12.28
4/25/2023 2:30:00 PM 10.77 51.386 0.247 8.33 3.17 12.26
4/25/2023 2:45:00 PM 10.88 51.584 0.246 8.34 3.33 12.2
4/25/2023 3:00:00 PM 10.9 51.62 0.245 8.35 3.31 12.12
4/25/2023 3:15:00 PM 10.94 51.692 0.245 8.35 3.4 12.07
4/25/2023 3:30:00 PM 10.8 51.44 0.244 8.35 3.43 12
4/25/2023 3:45:00 PM 10.71 51.278 0.244 8.34 6.51 11.94
4/25/2023 4:00:00 PM 10.66 51.188 0.245 8.33 3.86 11.91
4/25/2023 4:15:00 PM 10.75 51.35 0.243 8.34 6.53 11.92
4/25/2023 4:30:00 PM 10.83 51.494 0.245 8.34 10.92 11.92
4/25/2023 4:45:00 PM 10.9 51.62 0.229 8.36 5.96 11.91
4/25/2023 5:00:00 PM 10.93 51.674 0.244 8.35 3.71 11.87
4/25/2023 5:15:00 PM 10.91 51.638 0.243 8.35 3.73 11.82
4/25/2023 5:30:00 PM 10.92 51.656 0.242 8.34 5.14 11.75
4/25/2023 5:45:00 PM 10.93 51.674 0.242 8.32 3.52 11.68
4/25/2023 6:00:00 PM 10.9 51.62 0.242 8.3 3.55 11.57
4/25/2023 6:15:00 PM 10.89 51.602 0.242 8.27 3.61 11.46
4/25/2023 6:30:00 PM 10.92 51.656 0.243 8.24 4.23 11.37
4/25/2023 6:45:00 PM 10.96 51.728 0.243 8.22 6 11.28
4/25/2023 7:00:00 PM 10.98 51.764 0.243 8.18 3.75 11.19
4/25/2023 7:15:00 PM 10.97 51.746 0.243 8.14 3.55 11.07
4/25/2023 7:30:00 PM 10.95 51.71 0.243 8.09 3.66 10.95
4/25/2023 7:45:00 PM 10.92 51.656 0.243 8.05 3.46 10.84
4/25/2023 8:00:00 PM 10.88 51.584 0.243 8 3.45 10.74
4/25/2023 8:15:00 PM 10.82 51.476 0.243 7.95 3.8 10.63
4/25/2023 8:30:00 PM 10.74 51.332 0.244 7.9 3.86 10.55
4/25/2023 8:45:00 PM 10.68 51.224 0.245 7.86 5.57 10.47
4/25/2023 9:00:00 PM 10.64 51.152 0.247 7.82 4.61 10.42
4/25/2023 9:15:00 PM 10.63 51.134 0.249 7.79 4.58 10.36
4/25/2023 9:30:00 PM 10.62 51.116 0.25 7.77 4.4 10.31
4/25/2023 9:45:00 PM 10.61 51.098 0.251 7.74 4.24 10.25
4/25/2023 10:00:00 PM 10.6 51.08 0.251 7.72 4.06 10.22
4/25/2023 10:15:00 PM 10.6 51.08 0.251 7.7 4.18 10.18
4/25/2023 10:30:00 PM 10.59 51.062 0.25 7.68 4.75 10.14
4/25/2023 10:45:00 PM 10.58 51.044 0.249 7.66 4.14 10.11
4/25/2023 11:00:00 PM 10.57 51.026 0.25 7.65 4.28 10.09
4/25/2023 11:15:00 PM 10.55 50.99 0.251 7.64 4.39 10.07
4/25/2023 11:30:00 PM 10.53 50.954 0.252 7.63 4.29 10.05
4/25/2023 11:45:00 PM 10.52 50.936 0.254 7.62 4.33 10.04
4/26/2023 12:00:00 AM 10.5 50.9 0.256 7.61 4.27 10.03
4/26/2023 12:15:00 AM 10.48 50.864 0.257 7.6 4.36 10.02
4/26/2023 12:30:00 AM 10.46 50.828 0.258 7.6 4.29 10.01
4/26/2023 12:45:00 AM 10.45 50.81 0.258 7.59 4.2 10.01
4/26/2023 1:00:00 AM 10.43 50.774 0.257 7.58 4.27 10.01
4/26/2023 1:15:00 AM 10.42 50.756 0.256 7.57 4.41 10.01
4/26/2023 1:30:00 AM 10.4 50.72 0.256 7.57 4.12 10.02
4/26/2023 1:45:00 AM 10.38 50.684 0.256 7.57 4.27 10.02
4/26/2023 2:00:00 AM 10.36 50.648 0.257 7.56 4.57 10.02
4/26/2023 2:15:00 AM 10.33 50.594 0.259 7.56 4.4 10.02
4/26/2023 2:30:00 AM 10.3 50.54 0.261 7.56 4.15 10.02
4/26/2023 2:45:00 AM 10.28 50.504 0.263 7.55 4.31 10.02
4/26/2023 3:00:00 AM 10.25 50.45 0.264 7.55 4.21 10.02
4/26/2023 3:15:00 AM 10.22 50.396 0.264 7.55 4.19 10.03
4/26/2023 3:30:00 AM 10.2 50.36 0.264 7.54 4.21 10.03
4/26/2023 3:45:00 AM 10.18 50.324 0.263 7.54 4.39 10.05
4/26/2023 4:00:00 AM 10.13 50.234 0.262 7.54 4.42 10.05
4/26/2023 4:15:00 AM 10.08 50.144 0.262 7.54 4.49 10.07
4/26/2023 4:30:00 AM 10.03 50.054 0.262 7.53 4.45 10.08
4/26/2023 4:45:00 AM 9.97 49.946 0.263 7.53 4.39 10.1
4/26/2023 5:00:00 AM 9.9 49.82 0.264 7.53 4.61 10.11
4/26/2023 5:15:00 AM 9.83 49.694 0.265 7.53 4.29 10.13
4/26/2023 5:30:00 AM 9.76 49.568 0.266 7.53 4.19 10.14
4/26/2023 5:45:00 AM 9.69 49.442 0.266 7.53 4.39 10.15
4/26/2023 6:00:00 AM 9.61 49.298 0.266 7.53 4.42 10.18
4/26/2023 6:15:00 AM 9.54 49.172 0.266 7.53 9.57 10.19
4/26/2023 6:30:00 AM 9.46 49.028 0.264 7.52 4.17 10.24
4/26/2023 6:45:00 AM 9.38 48.884 0.264 7.53 4.23 10.28
4/26/2023 7:00:00 AM 9.32 48.776 0.263 7.53 3.93 10.35
4/26/2023 7:15:00 AM 9.25 48.65 0.264 7.54 3.91 10.44
4/26/2023 7:30:00 AM 9.2 48.56 0.264 7.55 4 10.53
4/26/2023 7:45:00 AM 9.15 48.47 0.265 7.57 3.77 10.62
4/26/2023 8:00:00 AM 9.13 48.434 0.266 7.59 3.88 10.72
4/26/2023 8:15:00 AM 9.13 48.434 0.267 7.61 3.72 10.84
4/26/2023 8:30:00 AM 9.16 48.488 0.267 7.63 3.57 10.97
4/26/2023 8:45:00 AM 9.23 48.614 0.267 7.66 3.71 11.11
4/26/2023 9:00:00 AM 9.32 48.776 0.266 7.69 6.39 11.24
4/26/2023 9:15:00 AM 9.42 48.956 0.265 7.72 3.51 11.36
4/26/2023 9:30:00 AM 9.55 49.19 0.264 7.76 3.34 11.48
4/26/2023 9:45:00 AM 9.68 49.424 0.263 7.8 3.42 11.58
4/26/2023 10:00:00 AM 9.87 49.766 0.263 7.84 3.4 11.7
4/26/2023 10:15:00 AM 10.06 50.108 0.263 7.88 3.3 11.8
4/26/2023 10:30:00 AM 10.21 50.378 0.263 7.93 3.36 11.88
4/26/2023 10:45:00 AM 10.19 50.342 0.263 7.97 6.48 11.92
4/26/2023 11:00:00 AM 10.35 50.63 0.264 8.01 3.45 11.99
4/26/2023 11:15:00 AM 10.41 50.738 0.264 8.05 3.3 12.03
4/26/2023 11:30:00 AM 10.36 50.648 0.229 8.08 5.65 12
4/26/2023 11:45:00 AM 10.31 50.558 0.262 8.09 3.21 11.97
4/26/2023 12:00:00 PM 10.25 50.45 0.261 8.1 3.46 11.9
4/26/2023 12:15:00 PM 10.37 50.666 0.26 8.12 6.3 11.97
4/26/2023 12:30:00 PM 10.73 51.314 0.259 8.16 3.31 12.08
4/26/2023 12:45:00 PM 10.9 51.62 0.259 8.2 3.2 12.11
4/26/2023 1:00:00 PM 10.95 51.71 0.26 8.24 3.27 12.13
4/26/2023 1:15:00 PM 11.15 52.07 0.261 8.29 3.17 12.18
4/26/2023 1:30:00 PM 11.2 52.16 0.262 8.31 3.25 12.08
4/26/2023 1:45:00 PM 11.3 52.34 0.264 8.31 3.45 12.01
4/26/2023 2:00:00 PM 11.42 52.556 0.264 8.34 3.38 12.02
4/26/2023 2:15:00 PM 11.47 52.646 0.264 8.36 3.3 11.97
4/26/2023 2:30:00 PM 11.62 52.916 0.263 8.37 3.35 11.98
4/26/2023 2:45:00 PM 11.87 53.366 0.262 8.41 3.51 12.01
4/26/2023 3:00:00 PM 12.17 53.906 0.261 8.44 3.54 12.01
4/26/2023 3:15:00 PM 12.41 54.338 0.259 8.47 3.46 11.99
4/26/2023 3:30:00 PM 12.59 54.662 0.258 8.49 3.41 11.97
4/26/2023 3:45:00 PM 12.64 54.752 0.258 8.5 3.71 11.89
4/26/2023 4:00:00 PM 12.71 54.878 0.257 8.51 6.18 11.84
4/26/2023 4:15:00 PM 12.73 54.914 0.257 8.51 5.1 11.75
4/26/2023 4:30:00 PM 12.81 55.058 0.255 8.52 6.31 11.73
4/26/2023 4:45:00 PM 12.84 55.112 0.257 8.52 3.53 11.68
4/26/2023 5:00:00 PM 12.85 55.13 0.256 8.52 3.52 11.62
4/26/2023 5:15:00 PM 12.9 55.22 0.255 8.52 3.52 11.58
4/26/2023 5:30:00 PM 12.93 55.274 0.254 8.51 3.54 11.52
4/26/2023 5:45:00 PM 12.94 55.292 0.253 8.51 3.47 11.41
4/26/2023 6:00:00 PM 12.94 55.292 0.253 8.49 6.09 11.32
4/26/2023 6:15:00 PM 12.91 55.238 0.253 8.47 4.46 11.2
4/26/2023 6:30:00 PM 12.89 55.202 0.254 8.43 6.2 11.07
4/26/2023 6:45:00 PM 12.86 55.148 0.254 8.39 4.07 10.94
4/26/2023 7:00:00 PM 12.84 55.112 0.255 8.34 3.86 10.81
4/26/2023 7:15:00 PM 12.79 55.022 0.255 8.28 3.75 10.68
4/26/2023 7:30:00 PM 12.73 54.914 0.255 8.23 3.78 10.55
4/26/2023 7:45:00 PM 12.67 54.806 0.255 8.17 6.68 10.43
4/26/2023 8:00:00 PM 12.59 54.662 0.254 8.11 5.63 10.31
4/26/2023 8:15:00 PM 12.5 54.5 0.254 8.05 4.1 10.22
4/26/2023 8:30:00 PM 12.4 54.32 0.254 7.99 10.7 10.12
4/26/2023 8:45:00 PM 12.3 54.14 0.254 7.93 4.2 10.05
4/26/2023 9:00:00 PM 12.2 53.96 0.254 7.89 6.9 9.99
4/26/2023 9:15:00 PM 12.11 53.798 0.255 7.85 4.39 9.94
4/26/2023 9:30:00 PM 12.02 53.636 0.256 7.82 8.09 9.88
4/26/2023 9:45:00 PM 11.93 53.474 0.255 7.78 6.63 9.86
4/26/2023 10:00:00 PM 11.85 53.33 0.256 7.75 4.6 9.83
4/26/2023 10:15:00 PM 11.76 53.168 0.256 7.73 4.34 9.8
4/26/2023 10:30:00 PM 11.69 53.042 0.255 7.71 4.55 9.78
4/26/2023 10:45:00 PM 11.63 52.934 0.255 7.69 4.67 9.76
4/26/2023 11:00:00 PM 11.57 52.826 0.255 7.67 4.61 9.74
4/26/2023 11:15:00 PM 11.53 52.754 0.256 7.65 4.5 9.72
4/26/2023 11:30:00 PM 11.48 52.664 0.257 7.63 4.49 9.71
4/26/2023 11:45:00 PM 11.43 52.574 0.259 7.62 4.73 9.7
4/27/2023 12:00:00 AM 11.39 52.502 0.261 7.62 5.44 9.7
4/27/2023 12:15:00 AM 11.33 52.394 0.263 7.6 4.52 9.69
4/27/2023 12:30:00 AM 11.28 52.304 0.264 7.59 4.46 9.69
4/27/2023 12:45:00 AM 11.22 52.196 0.265 7.58 4.51 9.69
4/27/2023 1:00:00 AM 11.16 52.088 0.264 7.58 7.29 9.7
4/27/2023 1:15:00 AM 11.1 51.98 0.264 7.57 6.55 9.7
4/27/2023 1:30:00 AM 11.04 51.872 0.263 7.56 7.77 9.72
4/27/2023 1:45:00 AM 10.98 51.764 0.202 7.56 6.38 9.74
4/27/2023 2:00:00 AM 10.91 51.638 0.262 7.55 4.45 9.76
4/27/2023 2:15:00 AM 10.85 51.53 0.262 7.54 4.35 9.76
4/27/2023 2:30:00 AM 10.79 51.422 0.263 7.54 4.54 9.78
4/27/2023 2:45:00 AM 10.72 51.296 0.263 7.54 4.73 9.8
4/27/2023 3:00:00 AM 10.65 51.17 0.265 7.53 4.88 9.82
4/27/2023 3:15:00 AM 10.57 51.026 0.265 7.53 4.7 9.83
4/27/2023 3:30:00 AM 10.5 50.9 0.264 7.53 4.65 9.85
4/27/2023 3:45:00 AM 10.43 50.774 0.264 7.52 7.98 9.88
4/27/2023 4:00:00 AM 10.36 50.648 0.263 7.52 5.07 9.89
4/27/2023 4:15:00 AM 10.28 50.504 0.262 7.52 5.26 9.91
4/27/2023 4:30:00 AM 10.21 50.378 0.262 7.52 4.56 9.94
4/27/2023 4:45:00 AM 10.13 50.234 0.262 7.52 6.57 9.95
4/27/2023 5:00:00 AM 10.05 50.09 0.262 7.52 4.92 9.99
4/27/2023 5:15:00 AM 9.98 49.964 0.263 7.52 4.66 10
4/27/2023 5:30:00 AM 9.89 49.802 0.265 7.52 12.68 10.02
4/27/2023 5:45:00 AM 9.81 49.658 0.266 7.52 4.56 10.04
4/27/2023 6:00:00 AM 9.73 49.514 0.26 7.52 7.62 10.08
4/27/2023 6:15:00 AM 9.66 49.388 0.267 7.51 4.33 10.09
4/27/2023 6:30:00 AM 9.61 49.298 0.267 7.52 4.07 10.13
4/27/2023 6:45:00 AM 9.56 49.208 0.266 7.52 3.97 10.18
4/27/2023 7:00:00 AM 9.52 49.136 0.264 7.52 4.05 10.25
4/27/2023 7:15:00 AM 9.49 49.082 0.264 7.53 4.26 10.33
4/27/2023 7:30:00 AM 9.46 49.028 0.262 7.55 3.93 10.46
4/27/2023 7:45:00 AM 9.43 48.974 0.262 7.57 4.03 10.61
4/27/2023 8:00:00 AM 9.4 48.92 0.249 7.6 6.52 10.76
4/27/2023 8:15:00 AM 9.39 48.902 0.263 7.62 3.65 10.91
4/27/2023 8:30:00 AM 9.4 48.92 0.263 7.65 3.68 11.05
4/27/2023 8:45:00 AM 9.45 49.01 0.263 7.68 3.45 11.2
4/27/2023 9:00:00 AM 9.53 49.154 0.263 7.72 3.42 11.35
4/27/2023 9:15:00 AM 9.61 49.298 0.262 7.76 3.32 11.48
4/27/2023 9:30:00 AM 9.73 49.514 0.261 7.8 3.3 11.59
4/27/2023 9:45:00 AM 9.88 49.784 0.26 7.85 3.31 11.7
4/27/2023 10:00:00 AM 10.05 50.09 0.259 7.89 3.46 11.81
4/27/2023 10:15:00 AM 10.25 50.45 0.258 7.95 3.19 11.93
4/27/2023 10:30:00 AM 10.46 50.828 0.258 8 3.39 12.02
4/27/2023 10:45:00 AM 10.67 51.206 0.258 8.05 3.28 12.1
4/27/2023 11:00:00 AM 10.89 51.602 0.258 8.1 3.26 12.17
4/27/2023 11:15:00 AM 11.1 51.98 0.258 8.15 3.33 12.23
4/27/2023 11:30:00 AM 11.34 52.412 0.258 8.21 5.26 12.28
4/27/2023 11:45:00 AM 11.55 52.79 0.259 8.25 3.24 12.32
4/27/2023 12:00:00 PM 11.76 53.168 0.258 8.29 3.86 12.36
4/27/2023 12:15:00 PM 11.97 53.546 0.257 8.34 3.43 12.37
4/27/2023 12:30:00 PM 12.17 53.906 0.256 8.39 5.91 12.39
4/27/2023 12:45:00 PM 12.38 54.284 0.255 8.42 3.37 12.39
4/27/2023 1:00:00 PM 12.6 54.68 0.254 8.46 3.24 12.39
4/27/2023 1:15:00 PM 12.82 55.076 0.253 8.5 5.89 12.37
4/27/2023 1:30:00 PM 13.04 55.472 0.254 8.54 3.24 12.38
4/27/2023 1:45:00 PM 13.26 55.868 0.254 8.58 3.2 12.38
4/27/2023 2:00:00 PM 13.36 56.048 0.255 8.62 4.56 12.33
4/27/2023 2:15:00 PM 13.52 56.336 0.255 8.64 4.78 12.31
4/27/2023 2:30:00 PM 13.73 56.714 0.255 8.67 3.16 12.29
4/27/2023 2:45:00 PM 13.93 57.074 0.255 8.7 3.33 12.27
4/27/2023 3:00:00 PM 14.13 57.434 0.14 8.74 4.45 12.22
4/27/2023 3:15:00 PM 14.3 57.74 0.254 8.76 3.57 12.18
4/27/2023 3:30:00 PM 14.43 57.974 0.253 8.78 6.46 12.14
4/27/2023 3:45:00 PM 14.57 58.226 0.252 8.8 3.41 12.09
4/27/2023 4:00:00 PM 14.67 58.406 0.251 8.81 3.62 11.99
4/27/2023 4:15:00 PM 14.73 58.514 0.251 8.82 3.46 11.93
4/27/2023 4:30:00 PM 14.77 58.586 0.251 8.83 3.42 11.87
4/27/2023 4:45:00 PM 14.79 58.622 0.251 8.82 6.26 11.77
4/27/2023 5:00:00 PM 14.8 58.64 0.25 8.82 6.13 11.66
4/27/2023 5:15:00 PM 14.78 58.604 0.25 8.8 4.06 11.53
4/27/2023 5:30:00 PM 14.75 58.55 0.25 8.79 3.66 11.41
4/27/2023 5:45:00 PM 14.7 58.46 0.249 8.76 3.73 11.26
4/27/2023 6:00:00 PM 14.64 58.352 0.248 8.73 6.45 11.09
4/27/2023 6:15:00 PM 14.56 58.208 0.246 8.68 6.41 10.94
4/27/2023 6:30:00 PM 14.47 58.046 0.245 8.64 3.64 10.77
4/27/2023 6:45:00 PM 14.39 57.902 0.133 8.59 6.03 10.61
4/27/2023 7:00:00 PM 14.3 57.74 0.242 8.53 3.57 10.47
4/27/2023 7:15:00 PM 14.22 57.596 0.242 8.46 3.67 10.32
4/27/2023 7:30:00 PM 14.14 57.452 0.242 8.39 6.95 10.2
4/27/2023 7:45:00 PM 14.05 57.29 0.241 8.33 3.86 10.08
4/27/2023 8:00:00 PM 13.96 57.128 0.242 8.25 3.8 9.96
4/27/2023 8:15:00 PM 13.86 56.948 0.242 8.17 6.21 9.82
4/27/2023 8:30:00 PM 13.76 56.768 0.242 8.1 4.22 9.72
4/27/2023 8:45:00 PM 13.68 56.624 0.243 8.03 4.27 9.65
4/27/2023 9:00:00 PM 13.59 56.462 0.242 7.97 6.95 9.57
4/27/2023 9:15:00 PM 13.52 56.336 0.245 7.92 6.76 9.52
4/27/2023 9:30:00 PM 13.44 56.192 0.247 7.69 5.03 9.47
4/27/2023 9:45:00 PM 13.36 56.048 0.248 7.84 7 9.42
4/27/2023 10:00:00 PM 13.3 55.94 0.25 7.8 4.54 9.38
4/27/2023 10:15:00 PM 13.25 55.85 0.251 7.77 4.47 9.35
4/27/2023 10:30:00 PM 13.21 55.778 0.252 7.75 4.14 9.32
4/27/2023 10:45:00 PM 13.17 55.706 0.252 7.72 4.4 9.29
4/27/2023 11:00:00 PM 13.15 55.67 0.252 7.7 4.5 9.26
4/27/2023 11:15:00 PM 13.11 55.598 0.251 7.68 7.27 9.24
4/27/2023 11:30:00 PM 13.08 55.544 0.245 7.66 7.24 9.22
4/27/2023 11:45:00 PM 13.06 55.508 0.197 7.65 6.26 9.21
4/28/2023 12:00:00 AM 13.05 55.49 0.252 7.63 7.11 9.19
4/28/2023 12:15:00 AM 13.05 55.49 0.253 7.62 4.8 9.17
4/28/2023 12:30:00 AM 13.04 55.472 0.251 7.61 7.6 9.16
4/28/2023 12:45:00 AM 13.03 55.454 0.255 7.6 4.4 9.16
4/28/2023 1:00:00 AM 13.02 55.436 0.255 7.59 4.8 9.15
4/28/2023 1:15:00 AM 13.01 55.418 0.254 7.58 5.01 9.15
4/28/2023 1:30:00 AM 13 55.4 0.222 7.58 6.68 9.15
4/28/2023 1:45:00 AM 12.98 55.364 0.25 7.57 5.67 9.15
4/28/2023 2:00:00 AM 12.96 55.328 0.248 7.57 4.57 9.15
4/28/2023 2:15:00 AM 12.95 55.31 0.246 7.56 4.38 9.15
4/28/2023 2:30:00 AM 12.94 55.292 0.243 7.56 6.87 9.16
4/28/2023 2:45:00 AM 12.92 55.256 0.242 7.55 4.35 9.16
4/28/2023 3:00:00 AM 12.91 55.238 0.242 7.55 4.62 9.16
4/28/2023 3:15:00 AM 12.89 55.202 0.243 7.54 4.24 9.16
4/28/2023 3:30:00 AM 12.86 55.148 0.243 7.54 4.33 9.16
4/28/2023 3:45:00 AM 12.84 55.112 0.244 7.54 4.66 9.16
4/28/2023 4:00:00 AM 12.83 55.094 0.162 7.53 5.71 9.16
4/28/2023 4:15:00 AM 12.81 55.058 0.247 7.53 4.83 9.17
4/28/2023 4:30:00 AM 12.79 55.022 0.248 7.53 7.61 9.17
4/28/2023 4:45:00 AM 12.76 54.968 0.25 7.53 4.25 9.18
4/28/2023 5:00:00 AM 12.74 54.932 0.253 7.53 4.3 9.18
4/28/2023 5:15:00 AM 12.72 54.896 0.255 7.54 6.04 9.19
4/28/2023 5:30:00 AM 12.69 54.842 0.258 7.53 4.32 9.19
4/28/2023 5:45:00 AM 12.66 54.788 0.261 7.53 4.27 9.2
4/28/2023 6:00:00 AM 12.63 54.734 0.264 7.52 30.88 9.2
4/28/2023 6:15:00 AM 12.59 54.662 0.265 7.53 7.04 9.23
4/28/2023 6:30:00 AM 12.55 54.59 0.267 7.53 7.7 9.24
4/28/2023 6:45:00 AM 12.51 54.518 0.267 7.53 4.28 9.26
4/28/2023 7:00:00 AM 12.46 54.428 0.215 7.53 6.01 9.29
4/28/2023 7:15:00 AM 12.42 54.356 0.265 7.53 4 9.3
4/28/2023 7:30:00 AM 12.38 54.284 0.264 7.54 5.2 9.33
4/28/2023 7:45:00 AM 12.34 54.212 0.262 7.54 6.67 9.36
4/28/2023 8:00:00 AM 12.3 54.14 0.262 7.54 3.95 9.39
4/28/2023 8:15:00 AM 12.26 54.068 0.261 7.55 5.61 9.45
4/28/2023 8:30:00 AM 12.21 53.978 0.261 7.56 3.66 9.51
4/28/2023 8:45:00 AM 12.17 53.906 0.262 7.58 6.28 9.62
4/28/2023 9:00:00 AM 12.14 53.852 0.262 7.59 6.33 9.72
4/28/2023 9:15:00 AM 12.1 53.78 0.261 7.61 3.41 9.81
4/28/2023 9:30:00 AM 12.07 53.726 0.26 7.62 3.61 9.9
4/28/2023 9:45:00 AM 12.04 53.672 0.259 7.64 6.37 9.98
4/28/2023 10:00:00 AM 12 53.6 0.257 7.65 6.93 10.07
4/28/2023 10:15:00 AM 11.95 53.51 0.256 7.66 3.39 10.09
4/28/2023 10:30:00 AM 11.9 53.42 0.248 7.67 5.39 10.11
4/28/2023 10:45:00 AM 11.85 53.33 0.254 7.67 3.46 10.14
4/28/2023 11:00:00 AM 11.81 53.258 0.252 7.67 3.57 10.17
4/28/2023 11:15:00 AM 11.78 53.204 0.252 7.68 3.44 10.22
4/28/2023 11:30:00 AM 11.75 53.15 0.25 7.69 3.71 10.3
4/28/2023 11:45:00 AM 11.72 53.096 0.249 7.71 3.79 10.37
4/28/2023 12:00:00 PM 11.69 53.042 0.246 7.72 4.91 10.42
4/28/2023 12:15:00 PM 11.66 52.988 0.243 7.73 4.87 10.48
4/28/2023 12:30:00 PM 11.63 52.934 0.239 7.73 7.99 10.49
4/28/2023 12:45:00 PM 11.6 52.88 0.22 7.74 9.67 10.5
4/28/2023 1:00:00 PM 11.57 52.826 0.235 7.74 8.34 10.51
4/28/2023 1:15:00 PM 11.53 52.754 0.229 7.73 14.34 10.44
4/28/2023 1:30:00 PM 11.5 52.7 0.236 7.72 10.61 10.43
4/28/2023 1:45:00 PM 11.49 52.682 0.22 7.73 13.91 10.47
4/28/2023 2:00:00 PM 11.48 52.664 0.239 7.73 12.56 10.51
4/28/2023 2:15:00 PM 11.46 52.628 0.24 7.74 13.63 10.52
4/28/2023 2:30:00 PM 11.44 52.592 0.24 7.74 16.52 10.5
4/28/2023 2:45:00 PM 11.43 52.574 0.238 7.73 19.88 10.46
4/28/2023 3:00:00 PM 11.42 52.556 0.236 7.72 18.3 10.44
4/28/2023 3:15:00 PM 11.41 52.538 0.236 7.71 17.34 10.43
4/28/2023 3:30:00 PM 11.4 52.52 0.237 7.7 16.1 10.42
4/28/2023 3:45:00 PM 11.4 52.52 0.239 7.7 14.79 10.39
4/28/2023 4:00:00 PM 11.39 52.502 0.243 7.7 14.86 10.34
4/28/2023 4:15:00 PM 11.41 52.538 0.248 7.7 18.5 10.32
4/28/2023 4:30:00 PM 11.42 52.556 0.25 7.69 15.28 10.3
4/28/2023 4:45:00 PM 11.42 52.556 0.251 7.69 13.24 10.27
4/28/2023 5:00:00 PM 11.42 52.556 0.253 7.69 15.55 10.25
4/28/2023 5:15:00 PM 11.43 52.574 0.255 7.68 16.73 10.23
4/28/2023 5:30:00 PM 11.42 52.556 0.258 7.67 15.68 10.21
4/28/2023 5:45:00 PM 11.41 52.538 0.262 7.66 15.57 10.17
4/28/2023 6:00:00 PM 11.4 52.52 0.267 7.65 15.08 10.14
4/28/2023 6:15:00 PM 11.39 52.502 0.272 7.64 12.09 10.11
4/28/2023 6:30:00 PM 11.39 52.502 0.278 7.63 15.66 10.1
4/28/2023 6:45:00 PM 11.39 52.502 0.282 7.62 14.77 10.1
4/28/2023 7:00:00 PM 11.37 52.466 0.283 7.62 20.44 10.09
4/28/2023 7:15:00 PM 11.35 52.43 0.282 7.61 15.54 10.04
4/28/2023 7:30:00 PM 11.32 52.376 0.28 7.59 14.93 9.99
4/28/2023 7:45:00 PM 11.29 52.322 0.277 7.58 15.37 9.95
4/28/2023 8:00:00 PM 11.25 52.25 0.275 7.57 13.7 9.91
4/28/2023 8:15:00 PM 11.22 52.196 0.272 7.56 15.49 9.89
4/28/2023 8:30:00 PM 11.18 52.124 0.269 7.55 15.24 9.86
4/28/2023 8:45:00 PM 11.14 52.052 0.264 7.54 15.83 9.85
4/28/2023 9:00:00 PM 11.1 51.98 0.26 7.53 16.13 9.85
4/28/2023 9:15:00 PM 11.06 51.908 0.257 7.52 16.29 9.84
4/28/2023 9:30:00 PM 11.02 51.836 0.252 7.51 16.81 9.84
4/28/2023 9:45:00 PM 10.97 51.746 0.249 7.51 17.96 9.84
4/28/2023 10:00:00 PM 10.92 51.656 0.245 7.5 17.04 9.85
4/28/2023 10:15:00 PM 10.88 51.584 0.242 7.49 17.56 9.85
4/28/2023 10:30:00 PM 10.84 51.512 0.24 7.48 17.5 9.86
4/28/2023 10:45:00 PM 10.81 51.458 0.239 7.48 16.42 9.86
4/28/2023 11:00:00 PM 10.78 51.404 0.241 7.48 16.91 9.85
4/28/2023 11:15:00 PM 10.75 51.35 0.242 7.47 16.37 9.86
4/28/2023 11:30:00 PM 10.73 51.314 0.243 7.47 15.93 9.85
4/28/2023 11:45:00 PM 10.72 51.296 0.244 7.47 15.62 9.86
4/29/2023 12:00:00 AM 10.7 51.26 0.244 7.47 14.91 9.86
4/29/2023 12:15:00 AM 10.67 51.206 0.245 7.47 14.6 9.88
4/29/2023 12:30:00 AM 10.64 51.152 0.245 7.47 14.61 9.89
4/29/2023 12:45:00 AM 10.61 51.098 0.245 7.46 14.24 9.9
4/29/2023 1:00:00 AM 10.57 51.026 0.246 7.46 14.16 9.91
4/29/2023 1:15:00 AM 10.54 50.972 0.246 7.46 13.68 9.93
4/29/2023 1:30:00 AM 10.51 50.918 0.248 7.46 14.38 9.94
4/29/2023 1:45:00 AM 10.49 50.882 0.251 7.47 13.25 9.95
4/29/2023 2:00:00 AM 10.47 50.846 0.254 7.47 13.03 9.94
4/29/2023 2:15:00 AM 10.45 50.81 0.258 7.47 12.91 9.95
4/29/2023 2:30:00 AM 10.45 50.81 0.262 7.47 13.16 9.94
4/29/2023 2:45:00 AM 10.44 50.792 0.264 7.48 12.81 9.94
4/29/2023 3:00:00 AM 10.43 50.774 0.265 7.48 12.51 9.95
4/29/2023 3:15:00 AM 10.42 50.756 0.264 7.48 12.15 9.95
4/29/2023 3:30:00 AM 10.4 50.72 0.262 7.48 11.51 9.97
4/29/2023 3:45:00 AM 10.38 50.684 0.259 7.48 12.72 9.98
4/29/2023 4:00:00 AM 10.35 50.63 0.258 7.48 11.8 9.99
4/29/2023 4:15:00 AM 10.32 50.576 0.257 7.48 11.39 10
4/29/2023 4:30:00 AM 10.3 50.54 0.257 7.48 11.61 10.02
4/29/2023 4:45:00 AM 10.28 50.504 0.258 7.48 12.8 10.02
4/29/2023 5:00:00 AM 10.27 50.486 0.26 7.48 10.74 10.02
4/29/2023 5:15:00 AM 10.26 50.468 0.262 7.48 10.97 10.03
4/29/2023 5:30:00 AM 10.26 50.468 0.264 7.48 10.45 10.03
4/29/2023 5:45:00 AM 10.25 50.45 0.263 7.49 12.96 10.03
4/29/2023 6:00:00 AM 10.23 50.414 0.223 7.49 12.35 10.05
4/29/2023 6:15:00 AM 10.21 50.378 0.26 7.49 10.18 10.06
4/29/2023 6:30:00 AM 10.18 50.324 0.258 7.5 12.43 10.07
4/29/2023 6:45:00 AM 10.16 50.288 0.257 7.48 11.17 10.08
4/29/2023 7:00:00 AM 10.14 50.252 0.257 7.49 10.15 10.1
4/29/2023 7:15:00 AM 10.13 50.234 0.258 7.49 19.41 10.11
4/29/2023 7:30:00 AM 10.13 50.234 0.26 7.5 9.29 10.15
4/29/2023 7:45:00 AM 10.13 50.234 0.252 7.51 12.29 10.18
4/29/2023 8:00:00 AM 10.13 50.234 0.264 7.52 10.56 10.22
4/29/2023 8:15:00 AM 10.14 50.252 0.265 7.53 11.81 10.24
4/29/2023 8:30:00 AM 10.14 50.252 0.264 7.53 17.09 10.27
4/29/2023 8:45:00 AM 10.13 50.234 0.262 7.53 32.45 10.3
4/29/2023 9:00:00 AM 10.13 50.234 0.26 7.54 47.94 10.33
4/29/2023 9:15:00 AM 10.13 50.234 0.24 7.56 11.38 10.38
4/29/2023 9:30:00 AM 10.13 50.234 0.256 7.56 7.76 10.45
4/29/2023 9:45:00 AM 10.14 50.252 0.255 7.57 7.28 10.52
4/29/2023 10:00:00 AM 10.15 50.27 0.254 7.59 7.46 10.61
4/29/2023 10:15:00 AM 10.17 50.306 0.255 7.6 7.27 10.67
4/29/2023 10:30:00 AM 10.18 50.324 0.256 7.62 7.62 10.7
4/29/2023 10:45:00 AM 10.19 50.342 0.258 7.63 6.88 10.71
4/29/2023 11:00:00 AM 10.2 50.36 0.259 7.63 6.49 10.72
4/29/2023 11:15:00 AM 10.25 50.45 0.259 7.66 7.02 10.82
4/29/2023 11:30:00 AM 10.29 50.522 0.257 7.68 7.04 10.92
4/29/2023 11:45:00 AM 10.3 50.54 0.254 7.71 8.7 10.94
4/29/2023 12:00:00 PM 10.3 50.54 0.251 7.71 7.31 10.96
4/29/2023 12:15:00 PM 10.31 50.558 0.248 7.72 7.27 10.95
4/29/2023 12:30:00 PM 10.31 50.558 0.246 7.72 7.24 10.94
4/29/2023 12:45:00 PM 10.31 50.558 0.245 7.72 6.77 10.93
4/29/2023 1:00:00 PM 10.32 50.576 0.244 7.73 7.85 10.91
4/29/2023 1:15:00 PM 10.33 50.594 0.245 7.73 6.52 10.93
4/29/2023 1:30:00 PM 10.35 50.63 0.246 7.74 6.58 10.93
4/29/2023 1:45:00 PM 10.36 50.648 0.247 7.75 6.54 10.93
4/29/2023 2:00:00 PM 10.37 50.666 0.247 7.75 6.42 10.91
4/29/2023 2:15:00 PM 10.4 50.72 0.246 7.76 6.63 10.95
4/29/2023 2:30:00 PM 10.45 50.81 0.133 7.8 7.81 11.05
4/29/2023 2:45:00 PM 10.51 50.918 0.242 7.83 8.57 11.17
4/29/2023 3:00:00 PM 10.56 51.008 0.241 7.86 6.6 11.26
4/29/2023 3:15:00 PM 10.59 51.062 0.24 7.89 6.34 11.3
4/29/2023 3:30:00 PM 10.63 51.134 0.24 7.91 6.32 11.32
4/29/2023 3:45:00 PM 10.65 51.17 0.242 7.93 6.43 11.31
4/29/2023 4:00:00 PM 10.66 51.188 0.244 7.92 6.47 11.22
4/29/2023 4:15:00 PM 10.67 51.206 0.245 7.9 6.72 11.13
4/29/2023 4:30:00 PM 10.71 51.278 0.246 7.9 6.51 11.13
4/29/2023 4:45:00 PM 10.74 51.332 0.246 7.91 6.47 11.14
4/29/2023 5:00:00 PM 10.79 51.422 0.245 7.93 6.7 11.19
4/29/2023 5:15:00 PM 10.84 51.512 0.244 7.95 6.67 11.22
4/29/2023 5:30:00 PM 10.89 51.602 0.243 7.97 6.54 11.27
4/29/2023 5:45:00 PM 10.93 51.674 0.243 7.99 6.62 11.27
4/29/2023 6:00:00 PM 10.96 51.728 0.244 7.99 6.44 11.25
4/29/2023 6:15:00 PM 10.99 51.782 0.246 7.99 6.55 11.22
4/29/2023 6:30:00 PM 11.02 51.836 0.249 7.99 9.54 11.16
4/29/2023 6:45:00 PM 11.03 51.854 0.252 7.97 6.65 11.09
4/29/2023 7:00:00 PM 11.05 51.89 0.254 7.96 6.41 11.01
4/29/2023 7:15:00 PM 11.06 51.908 0.256 7.93 6.55 10.93
4/29/2023 7:30:00 PM 11.07 51.926 0.256 7.91 6.21 10.83
4/29/2023 7:45:00 PM 11.06 51.908 0.255 7.88 6.3 10.74
4/29/2023 8:00:00 PM 11.06 51.908 0.254 7.84 6.2 10.63
4/29/2023 8:15:00 PM 11.05 51.89 0.253 7.8 12.26 10.5
4/29/2023 8:30:00 PM 11.05 51.89 0.253 7.77 6.99 10.43
4/29/2023 8:45:00 PM 11.05 51.89 0.253 7.74 6.75 10.35
4/29/2023 9:00:00 PM 11.05 51.89 0.254 7.72 7.14 10.3
4/29/2023 9:15:00 PM 11.05 51.89 0.256 7.69 6.84 10.24
4/29/2023 9:30:00 PM 11.05 51.89 0.258 7.68 7.97 10.2
4/29/2023 9:45:00 PM 11.05 51.89 0.261 7.66 6.88 10.15
4/29/2023 10:00:00 PM 11.05 51.89 0.262 7.64 7.05 10.11
4/29/2023 10:15:00 PM 11.05 51.89 0.263 7.63 7.01 10.07
4/29/2023 10:30:00 PM 11.05 51.89 0.262 7.61 7.43 10.04
4/29/2023 10:45:00 PM 11.04 51.872 0.261 7.6 8.15 10.01
4/29/2023 11:00:00 PM 11.03 51.854 0.259 7.59 8.2 9.99
4/29/2023 11:15:00 PM 11.02 51.836 0.257 7.58 7.13 9.97
4/29/2023 11:30:00 PM 11.01 51.818 0.253 7.57 10.02 9.96
4/29/2023 11:45:00 PM 11 51.8 0.255 7.56 9.92 9.94
4/30/2023 12:00:00 AM 11 51.8 0.236 7.57 9.56 9.94
4/30/2023 12:15:00 AM 10.99 51.782 0.257 7.54 6.94 9.92
4/30/2023 12:30:00 AM 10.99 51.782 0.259 7.54 6.67 9.91
4/30/2023 12:45:00 AM 10.99 51.782 0.261 7.54 6.88 9.89
4/30/2023 1:00:00 AM 11 51.8 0.263 7.53 6.89 9.88
4/30/2023 1:15:00 AM 11 51.8 0.262 7.55 9.23 9.88
4/30/2023 1:30:00 AM 11 51.8 0.26 7.53 9.73 9.88
4/30/2023 1:45:00 AM 11 51.8 0.258 7.53 10.11 9.87
4/30/2023 2:00:00 AM 11 51.8 0.256 7.53 10.06 9.88
4/30/2023 2:15:00 AM 10.99 51.782 0.254 7.52 6.34 9.87
4/30/2023 2:30:00 AM 10.98 51.764 0.253 7.52 6.68 9.87
4/30/2023 2:45:00 AM 10.98 51.764 0.251 7.52 6.99 9.87
4/30/2023 3:00:00 AM 10.97 51.746 0.252 7.51 7.1 9.87
4/30/2023 3:15:00 AM 10.97 51.746 0.253 7.51 7.21 9.87
4/30/2023 3:30:00 AM 10.97 51.746 0.254 7.51 6.31 9.86
4/30/2023 3:45:00 AM 10.97 51.746 0.254 7.51 6.68 9.85
4/30/2023 4:00:00 AM 10.97 51.746 0.252 7.51 7.06 9.86
4/30/2023 4:15:00 AM 10.97 51.746 0.249 7.51 9.78 9.86
4/30/2023 4:30:00 AM 10.96 51.728 0.245 7.51 10.15 9.85
4/30/2023 4:45:00 AM 10.96 51.728 0.242 7.5 7.7 9.86
4/30/2023 5:00:00 AM 10.95 51.71 0.237 7.5 8.13 9.87
4/30/2023 5:15:00 AM 10.94 51.692 0.231 7.51 12.27 9.88
4/30/2023 5:30:00 AM 10.93 51.674 0.227 7.49 12.17 9.89
4/30/2023 5:45:00 AM 10.92 51.656 0.218 7.49 31.11 9.89
4/30/2023 6:00:00 AM 10.91 51.638 0.223 7.49 20.31 9.91
4/30/2023 6:15:00 AM 10.91 51.638 0.222 7.48 35.5 9.91
4/30/2023 6:30:00 AM 10.9 51.62 0.221 7.48 43.85 9.92
4/30/2023 6:45:00 AM 10.9 51.62 0.219 7.47 49.02 9.92
4/30/2023 7:00:00 AM 10.89 51.602 0.114 7.48 53.67 9.93
4/30/2023 7:15:00 AM 10.89 51.602 0.217 7.47 49.93 9.94
4/30/2023 7:30:00 AM 10.88 51.584 0.217 7.47 44.46 9.95
4/30/2023 7:45:00 AM 10.89 51.602 0.217 7.48 37.98 9.97
4/30/2023 8:00:00 AM 10.9 51.62 0.218 7.49 37.2 10.01
4/30/2023 8:15:00 AM 10.9 51.62 0.22 7.5 32.33 10.04
4/30/2023 8:30:00 AM 10.93 51.674 0.222 7.51 26.87 10.08
4/30/2023 8:45:00 AM 10.95 51.71 0.223 7.53 26.55 10.13
4/30/2023 9:00:00 AM 10.96 51.728 0.223 7.53 22.99 10.14
4/30/2023 9:15:00 AM 10.95 51.71 0.223 7.54 23.56 10.14
4/30/2023 9:30:00 AM 10.94 51.692 0.22 7.53 23.69 10.13
4/30/2023 9:45:00 AM 10.93 51.674 0.217 7.53 21.53 10.13
4/30/2023 10:00:00 AM 10.94 51.692 0.218 7.53 22.65 10.15
4/30/2023 10:15:00 AM 10.95 51.71 0.222 7.54 22.23 10.16
4/30/2023 10:30:00 AM 10.97 51.746 0.226 7.54 21.93 10.13
4/30/2023 10:45:00 AM 10.99 51.782 0.229 7.54 23.25 10.11
4/30/2023 11:00:00 AM 11.02 51.836 0.23 7.54 22.98 10.1
4/30/2023 11:15:00 AM 11.05 51.89 0.229 7.57 27.06 10.1
4/30/2023 11:30:00 AM 11.09 51.962 0.232 7.55 24.22 10.1
4/30/2023 11:45:00 AM 11.12 52.016 0.234 7.55 24.52 10.09
4/30/2023 12:00:00 PM 11.16 52.088 0.233 7.56 23.24 10.11
4/30/2023 12:15:00 PM 11.21 52.178 0.231 7.56 26.23 10.13
4/30/2023 12:30:00 PM 11.24 52.232 0.231 7.56 27.42 10.13
4/30/2023 12:45:00 PM 11.29 52.322 0.23 7.56 32.92 10.13
4/30/2023 1:00:00 PM 11.33 52.394 0.229 7.56 34.69 10.12
4/30/2023 1:15:00 PM 11.37 52.466 0.23 7.55 40.26 10.09
4/30/2023 1:30:00 PM 11.41 52.538 0.229 7.54 43.37 10.05
4/30/2023 1:45:00 PM 11.45 52.61 0.219 7.54 51.51 10.04
4/30/2023 2:00:00 PM 11.51 52.718 0.225 7.53 56.19 10.03
4/30/2023 2:15:00 PM 11.56 52.808 0.222 7.53 60.01 10.02
4/30/2023 2:30:00 PM 11.6 52.88 0.218 7.52 62.7 10.01
4/30/2023 2:45:00 PM 11.62 52.916 0.208 7.52 65.73 10
4/30/2023 3:00:00 PM 11.65 52.97 0.213 7.52 65.42 9.98
4/30/2023 3:15:00 PM 11.7 53.06 0.21 7.51 68.03 10
4/30/2023 3:30:00 PM 11.78 53.204 0.206 7.51 73.44 10.01
4/30/2023 3:45:00 PM 11.82 53.276 0.204 7.5 80.2 10
4/30/2023 4:00:00 PM 11.83 53.294 0.206 7.5 97.43 9.97
4/30/2023 4:15:00 PM 11.83 53.294 0.207 7.49 86.88 9.93
4/30/2023 4:30:00 PM 11.82 53.276 0.211 7.48 90.75 9.9
4/30/2023 4:45:00 PM 11.83 53.294 0.212 7.48 79.47 9.87
4/30/2023 5:00:00 PM 11.82 53.276 0.215 7.48 79.5 9.84
4/30/2023 5:15:00 PM 11.8 53.24 0.216 7.46 84.14 9.81
4/30/2023 5:30:00 PM 11.79 53.222 0.219 7.44 86.93 9.77
4/30/2023 5:45:00 PM 11.81 53.258 0.225 7.43 87.96 9.72
4/30/2023 6:00:00 PM 11.84 53.312 0.228 7.41 93.14 9.67
4/30/2023 6:15:00 PM 11.85 53.33 0.12 7.4 93.59 9.65
4/30/2023 6:30:00 PM 11.85 53.33 0.218 7.39 89.69 9.63
4/30/2023 6:45:00 PM 11.85 53.33 0.193 7.38 87.83 9.62
4/30/2023 7:00:00 PM 11.83 53.294 0.221 7.37 86.38 9.61
4/30/2023 7:15:00 PM 11.8 53.24 0.215 7.37 83.02 9.61
4/30/2023 7:30:00 PM 11.77 53.186 0.209 7.37 77.84 9.62
4/30/2023 7:45:00 PM 11.74 53.132 0.205 7.37 75.5 9.61
4/30/2023 8:00:00 PM 11.71 53.078 0.202 7.37 72.4 9.6
4/30/2023 8:15:00 PM 11.68 53.024 0.197 7.38 71.47 9.6
4/30/2023 8:30:00 PM 11.65 52.97 0.192 7.37 71.37 9.59
4/30/2023 8:45:00 PM 11.61 52.898 0.187 7.37 71.76 9.6
4/30/2023 9:00:00 PM 11.58 52.844 0.184 7.36 67.76 9.61
4/30/2023 9:15:00 PM 11.54 52.772 0.181 7.36 65.73 9.62
4/30/2023 9:30:00 PM 11.49 52.682 0.179 7.35 64.87 9.64
4/30/2023 9:45:00 PM 11.44 52.592 0.16 7.36 62.78 9.66
4/30/2023 10:00:00 PM 11.39 52.502 0.18 7.35 60.83 9.67
4/30/2023 10:15:00 PM 11.36 52.448 0.181 7.34 68.29 9.67
4/30/2023 10:30:00 PM 11.3 52.34 0.183 7.35 57.06 9.69
4/30/2023 10:45:00 PM 11.26 52.268 0.187 7.34 53.11 9.69
4/30/2023 11:00:00 PM 11.22 52.196 0.192 7.35 51.28 9.69
4/30/2023 11:15:00 PM 11.18 52.124 0.196 7.34 49.75 9.69
4/30/2023 11:30:00 PM 11.13 52.034 0.197 7.34 47.97 9.71
4/30/2023 11:45:00 PM 11.07 51.926 0.195 7.34 43.09 9.76
5/1/2023 12:00:00 AM 11 51.8 0.193 7.35 44.38 9.8
5/1/2023 12:15:00 AM 10.95 51.71 0.192 7.35 41.88 9.83
5/1/2023 12:30:00 AM 10.89 51.602 0.191 7.35 40.16 9.86
5/1/2023 12:45:00 AM 10.83 51.494 0.191 7.35 39.32 9.88
5/1/2023 1:00:00 AM 10.78 51.404 0.193 7.35 39.1 9.89
5/1/2023 1:15:00 AM 10.73 51.314 0.195 7.35 37.49 9.89
5/1/2023 1:30:00 AM 10.68 51.224 0.198 7.34 35.87 9.88
5/1/2023 1:45:00 AM 10.63 51.134 0.199 7.34 36.13 9.88
5/1/2023 2:00:00 AM 10.59 51.062 0.198 7.34 34.74 9.89
5/1/2023 2:15:00 AM 10.54 50.972 0.196 7.34 33.25 9.92
5/1/2023 2:30:00 AM 10.49 50.882 0.192 7.35 32.87 9.95
5/1/2023 2:45:00 AM 10.43 50.774 0.153 7.33 31.41 9.99
5/1/2023 3:00:00 AM 10.37 50.666 0.186 7.35 31.45 10.02
5/1/2023 3:15:00 AM 10.31 50.558 0.184 7.35 29.13 10.04
5/1/2023 3:30:00 AM 10.24 50.432 0.183 7.36 29.1 10.06
5/1/2023 3:45:00 AM 10.17 50.306 0.183 7.36 28.1 10.08
5/1/2023 4:00:00 AM 10.12 50.216 0.183 7.36 27.51 10.1
5/1/2023 4:15:00 AM 10.07 50.126 0.183 7.36 26.67 10.1
5/1/2023 4:30:00 AM 10.03 50.054 0.184 7.36 26.99 10.13
5/1/2023 4:45:00 AM 9.98 49.964 0.185 7.36 26.16 10.14
5/1/2023 5:00:00 AM 9.95 49.91 0.189 7.36 25.01 10.14
5/1/2023 5:15:00 AM 9.89 49.802 0.19 7.36 24.79 10.15
5/1/2023 5:30:00 AM 9.84 49.712 0.191 7.36 24.98 10.16
5/1/2023 5:45:00 AM 9.79 49.622 0.19 7.37 24.29 10.18
5/1/2023 6:00:00 AM 9.75 49.55 0.188 7.37 23.97 10.21
5/1/2023 6:15:00 AM 9.7 49.46 0.186 7.37 22.85 10.23
5/1/2023 6:30:00 AM 9.65 49.37 0.186 7.37 20.84 10.25
5/1/2023 6:45:00 AM 9.61 49.298 0.185 7.37 21.12 10.28
5/1/2023 7:00:00 AM 9.58 49.244 0.185 7.38 20.53 10.32
5/1/2023 7:15:00 AM 9.55 49.19 0.185 7.39 20.59 10.35
5/1/2023 7:30:00 AM 9.54 49.172 0.186 7.39 21.87 10.36
5/1/2023 7:45:00 AM 9.53 49.154 0.189 7.37 18.83 10.39
5/1/2023 8:00:00 AM 9.51 49.118 0.189 7.41 18.89 10.41
5/1/2023 8:15:00 AM 9.49 49.082 0.189 7.41 18.7 10.42
5/1/2023 8:30:00 AM 9.48 49.064 0.187 7.42 18.34 10.47
5/1/2023 8:45:00 AM 9.48 49.064 0.185 7.43 18.19 10.54
5/1/2023 9:00:00 AM 9.47 49.046 0.184 7.44 16.38 10.56
5/1/2023 9:15:00 AM 9.47 49.046 0.184 7.45 16.37 10.61
5/1/2023 9:30:00 AM 9.47 49.046 0.184 7.46 16.55 10.66
5/1/2023 9:45:00 AM 9.51 49.118 0.184 7.48 15.8 10.74
5/1/2023 10:00:00 AM 9.55 49.19 0.183 7.5 14.52 10.8
5/1/2023 10:15:00 AM 9.53 49.154 0.183 7.5 15.15 10.78
5/1/2023 10:30:00 AM 9.53 49.154 0.186 7.5 14.67 10.76
5/1/2023 10:45:00 AM 9.6 49.28 0.188 7.52 14.35 10.83
5/1/2023 11:00:00 AM 9.67 49.406 0.189 7.54 13.81 10.89
5/1/2023 11:15:00 AM 9.69 49.442 0.189 7.55 14.17 10.9
5/1/2023 11:30:00 AM 9.77 49.586 0.189 7.56 13.34 10.95
5/1/2023 11:45:00 AM 9.78 49.604 0.188 7.58 13.96 10.96
5/1/2023 12:00:00 PM 9.73 49.514 0.187 7.57 13.35 10.88
5/1/2023 12:15:00 PM 9.72 49.496 0.186 7.56 13.23 10.88
5/1/2023 12:30:00 PM 9.81 49.658 0.187 7.58 13.56 10.98
5/1/2023 12:45:00 PM 10.02 50.036 0.186 7.62 13.21 11.1
5/1/2023 1:00:00 PM 10.16 50.288 0.186 7.54 13.55 11.15
5/1/2023 1:15:00 PM 10.36 50.648 0.187 7.69 13.5 11.17
5/1/2023 1:30:00 PM 10.52 50.936 0.188 7.71 13.15 11.16
5/1/2023 1:45:00 PM 10.68 51.224 0.188 7.73 13.17 11.17
5/1/2023 2:00:00 PM 10.79 51.422 0.188 7.76 13.3 11.17
5/1/2023 2:15:00 PM 10.98 51.764 0.186 7.79 12.72 11.19
5/1/2023 2:30:00 PM 11.04 51.872 0.185 7.79 13.15 11.12
5/1/2023 2:45:00 PM 11.21 52.178 0.186 7.8 13.08 11.11
5/1/2023 3:00:00 PM 11.33 52.394 0.185 7.82 13.14 11.08
5/1/2023 3:15:00 PM 11.35 52.43 0.185 7.83 13.94 11.05
5/1/2023 3:30:00 PM 11.34 52.412 0.186 7.81 13.31 10.95
5/1/2023 3:45:00 PM 11.35 52.43 0.186 7.81 13.43 10.95
5/1/2023 4:00:00 PM 11.39 52.502 0.187 7.81 13.54 10.93
5/1/2023 4:15:00 PM 11.45 52.61 0.189 7.82 13.12 10.91
5/1/2023 4:30:00 PM 11.49 52.682 0.188 7.83 12.86 10.91
5/1/2023 4:45:00 PM 11.5 52.7 0.189 7.7 15.35 10.82
5/1/2023 5:00:00 PM 11.45 52.61 0.188 7.78 13.19 10.7
5/1/2023 5:15:00 PM 11.42 52.556 0.188 7.75 12.93 10.66
5/1/2023 5:30:00 PM 11.42 52.556 0.186 7.74 13.11 10.67
5/1/2023 5:45:00 PM 11.4 52.52 0.185 7.74 13.16 10.64
5/1/2023 6:00:00 PM 11.38 52.484 0.186 7.71 13.17 10.57
5/1/2023 6:15:00 PM 11.38 52.484 0.186 7.7 13.27 10.53
5/1/2023 6:30:00 PM 11.39 52.502 0.188 7.7 13.32 10.52
5/1/2023 6:45:00 PM 11.39 52.502 0.187 7.6 13.59 10.48
5/1/2023 7:00:00 PM 11.4 52.52 0.188 7.66 13.96 10.42
5/1/2023 7:15:00 PM 11.38 52.484 0.185 7.63 13.43 10.34
5/1/2023 7:30:00 PM 11.36 52.448 0.183 7.61 14.26 10.27
5/1/2023 7:45:00 PM 11.34 52.412 0.182 7.59 14.33 10.22
5/1/2023 8:00:00 PM 11.32 52.376 0.181 7.57 14.31 10.17
5/1/2023 8:15:00 PM 11.3 52.34 0.181 7.55 15.71 10.14
5/1/2023 8:30:00 PM 11.26 52.268 0.18 7.53 15.42 10.11
5/1/2023 8:45:00 PM 11.21 52.178 0.178 7.52 15.75 10.09
5/1/2023 9:00:00 PM 11.15 52.07 0.177 7.5 16.39 10.08
5/1/2023 9:15:00 PM 11.1 51.98 0.177 7.49 17.24 10.06
5/1/2023 9:30:00 PM 11.05 51.89 0.16 7.48 58.71 10.05
5/1/2023 9:45:00 PM 10.99 51.782 0.178 7.47 15.52 10.04
5/1/2023 10:00:00 PM 10.93 51.674 0.179 7.46 16.07 10.04
5/1/2023 10:15:00 PM 10.87 51.566 0.09 7.31 13.07 10.03
5/1/2023 10:30:00 PM 10.81 51.458 0.177 7.45 15.19 10.04
5/1/2023 10:45:00 PM 10.73 51.314 0.175 7.44 15.23 10.05
5/1/2023 11:00:00 PM 10.67 51.206 0.175 7.43 16.46 10.05
5/1/2023 11:15:00 PM 10.6 51.08 0.177 7.42 16.76 10.04
5/1/2023 11:30:00 PM 10.53 50.954 0.177 7.35 18.63 10.04
5/1/2023 11:45:00 PM 10.47 50.846 0.177 7.41 16.8 10.06
5/2/2023 12:00:00 AM 10.4 50.72 0.175 7.36 18.51 10.09
5/2/2023 12:15:00 AM 10.33 50.594 0.174 7.4 17.62 10.11
5/2/2023 12:30:00 AM 10.26 50.468 0.172 7.4 16.92 10.13
5/2/2023 12:45:00 AM 10.2 50.36 0.172 7.4 16.3 10.15
5/2/2023 1:00:00 AM 10.13 50.234 0.172 7.39 16.28 10.16
5/2/2023 1:15:00 AM 10.07 50.126 0.173 7.39 17.61 10.16
5/2/2023 1:30:00 AM 10.01 50.018 0.175 7.38 18.88 10.14
5/2/2023 1:45:00 AM 9.96 49.928 0.177 7.37 19.89 10.11
5/2/2023 2:00:00 AM 9.91 49.838 0.179 7.37 20.04 10.12
5/2/2023 2:15:00 AM 9.85 49.73 0.178 7.37 18.4 10.15
5/2/2023 2:30:00 AM 9.79 49.622 0.176 7.37 17.73 10.19
5/2/2023 2:45:00 AM 9.73 49.514 0.176 7.37 16.86 10.23
5/2/2023 3:00:00 AM 9.66 49.388 0.174 7.37 15.94 10.27
5/2/2023 3:15:00 AM 9.59 49.262 0.174 7.37 15.59 10.29
5/2/2023 3:30:00 AM 9.53 49.154 0.173 7.37 15.27 10.31
5/2/2023 3:45:00 AM 9.47 49.046 0.173 7.37 14.47 10.33
5/2/2023 4:00:00 AM 9.41 48.938 0.173 7.36 15.33 10.34
5/2/2023 4:15:00 AM 9.35 48.83 0.174 7.36 13.98 10.36
5/2/2023 4:30:00 AM 9.29 48.722 0.174 7.36 13.87 10.38
5/2/2023 4:45:00 AM 9.23 48.614 0.175 7.36 14.26 10.39
5/2/2023 5:00:00 AM 9.17 48.506 0.176 7.36 13.28 10.41
5/2/2023 5:15:00 AM 9.11 48.398 0.176 7.36 13.64 10.42
5/2/2023 5:30:00 AM 9.07 48.326 0.178 7.36 13.3 10.42
5/2/2023 5:45:00 AM 9.02 48.236 0.178 7.36 12.93 10.44
5/2/2023 6:00:00 AM 8.97 48.146 0.177 7.36 12.95 10.46
5/2/2023 6:15:00 AM 8.92 48.056 0.175 7.36 13.15 10.48
5/2/2023 6:30:00 AM 8.87 47.966 0.173 7.36 17.01 10.51
5/2/2023 6:45:00 AM 8.83 47.894 0.172 7.35 13.38 10.53
5/2/2023 7:00:00 AM 8.79 47.822 0.171 7.35 14.4 10.56
5/2/2023 7:15:00 AM 8.75 47.75 0.17 7.36 15.26 10.6
5/2/2023 7:30:00 AM 8.74 47.732 0.17 7.37 12.09 10.67
5/2/2023 7:45:00 AM 8.74 47.732 0.169 7.38 11.71 10.76
5/2/2023 8:00:00 AM 8.73 47.714 0.17 7.39 11.75 10.8
5/2/2023 8:15:00 AM 8.73 47.714 0.172 7.41 11.73 10.83
5/2/2023 8:30:00 AM 8.72 47.696 0.172 7.42 10.88 10.86
5/2/2023 8:45:00 AM 8.71 47.678 0.171 7.42 10.68 10.89
5/2/2023 9:00:00 AM 8.72 47.696 0.17 7.45 13.57 10.96
5/2/2023 9:15:00 AM 8.72 47.696 0.168 7.45 10.21 11.03
5/2/2023 9:30:00 AM 8.74 47.732 0.167 7.48 10.15 11.12
5/2/2023 9:45:00 AM 8.74 47.732 0.166 7.5 9.9 11.14
5/2/2023 10:00:00 AM 8.76 47.768 0.166 7.51 10.06 11.2
5/2/2023 10:15:00 AM 8.76 47.768 0.165 7.53 9.88 11.24
5/2/2023 10:30:00 AM 8.81 47.858 0.166 7.55 9.77 11.3
5/2/2023 10:45:00 AM 8.83 47.894 0.167 7.57 9.99 11.33
5/2/2023 11:00:00 AM 8.89 48.002 0.169 7.59 9.65 11.38
5/2/2023 11:15:00 AM 8.96 48.128 0.168 7.58 11.68 11.44
5/2/2023 11:30:00 AM 9.01 48.218 0.168 7.65 9.73 11.48
5/2/2023 11:45:00 AM 9.13 48.434 0.167 7.68 9.47 11.55
5/2/2023 12:00:00 PM 9.23 48.614 0.167 7.71 9.01 11.59
5/2/2023 12:15:00 PM 9.26 48.668 0.167 7.74 9.63 11.6
5/2/2023 12:30:00 PM 9.34 48.812 0.167 7.76 9.58 11.63
5/2/2023 12:45:00 PM 9.43 48.974 0.167 7.79 9.39 11.66
5/2/2023 1:00:00 PM 9.5 49.1 0.168 7.82 9.62 11.68
5/2/2023 1:15:00 PM 9.52 49.136 0.17 7.83 9.36 11.64
5/2/2023 1:30:00 PM 9.56 49.208 0.172 7.83 9.53 11.6
5/2/2023 1:45:00 PM 9.63 49.334 0.173 7.85 9.27 11.62
5/2/2023 2:00:00 PM 9.66 49.388 0.173 7.86 9.26 11.61
5/2/2023 2:15:00 PM 9.69 49.442 0.172 7.87 9.19 11.59
5/2/2023 2:30:00 PM 9.7 49.46 0.171 7.87 9.13 11.54
5/2/2023 2:45:00 PM 9.71 49.478 0.171 7.87 9.32 11.53
5/2/2023 3:00:00 PM 9.74 49.532 0.171 7.87 9.47 11.51
5/2/2023 3:15:00 PM 9.77 49.586 0.171 7.88 9.36 11.53
5/2/2023 3:30:00 PM 9.81 49.658 0.171 7.89 9.97 11.53
5/2/2023 3:45:00 PM 9.84 49.712 0.172 7.9 9.78 11.54
5/2/2023 4:00:00 PM 9.87 49.766 0.176 7.91 9.74 11.53
5/2/2023 4:15:00 PM 9.91 49.838 0.178 7.9 9.52 11.49
5/2/2023 4:30:00 PM 9.92 49.856 0.177 7.89 9.78 11.46
5/2/2023 4:45:00 PM 9.94 49.892 0.175 7.89 9.59 11.44
5/2/2023 5:00:00 PM 9.94 49.892 0.173 7.88 9.66 11.4
5/2/2023 5:15:00 PM 9.92 49.856 0.172 7.86 10.15 11.35
5/2/2023 5:30:00 PM 9.92 49.856 0.171 7.84 9.74 11.28
5/2/2023 5:45:00 PM 9.92 49.856 0.17 7.81 9.88 11.22
5/2/2023 6:00:00 PM 9.89 49.802 0.17 7.78 9.91 11.13
5/2/2023 6:15:00 PM 9.88 49.784 0.17 7.74 10.11 11.06
5/2/2023 6:30:00 PM 9.89 49.802 0.171 7.71 10.61 10.98
5/2/2023 6:45:00 PM 9.88 49.784 0.174 7.68 10.37 10.89
5/2/2023 7:00:00 PM 9.88 49.784 0.176 7.65 10.92 10.82
5/2/2023 7:15:00 PM 9.86 49.748 0.176 7.62 11.05 10.75
5/2/2023 7:30:00 PM 9.84 49.712 0.175 7.6 11.03 10.7
5/2/2023 7:45:00 PM 9.81 49.658 0.173 7.58 14.31 10.66
5/2/2023 8:00:00 PM 9.77 49.586 0.171 7.56 11.57 10.63
5/2/2023 8:15:00 PM 9.73 49.514 0.171 7.54 12.53 10.6
5/2/2023 8:30:00 PM 9.7 49.46 0.172 7.38 13.76 10.56
5/2/2023 8:45:00 PM 9.68 49.424 0.175 7.51 14.29 10.53
5/2/2023 9:00:00 PM 9.66 49.388 0.179 7.49 15.71 10.51
5/2/2023 9:15:00 PM 9.63 49.334 0.178 7.48 14.46 10.5
5/2/2023 9:30:00 PM 9.6 49.28 0.176 7.45 12.26 10.49
5/2/2023 9:45:00 PM 9.55 49.19 0.174 7.46 14.47 10.49
5/2/2023 10:00:00 PM 9.5 49.1 0.172 7.45 14.49 10.5
5/2/2023 10:15:00 PM 9.46 49.028 0.171 7.44 14.28 10.5
5/2/2023 10:30:00 PM 9.41 48.938 0.17 7.43 14.27 10.5
5/2/2023 10:45:00 PM 9.37 48.866 0.17 7.43 13.91 10.5
5/2/2023 11:00:00 PM 9.33 48.794 0.17 7.42 14.01 10.51
5/2/2023 11:15:00 PM 9.29 48.722 0.17 7.42 13.61 10.51
5/2/2023 11:30:00 PM 9.25 48.65 0.17 7.41 13.66 10.51
5/2/2023 11:45:00 PM 9.21 48.578 0.171 7.41 13.96 10.52
5/3/2023 12:00:00 AM 9.18 48.524 0.174 7.4 13.72 10.51
5/3/2023 12:15:00 AM 9.15 48.47 0.176 7.4 13.69 10.51
5/3/2023 12:30:00 AM 9.12 48.416 0.177 7.4 13.86 10.51
5/3/2023 12:45:00 AM 9.08 48.344 0.176 7.4 13.78 10.52
5/3/2023 1:00:00 AM 9.04 48.272 0.175 7.39 13.87 10.53
5/3/2023 1:15:00 AM 8.99 48.182 0.172 7.39 14.41 10.55
5/3/2023 1:30:00 AM 8.94 48.092 0.171 7.38 13.96 10.56
5/3/2023 1:45:00 AM 8.89 48.002 0.172 7.38 13.88 10.57
5/3/2023 2:00:00 AM 8.86 47.948 0.174 7.38 13.82 10.57
5/3/2023 2:15:00 AM 8.83 47.894 0.176 7.38 13.93 10.57
5/3/2023 2:30:00 AM 8.81 47.858 0.177 7.38 13.77 10.58
5/3/2023 2:45:00 AM 8.77 47.786 0.175 7.38 13.47 10.6
5/3/2023 3:00:00 AM 8.73 47.714 0.173 7.37 13.46 10.61
5/3/2023 3:15:00 AM 8.68 47.624 0.171 7.37 13.88 10.63
5/3/2023 3:30:00 AM 8.63 47.534 0.17 7.37 13.36 10.64
5/3/2023 3:45:00 AM 8.59 47.462 0.169 7.37 13.4 10.65
5/3/2023 4:00:00 AM 8.55 47.39 0.169 7.37 13.02 10.67
5/3/2023 4:15:00 AM 8.52 47.336 0.169 7.36 13.28 10.67
5/3/2023 4:30:00 AM 8.48 47.264 0.169 7.36 12.38 10.68
5/3/2023 4:45:00 AM 8.45 47.21 0.169 7.36 12.49 10.69
5/3/2023 5:00:00 AM 8.41 47.138 0.169 7.36 12.22 10.7
5/3/2023 5:15:00 AM 8.38 47.084 0.17 7.36 11.81 10.71
5/3/2023 5:30:00 AM 8.36 47.048 0.173 7.36 11.91 10.71
5/3/2023 5:45:00 AM 8.35 47.03 0.175 7.36 11.91 10.71
5/3/2023 6:00:00 AM 8.33 46.994 0.175 7.36 11.55 10.71
5/3/2023 6:15:00 AM 8.3 46.94 0.173 7.36 10.85 10.73
5/3/2023 6:30:00 AM 8.27 46.886 0.172 7.36 10.99 10.74
5/3/2023 6:45:00 AM 8.24 46.832 0.17 7.36 10.97 10.77
5/3/2023 7:00:00 AM 8.21 46.778 0.169 7.36 10.94 10.81
5/3/2023 7:15:00 AM 8.19 46.742 0.168 7.37 11.19 10.87
5/3/2023 7:30:00 AM 8.18 46.724 0.167 7.38 10.63 10.94
5/3/2023 7:45:00 AM 8.17 46.706 0.167 7.39 10.13 10.98
5/3/2023 8:00:00 AM 8.16 46.688 0.169 7.4 10.2 11.02
5/3/2023 8:15:00 AM 8.17 46.706 0.171 7.41 9.68 11.03
5/3/2023 8:30:00 AM 8.18 46.724 0.173 7.42 9.86 11.09
5/3/2023 8:45:00 AM 8.21 46.778 0.173 7.44 9.63 11.18
5/3/2023 9:00:00 AM 8.23 46.814 0.171 7.46 9.33 11.27
5/3/2023 9:15:00 AM 8.27 46.886 0.169 7.49 9.35 11.37
5/3/2023 9:30:00 AM 8.37 47.066 0.168 7.52 9.02 11.48
5/3/2023 9:45:00 AM 8.4 47.12 0.166 7.55 9.01 11.54
5/3/2023 10:00:00 AM 8.44 47.192 0.166 7.58 8.95 11.6
5/3/2023 10:15:00 AM 8.49 47.282 0.165 7.6 8.53 11.65
5/3/2023 10:30:00 AM 8.53 47.354 0.165 7.64 8.7 11.7
5/3/2023 10:45:00 AM 8.55 47.39 0.166 7.66 8.42 11.71
5/3/2023 11:00:00 AM 8.62 47.516 0.169 7.68 8.41 11.74
5/3/2023 11:15:00 AM 8.71 47.678 0.17 7.71 8.53 11.78
5/3/2023 11:30:00 AM 8.82 47.876 0.169 7.75 8.13 11.83
5/3/2023 11:45:00 AM 8.84 47.912 0.168 7.75 8.13 11.78
5/3/2023 12:00:00 PM 9.08 48.344 0.166 7.78 8.46 11.83
5/3/2023 12:15:00 PM 9.13 48.434 0.165 7.81 8.4 11.82
5/3/2023 12:30:00 PM 9.13 48.434 0.164 7.8 8.53 11.77
5/3/2023 12:45:00 PM 9.14 48.452 0.164 7.8 8.53 11.7
5/3/2023 1:00:00 PM 9.14 48.452 0.163 7.78 8.48 11.67
5/3/2023 1:15:00 PM 9.18 48.524 0.162 7.79 10.13 11.7
5/3/2023 1:30:00 PM 9.21 48.578 0.165 7.83 8.51 11.72
5/3/2023 1:45:00 PM 9.28 48.704 0.167 7.85 8.97 11.75
5/3/2023 2:00:00 PM 9.36 48.848 0.166 7.87 9.5 11.75
5/3/2023 2:15:00 PM 9.4 48.92 0.166 7.87 9.86 11.72
5/3/2023 2:30:00 PM 9.48 49.064 0.164 7.89 11.28 11.75
5/3/2023 2:45:00 PM 9.54 49.172 0.164 7.9 12.43 11.73
5/3/2023 3:00:00 PM 9.58 49.244 0.164 7.92 13.37 11.74
5/3/2023 3:15:00 PM 9.61 49.298 0.163 7.92 12.66 11.69
5/3/2023 3:30:00 PM 9.55 49.19 0.163 7.89 13.34 11.54
5/3/2023 3:45:00 PM 9.56 49.208 0.164 7.77 12.82 11.49
5/3/2023 4:00:00 PM 9.58 49.244 0.165 7.83 12.72 11.48
5/3/2023 4:15:00 PM 9.67 49.406 0.166 7.84 12.86 11.5
5/3/2023 4:30:00 PM 9.76 49.568 0.166 7.83 14.57 11.48
5/3/2023 4:45:00 PM 9.79 49.622 0.164 7.79 20.61 11.33
5/3/2023 5:00:00 PM 9.85 49.73 0.16 7.73 35.49 11.21
5/3/2023 5:15:00 PM 9.87 49.766 0.159 7.7 58.5 11.18
5/3/2023 5:30:00 PM 9.9 49.82 0.158 7.67 57.41 11.13
5/3/2023 5:45:00 PM 9.9 49.82 0.157 7.65 49.16 11.07
5/3/2023 6:00:00 PM 9.89 49.802 0.157 7.64 45.01 11.04
5/3/2023 6:15:00 PM 9.87 49.766 0.158 7.62 42.78 10.97
5/3/2023 6:30:00 PM 9.86 49.748 0.158 7.6 41.31 10.93
5/3/2023 6:45:00 PM 9.86 49.748 0.161 7.58 37.01 10.91
5/3/2023 7:00:00 PM 9.83 49.694 0.163 7.56 31.96 10.83
5/3/2023 7:15:00 PM 9.82 49.676 0.164 7.55 36.92 10.8
5/3/2023 7:30:00 PM 9.79 49.622 0.162 7.53 36.33 10.77
5/3/2023 7:45:00 PM 9.75 49.55 0.159 7.52 36.8 10.75
5/3/2023 8:00:00 PM 9.69 49.442 0.155 7.49 49.27 10.73
5/3/2023 8:15:00 PM 9.63 49.334 0.155 7.47 60.36 10.71
5/3/2023 8:30:00 PM 9.58 49.244 0.154 7.45 59.58 10.7
5/3/2023 8:45:00 PM 9.52 49.136 0.153 7.44 62.72 10.68
5/3/2023 9:00:00 PM 9.48 49.064 0.155 7.42 59.26 10.68
5/3/2023 9:15:00 PM 9.44 48.992 0.157 7.28 60.71 10.65
5/3/2023 9:30:00 PM 9.41 48.938 0.16 7.41 60.86 10.65
5/3/2023 9:45:00 PM 9.38 48.884 0.154 7.35 58.42 10.65
5/3/2023 10:00:00 PM 9.33 48.794 0.16 7.39 56.9 10.66
5/3/2023 10:15:00 PM 9.3 48.74 0.162 7.38 57.87 10.65
5/3/2023 10:30:00 PM 9.29 48.722 0.168 7.37 58.14 10.62
5/3/2023 10:45:00 PM 9.29 48.722 0.172 7.36 58.2 10.59
5/3/2023 11:00:00 PM 9.25 48.65 0.172 7.36 58.07 10.59
5/3/2023 11:15:00 PM 9.21 48.578 0.173 7.36 60.66 10.59
5/3/2023 11:30:00 PM 9.17 48.506 0.172 7.35 60.55 10.6
5/3/2023 11:45:00 PM 9.13 48.434 0.172 7.34 59.98 10.61
5/4/2023 12:00:00 AM 9.09 48.362 0.171 7.33 60.44 10.61
5/4/2023 12:15:00 AM 9.06 48.308 0.171 7.32 81.72 10.61
5/4/2023 12:30:00 AM 9.03 48.254 0.163 7.33 58.19 10.61
5/4/2023 12:45:00 AM 9 48.2 0.171 7.31 56.77 10.62
5/4/2023 1:00:00 AM 8.97 48.146 0.171 7.3 55.02 10.63
5/4/2023 1:15:00 AM 8.95 48.11 0.172 7.3 52.24 10.62
5/4/2023 1:30:00 AM 8.93 48.074 0.174 7.29 49.56 10.62
5/4/2023 1:45:00 AM 8.91 48.038 0.174 7.29 46.13 10.63
5/4/2023 2:00:00 AM 8.86 47.948 0.171 7.29 44.85 10.65
5/4/2023 2:15:00 AM 8.81 47.858 0.168 7.28 43.08 10.67
5/4/2023 2:30:00 AM 8.76 47.768 0.166 7.28 41.42 10.69
5/4/2023 2:45:00 AM 8.71 47.678 0.165 7.28 40.68 10.71
5/4/2023 3:00:00 AM 8.67 47.606 0.163 7.28 38.03 10.72
5/4/2023 3:15:00 AM 8.63 47.534 0.163 7.28 35.87 10.73
5/4/2023 3:30:00 AM 8.61 47.498 0.165 7.13 34.14 10.74
5/4/2023 3:45:00 AM 8.6 47.48 0.167 7.28 35.2 10.74
5/4/2023 4:00:00 AM 8.59 47.462 0.169 7.28 34.65 10.74
5/4/2023 4:15:00 AM 8.57 47.426 0.168 7.28 34.06 10.75
5/4/2023 4:30:00 AM 8.54 47.372 0.165 7.27 32.59 10.77
5/4/2023 4:45:00 AM 8.51 47.318 0.163 7.27 31.65 10.79
5/4/2023 5:00:00 AM 8.49 47.282 0.162 7.27 31.81 10.8
5/4/2023 5:15:00 AM 8.47 47.246 0.162 7.27 31.06 10.81
5/4/2023 5:30:00 AM 8.46 47.228 0.162 7.28 30.04 10.82
5/4/2023 5:45:00 AM 8.46 47.228 0.163 7.27 29.48 10.82
5/4/2023 6:00:00 AM 8.45 47.21 0.163 7.29 28.18 10.82
5/4/2023 6:15:00 AM 8.45 47.21 0.164 7.27 27.22 10.83
5/4/2023 6:30:00 AM 8.45 47.21 0.164 7.28 26.24 10.84
5/4/2023 6:45:00 AM 8.45 47.21 0.166 7.28 25.75 10.84
5/4/2023 7:00:00 AM 8.47 47.246 0.17 7.28 24.8 10.84
5/4/2023 7:15:00 AM 8.49 47.282 0.172 7.28 23.66 10.84
5/4/2023 7:30:00 AM 8.5 47.3 0.17 7.29 23.49 10.86
5/4/2023 7:45:00 AM 8.49 47.282 0.167 7.29 22.62 10.89
5/4/2023 8:00:00 AM 8.5 47.3 0.164 7.29 22.11 10.93
5/4/2023 8:15:00 AM 8.52 47.336 0.163 7.3 21.74 10.97
5/4/2023 8:30:00 AM 8.55 47.39 0.161 7.31 21.19 11.01
5/4/2023 8:45:00 AM 8.59 47.462 0.16 7.32 20.96 11.05
5/4/2023 9:00:00 AM 8.62 47.516 0.161 7.33 20.87 11.07
5/4/2023 9:15:00 AM 8.67 47.606 0.163 7.34 25.37 11.08
5/4/2023 9:30:00 AM 8.72 47.696 0.163 7.35 20.14 11.1
5/4/2023 9:45:00 AM 8.74 47.732 0.162 7.36 20.31 11.09
5/4/2023 10:00:00 AM 8.76 47.768 0.159 7.36 18.82 11.1
5/4/2023 10:15:00 AM 8.79 47.822 0.157 7.37 19.27 11.12
5/4/2023 10:30:00 AM 8.81 47.858 0.155 7.37 18.65 11.14
5/4/2023 10:45:00 AM 8.84 47.912 0.154 7.38 18.13 11.14
5/4/2023 11:00:00 AM 8.93 48.074 0.154 7.39 18.16 11.21
5/4/2023 11:15:00 AM 9.09 48.362 0.153 7.41 17.35 11.3
5/4/2023 11:30:00 AM 9.16 48.488 0.149 7.44 17.3 11.31
5/4/2023 11:45:00 AM 9.24 48.632 0.152 7.45 17.5 11.3
5/4/2023 12:00:00 PM 9.38 48.884 0.152 7.47 16.46 11.38
5/4/2023 12:15:00 PM 9.59 49.262 0.152 7.5 17.19 11.43
5/4/2023 12:30:00 PM 9.83 49.694 0.155 7.53 16.33 11.47
5/4/2023 12:45:00 PM 9.89 49.802 0.156 7.54 17.94 11.37
5/4/2023 1:00:00 PM 10.06 50.108 0.154 7.55 16.98 11.39
5/4/2023 1:15:00 PM 10.17 50.306 0.151 7.59 17.49 11.42
5/4/2023 1:30:00 PM 10.21 50.378 0.15 7.57 16.85 11.35
5/4/2023 1:45:00 PM 10.4 50.72 0.148 7.59 16.77 11.36
5/4/2023 2:00:00 PM 10.48 50.864 0.096 7.57 17.19 11.28
5/4/2023 2:15:00 PM 10.55 50.99 0.146 7.58 17.03 11.22
5/4/2023 2:30:00 PM 10.53 50.954 0.146 7.58 17.09 11.14
5/4/2023 2:45:00 PM 10.59 51.062 0.146 7.57 17.7 11.14
5/4/2023 3:00:00 PM 10.68 51.224 0.147 7.59 16.76 11.16
5/4/2023 3:15:00 PM 10.81 51.458 0.145 7.6 16.61 11.15
5/4/2023 3:30:00 PM 10.96 51.728 0.142 7.62 16.9 11.18
5/4/2023 3:45:00 PM 11 51.8 0.139 7.63 16.57 11.14
5/4/2023 4:00:00 PM 10.99 51.782 0.137 7.61 17.56 11.05
5/4/2023 4:15:00 PM 11.01 51.818 0.136 7.6 18.28 10.99
5/4/2023 4:30:00 PM 11.08 51.944 0.136 7.59 17.81 10.98
5/4/2023 4:45:00 PM 11.14 52.052 0.136 7.58 17.87 10.92
5/4/2023 5:00:00 PM 11.17 52.106 0.136 7.56 18.06 10.81
5/4/2023 5:15:00 PM 11.16 52.088 0.137 7.54 18.31 10.72
5/4/2023 5:30:00 PM 11.21 52.178 0.139 7.52 18.42 10.72
5/4/2023 5:45:00 PM 11.25 52.25 0.144 7.52 22.73 10.67
5/4/2023 6:00:00 PM 11.3 52.34 0.145 7.51 19.91 10.63
5/4/2023 6:15:00 PM 11.3 52.34 0.144 7.49 21.76 10.59
5/4/2023 6:30:00 PM 11.3 52.34 0.143 7.48 24.66 10.54
5/4/2023 6:45:00 PM 11.32 52.376 0.143 7.47 26.59 10.52
5/4/2023 7:00:00 PM 11.33 52.394 0.146 7.45 25.73 10.49
5/4/2023 7:15:00 PM 11.34 52.412 0.149 7.44 26.26 10.43
5/4/2023 7:30:00 PM 11.33 52.394 0.152 7.42 27.86 10.37
5/4/2023 7:45:00 PM 11.33 52.394 0.152 7.4 29.27 10.34
5/4/2023 8:00:00 PM 11.29 52.322 0.15 7.39 27.81 10.33
5/4/2023 8:15:00 PM 11.25 52.25 0.149 7.38 31.75 10.32
5/4/2023 8:30:00 PM 11.2 52.16 0.148 7.37 38.9 10.32
5/4/2023 8:45:00 PM 11.15 52.07 0.149 7.36 42.1 10.3
5/4/2023 9:00:00 PM 11.11 51.998 0.153 7.35 45.4 10.27
5/4/2023 9:15:00 PM 11.07 51.926 0.156 7.34 43.96 10.25
5/4/2023 9:30:00 PM 11.01 51.818 0.157 7.33 41.96 10.25
5/4/2023 9:45:00 PM 10.95 51.71 0.155 7.33 41.36 10.27
5/4/2023 10:00:00 PM 10.88 51.584 0.154 7.32 38.46 10.3
5/4/2023 10:15:00 PM 10.81 51.458 0.151 7.32 35.73 10.33
5/4/2023 10:30:00 PM 10.75 51.35 0.15 7.31 33.19 10.34
5/4/2023 10:45:00 PM 10.69 51.242 0.149 7.31 32.77 10.36
5/4/2023 11:00:00 PM 10.63 51.134 0.148 7.3 32.19 10.37
5/4/2023 11:15:00 PM 10.57 51.026 0.148 7.3 31.29 10.39
5/4/2023 11:30:00 PM 10.51 50.918 0.147 7.29 30.04 10.4
5/4/2023 11:45:00 PM 10.45 50.81 0.148 7.29 30.75 10.41
5/5/2023 12:00:00 AM 10.4 50.72 0.147 7.28 30.22 10.43
5/5/2023 12:15:00 AM 10.34 50.612 0.147 7.28 28.04 10.44
5/5/2023 12:30:00 AM 10.29 50.522 0.147 7.28 29.33 10.45
5/5/2023 12:45:00 AM 10.23 50.414 0.147 7.28 27.5 10.46
5/5/2023 1:00:00 AM 10.15 50.27 0.146 7.27 27.16 10.48
5/5/2023 1:15:00 AM 10.09 50.162 0.148 7.27 26.19 10.48
5/5/2023 1:30:00 AM 10.03 50.054 0.15 7.27 24.39 10.49
5/5/2023 1:45:00 AM 9.97 49.946 0.151 7.26 24.1 10.5
5/5/2023 2:00:00 AM 9.9 49.82 0.149 7.27 24.96 10.52
5/5/2023 2:15:00 AM 9.81 49.658 0.147 7.26 22.82 10.55
5/5/2023 2:30:00 AM 9.73 49.514 0.144 7.26 22.55 10.59
5/5/2023 2:45:00 AM 9.65 49.37 0.143 7.25 21.69 10.61
5/5/2023 3:00:00 AM 9.58 49.244 0.143 7.25 21.25 10.63
5/5/2023 3:15:00 AM 9.52 49.136 0.143 7.25 20.73 10.65
5/5/2023 3:30:00 AM 9.44 48.992 0.143 7.25 19.94 10.67
5/5/2023 3:45:00 AM 9.38 48.884 0.143 7.25 19.16 10.69
5/5/2023 4:00:00 AM 9.32 48.776 0.144 7.25 19.29 10.7
5/5/2023 4:15:00 AM 9.28 48.704 0.139 7.26 12.95 10.71
5/5/2023 4:30:00 AM 9.23 48.614 0.149 7.25 18.01 10.72
5/5/2023 4:45:00 AM 9.17 48.506 0.148 7.25 17.62 10.74
5/5/2023 5:00:00 AM 9.11 48.398 0.146 7.25 17.61 10.76
5/5/2023 5:15:00 AM 9.05 48.29 0.144 7.25 16.3 10.78
5/5/2023 5:30:00 AM 8.99 48.182 0.143 7.24 16.87 10.81
5/5/2023 5:45:00 AM 8.93 48.074 0.143 7.24 20.26 10.83
5/5/2023 6:00:00 AM 8.88 47.984 0.144 7.24 16.43 10.84
5/5/2023 6:15:00 AM 8.84 47.912 0.145 7.24 15.72 10.86
5/5/2023 6:30:00 AM 8.8 47.84 0.146 7.25 15.96 10.89
5/5/2023 6:45:00 AM 8.77 47.786 0.15 7.25 14.65 10.9
5/5/2023 7:00:00 AM 8.76 47.768 0.153 7.26 14.17 10.91
5/5/2023 7:15:00 AM 8.74 47.732 0.154 7.27 11.28 10.94
5/5/2023 7:30:00 AM 8.71 47.678 0.151 7.27 14.22 11
5/5/2023 7:45:00 AM 8.67 47.606 0.147 7.28 14.04 11.06
5/5/2023 8:00:00 AM 8.63 47.534 0.143 7.29 14.42 11.13
5/5/2023 8:15:00 AM 8.6 47.48 0.141 7.3 12.94 11.2
5/5/2023 8:30:00 AM 8.59 47.462 0.139 7.3 12.41 11.27
5/5/2023 8:45:00 AM 8.63 47.534 0.139 7.32 12.57 11.35
5/5/2023 9:00:00 AM 8.66 47.588 0.138 7.33 12.65 11.42
5/5/2023 9:15:00 AM 8.7 47.66 0.138 7.35 11.85 11.48
5/5/2023 9:30:00 AM 8.77 47.786 0.139 7.37 13.18 11.54
5/5/2023 9:45:00 AM 8.87 47.966 0.142 7.4 11.38 11.59
5/5/2023 10:00:00 AM 8.99 48.182 0.143 7.42 11.08 11.64
5/5/2023 10:15:00 AM 9.12 48.416 0.142 7.45 10.72 11.7
5/5/2023 10:30:00 AM 9.17 48.506 0.14 7.48 10.95 11.72
5/5/2023 10:45:00 AM 9.29 48.722 0.138 7.5 10.13 11.74
5/5/2023 11:00:00 AM 9.39 48.902 0.137 7.52 10.36 11.76
5/5/2023 11:15:00 AM 9.58 49.244 0.137 7.55 10.46 11.78
5/5/2023 11:30:00 AM 9.75 49.55 0.136 7.58 10.19 11.8
5/5/2023 11:45:00 AM 9.88 49.784 0.138 7.6 10.3 11.78
5/5/2023 12:00:00 PM 10.15 50.27 0.141 7.63 10.14 11.8
5/5/2023 12:15:00 PM 10.29 50.522 0.142 7.67 10.06 11.8
5/5/2023 12:30:00 PM 10.39 50.702 0.14 7.69 11.39 11.74
5/5/2023 12:45:00 PM 10.44 50.792 0.138 7.67 10.54 11.64
5/5/2023 1:00:00 PM 10.44 50.792 0.137 7.67 9.95 11.62
5/5/2023 1:15:00 PM 10.47 50.846 0.136 7.69 10.06 11.66
5/5/2023 1:30:00 PM 10.58 51.044 0.135 7.72 10.1 11.67
5/5/2023 1:45:00 PM 10.62 51.116 0.135 7.74 10.07 11.66
5/5/2023 2:00:00 PM 10.7 51.26 0.136 7.74 10.16 11.63
5/5/2023 2:15:00 PM 10.82 51.476 0.136 7.75 10.34 11.6
5/5/2023 2:30:00 PM 10.97 51.746 0.136 7.79 9.77 11.62
5/5/2023 2:45:00 PM 11.15 52.07 0.137 7.81 10.13 11.59
5/5/2023 3:00:00 PM 11.23 52.214 0.139 7.8 10.58 11.5
5/5/2023 3:15:00 PM 11.34 52.412 0.142 7.76 10.41 11.36
5/5/2023 3:30:00 PM 11.49 52.682 0.143 7.74 9.81 11.29
5/5/2023 3:45:00 PM 11.67 53.006 0.142 7.76 10.23 11.3
5/5/2023 4:00:00 PM 11.82 53.276 0.14 7.78 10.25 11.32
5/5/2023 4:15:00 PM 11.87 53.366 0.138 7.78 10.3 11.24
5/5/2023 4:30:00 PM 11.87 53.366 0.138 7.75 10.81 11.11
5/5/2023 4:45:00 PM 11.85 53.33 0.139 7.7 11.21 10.99
5/5/2023 5:00:00 PM 11.82 53.276 0.143 7.66 10.69 10.9
5/5/2023 5:15:00 PM 11.81 53.258 0.146 7.63 10.99 10.84
5/5/2023 5:30:00 PM 11.85 53.33 0.146 7.62 11.03 10.86
5/5/2023 5:45:00 PM 11.89 53.402 0.144 7.62 11 10.86
5/5/2023 6:00:00 PM 11.93 53.474 0.141 7.61 11.06 10.82
5/5/2023 6:15:00 PM 11.92 53.456 0.138 7.61 12.57 10.76
5/5/2023 6:30:00 PM 11.9 53.42 0.137 7.57 11.19 10.71
5/5/2023 6:45:00 PM 11.89 53.402 0.136 7.54 11.05 10.65
5/5/2023 7:00:00 PM 11.85 53.33 0.136 7.53 14.04 10.61
5/5/2023 7:15:00 PM 11.82 53.276 0.136 7.51 14.11 10.58
5/5/2023 7:30:00 PM 11.81 53.258 0.136 7.49 11.18 10.55
5/5/2023 7:45:00 PM 11.76 53.168 0.136 7.47 11.6 10.49
5/5/2023 8:00:00 PM 11.72 53.096 0.136 7.45 11.5 10.44
5/5/2023 8:15:00 PM 11.67 53.006 0.136 7.43 11.73 10.39
5/5/2023 8:30:00 PM 11.62 52.916 0.139 7.41 11.78 10.35
5/5/2023 8:45:00 PM 11.57 52.826 0.142 7.38 12.38 10.32
5/5/2023 9:00:00 PM 11.51 52.718 0.142 7.37 12.14 10.3
5/5/2023 9:15:00 PM 11.44 52.592 0.141 7.35 13.02 10.3
5/5/2023 9:30:00 PM 11.36 52.448 0.139 7.34 12.39 10.3
5/5/2023 9:45:00 PM 11.27 52.286 0.138 7.33 12.78 10.31
5/5/2023 10:00:00 PM 11.18 52.124 0.138 7.32 12.86 10.32
5/5/2023 10:15:00 PM 11.11 51.998 0.14 7.32 13.03 10.32
5/5/2023 10:30:00 PM 11.03 51.854 0.143 7.32 19.5 10.32
5/5/2023 10:45:00 PM 10.97 51.746 0.145 7.3 12.86 10.33
5/5/2023 11:00:00 PM 10.89 51.602 0.143 7.29 12.39 10.34
5/5/2023 11:15:00 PM 10.8 51.44 0.141 7.28 12.42 10.36
5/5/2023 11:30:00 PM 10.71 51.278 0.14 7.27 12.5 10.38
5/5/2023 11:45:00 PM 10.63 51.134 0.14 7.22 12.34 10.39
5/6/2023 12:00:00 AM 10.56 51.008 0.143 7.26 12.45 10.39
5/6/2023 12:15:00 AM 10.5 50.9 0.146 7.26 12.96 10.39
5/6/2023 12:30:00 AM 10.43 50.774 0.147 7.25 13.16 10.4
5/6/2023 12:45:00 AM 10.34 50.612 0.144 7.25 12.97 10.43
5/6/2023 1:00:00 AM 10.25 50.45 0.142 7.24 12.52 10.46
5/6/2023 1:15:00 AM 10.16 50.288 0.139 7.24 12.04 10.49
5/6/2023 1:30:00 AM 10.07 50.126 0.138 7.23 12.36 10.53
5/6/2023 1:45:00 AM 9.97 49.946 0.137 7.23 12.31 10.55
5/6/2023 2:00:00 AM 9.89 49.802 0.136 7.22 11.69 10.58
5/6/2023 2:15:00 AM 9.81 49.658 0.136 7.24 13.82 10.6
5/6/2023 2:30:00 AM 9.72 49.496 0.136 7.22 11.07 10.62
5/6/2023 2:45:00 AM 9.64 49.352 0.136 7.22 11.25 10.65
5/6/2023 3:00:00 AM 9.56 49.208 0.136 7.21 11.19 10.66
5/6/2023 3:15:00 AM 9.49 49.082 0.136 7.21 10.76 10.69
5/6/2023 3:30:00 AM 9.41 48.938 0.136 7.21 10.7 10.71
5/6/2023 3:45:00 AM 9.33 48.794 0.136 7.21 11.03 10.73
5/6/2023 4:00:00 AM 9.25 48.65 0.137 7.2 10.9 10.75
5/6/2023 4:15:00 AM 9.18 48.524 0.138 7.22 13.77 10.77
5/6/2023 4:30:00 AM 9.12 48.416 0.141 7.21 11.17 10.78
5/6/2023 4:45:00 AM 9.07 48.326 0.143 7.21 10.81 10.79
5/6/2023 5:00:00 AM 9 48.2 0.142 7.22 18.1 10.82
5/6/2023 5:15:00 AM 8.93 48.074 0.14 7.21 10.83 10.84
5/6/2023 5:30:00 AM 8.87 47.966 0.138 7.21 10.56 10.87
5/6/2023 5:45:00 AM 8.81 47.858 0.137 7.21 10.41 10.89
5/6/2023 6:00:00 AM 8.75 47.75 0.098 7.21 11.55 10.91
5/6/2023 6:15:00 AM 8.69 47.642 0.136 7.21 10.54 10.94
5/6/2023 6:30:00 AM 8.64 47.552 0.136 7.21 9.84 10.97
5/6/2023 6:45:00 AM 8.6 47.48 0.136 7.21 9.69 11
5/6/2023 7:00:00 AM 8.57 47.426 0.138 7.22 9 11.05
5/6/2023 7:15:00 AM 8.55 47.39 0.142 7.23 8.88 11.09
5/6/2023 7:30:00 AM 8.54 47.372 0.144 7.24 8.71 11.14
5/6/2023 7:45:00 AM 8.52 47.336 0.142 7.26 8.79 11.22
5/6/2023 8:00:00 AM 8.5 47.3 0.14 7.27 8.47 11.3
5/6/2023 8:15:00 AM 8.49 47.282 0.137 7.29 8.48 11.39
5/6/2023 8:30:00 AM 8.48 47.264 0.136 7.3 8.15 11.47
5/6/2023 8:45:00 AM 8.5 47.3 0.135 7.32 7.97 11.56
5/6/2023 9:00:00 AM 8.55 47.39 0.108 7.36 9.85 11.63
5/6/2023 9:15:00 AM 8.61 47.498 0.134 7.37 7.66 11.71
5/6/2023 9:30:00 AM 8.7 47.66 0.134 7.4 7.64 11.78
5/6/2023 9:45:00 AM 8.8 47.84 0.136 7.43 7.7 11.82
5/6/2023 10:00:00 AM 8.93 48.074 0.138 7.47 7.25 11.88
5/6/2023 10:15:00 AM 9.08 48.344 0.139 7.5 7.12 11.92
5/6/2023 10:30:00 AM 9.23 48.614 0.138 7.54 7.08 11.96
5/6/2023 10:45:00 AM 9.4 48.92 0.136 7.58 7.77 12
5/6/2023 11:00:00 AM 9.57 49.226 0.134 7.61 7.43 12.03
5/6/2023 11:15:00 AM 9.77 49.586 0.133 7.65 7.16 12.05
5/6/2023 11:30:00 AM 9.98 49.964 0.133 7.69 7.15 12.06
5/6/2023 11:45:00 AM 10.19 50.342 0.132 7.74 7.01 12.07
5/6/2023 12:00:00 PM 10.42 50.756 0.132 7.79 10.29 12.06
5/6/2023 12:15:00 PM 10.64 51.152 0.133 7.82 7.58 12.05
5/6/2023 12:30:00 PM 10.88 51.584 0.135 7.86 7.29 12.04
5/6/2023 12:45:00 PM 11.12 52.016 0.137 7.91 9.64 12.01
5/6/2023 1:00:00 PM 11.36 52.448 0.138 7.96 8.82 11.98
5/6/2023 1:15:00 PM 11.6 52.88 0.128 8 10.3 11.96
5/6/2023 1:30:00 PM 11.83 53.294 0.135 8.02 7.42 11.92
5/6/2023 1:45:00 PM 12.05 53.69 0.134 8.06 8.33 11.89
5/6/2023 2:00:00 PM 12.23 54.014 0.133 8.09 10.37 11.86
5/6/2023 2:15:00 PM 12.44 54.392 0.133 8.03 8.39 11.8
5/6/2023 2:30:00 PM 12.61 54.698 0.133 8.13 7.5 11.74
5/6/2023 2:45:00 PM 12.79 55.022 0.133 8.15 7.31 11.69
5/6/2023 3:00:00 PM 12.96 55.328 0.134 8.17 10.51 11.65
5/6/2023 3:15:00 PM 13.15 55.67 0.137 8.18 7.53 11.59
5/6/2023 3:30:00 PM 13.34 56.012 0.139 8.19 7.75 11.53
5/6/2023 3:45:00 PM 13.5 56.3 0.139 8.19 7.68 11.45
5/6/2023 4:00:00 PM 13.64 56.552 0.138 8.19 7.47 11.37
5/6/2023 4:15:00 PM 13.76 56.768 0.137 8.18 7.92 11.28
5/6/2023 4:30:00 PM 13.84 56.912 0.136 8.16 7.75 11.18
5/6/2023 4:45:00 PM 13.93 57.074 0.072 8.13 8.97 11.07
5/6/2023 5:00:00 PM 14.02 57.236 0.136 8.1 7.99 11
5/6/2023 5:15:00 PM 14.09 57.362 0.135 8.07 9.02 10.91
5/6/2023 5:30:00 PM 14.16 57.488 0.136 8.02 7.76 10.8
5/6/2023 5:45:00 PM 14.21 57.578 0.138 7.97 8.73 10.67
5/6/2023 6:00:00 PM 14.24 57.632 0.133 7.91 10.21 10.57
5/6/2023 6:15:00 PM 14.28 57.704 0.143 7.86 8.23 10.46
5/6/2023 6:30:00 PM 14.29 57.722 0.143 7.81 8.37 10.35
5/6/2023 6:45:00 PM 14.3 57.74 0.142 7.76 11.86 10.25
5/6/2023 7:00:00 PM 14.29 57.722 0.14 7.71 8.71 10.16
5/6/2023 7:15:00 PM 14.28 57.704 0.139 7.66 8.91 10.08
5/6/2023 7:30:00 PM 14.26 57.668 0.139 7.62 8.95 10
5/6/2023 7:45:00 PM 14.22 57.596 0.138 7.58 9.16 9.92
5/6/2023 8:00:00 PM 14.17 57.506 0.138 7.55 12.46 9.85
5/6/2023 8:15:00 PM 14.1 57.38 0.138 7.51 9.13 9.79
5/6/2023 8:30:00 PM 14.02 57.236 0.139 7.47 9.75 9.73
5/6/2023 8:45:00 PM 13.94 57.092 0.142 7.45 9.93 9.69
5/6/2023 9:00:00 PM 13.85 56.93 0.144 7.42 10.32 9.67
5/6/2023 9:15:00 PM 13.75 56.75 0.145 7.4 10.54 9.65
5/6/2023 9:30:00 PM 13.65 56.57 0.144 7.38 10.7 9.64
5/6/2023 9:45:00 PM 13.54 56.372 0.142 7.36 10.72 9.64
5/6/2023 10:00:00 PM 13.43 56.174 0.141 7.34 10.74 9.65
5/6/2023 10:15:00 PM 13.33 55.994 0.14 7.33 11.64 9.66
5/6/2023 10:30:00 PM 13.22 55.796 0.14 7.32 10.97 9.67
5/6/2023 10:45:00 PM 13.1 55.58 0.14 7.31 10.57 9.68
5/6/2023 11:00:00 PM 12.98 55.364 0.139 7.3 10.5 9.7
5/6/2023 11:15:00 PM 12.86 55.148 0.14 7.28 11 9.72
5/6/2023 11:30:00 PM 12.74 54.932 0.143 7.29 12.43 9.74
5/6/2023 11:45:00 PM 12.62 54.716 0.145 7.27 10.37 9.76
5/7/2023 12:00:00 AM 12.5 54.5 0.145 7.27 10.49 9.78
5/7/2023 12:15:00 AM 12.38 54.284 0.144 7.27 10.06 9.81
5/7/2023 12:30:00 AM 12.27 54.086 0.143 7.26 10.15 9.83
5/7/2023 12:45:00 AM 12.15 53.87 0.142 7.25 10.16 9.85
5/7/2023 1:00:00 AM 12.05 53.69 0.141 7.25 10.77 9.88
5/7/2023 1:15:00 AM 11.94 53.492 0.141 7.24 10.1 9.9
5/7/2023 1:30:00 AM 11.82 53.276 0.14 7.24 9.77 9.93
5/7/2023 1:45:00 AM 11.72 53.096 0.141 7.23 9.88 9.96
5/7/2023 2:00:00 AM 11.61 52.898 0.089 7.24 11.64 9.98
5/7/2023 2:15:00 AM 11.51 52.718 0.124 7.24 12.49 10.01
5/7/2023 2:30:00 AM 11.42 52.556 0.145 7.23 9.66 10.03
5/7/2023 2:45:00 AM 11.34 52.412 0.146 7.23 9.44 10.05
5/7/2023 3:00:00 AM 11.26 52.268 0.144 7.23 9.35 10.08
5/7/2023 3:15:00 AM 11.18 52.124 0.143 7.23 9.37 10.1
5/7/2023 3:30:00 AM 11.11 51.998 0.142 7.24 11.04 10.12
5/7/2023 3:45:00 AM 11.04 51.872 0.142 7.23 10.96 10.15
5/7/2023 4:00:00 AM 10.97 51.746 0.141 7.12 10.05 10.17
5/7/2023 4:15:00 AM 10.91 51.638 0.141 7.22 9.02 10.19
5/7/2023 4:30:00 AM 10.84 51.512 0.141 7.23 12.21 10.21
5/7/2023 4:45:00 AM 10.79 51.422 0.143 7.23 11.61 10.23
5/7/2023 5:00:00 AM 10.73 51.314 0.145 7.23 8.98 10.24
5/7/2023 5:15:00 AM 10.68 51.224 0.146 7.23 8.58 10.25
5/7/2023 5:30:00 AM 10.63 51.134 0.146 7.23 8.81 10.27
5/7/2023 5:45:00 AM 10.58 51.044 0.145 7.22 8.56 10.29
5/7/2023 6:00:00 AM 10.53 50.954 0.144 7.23 8.45 10.3
5/7/2023 6:15:00 AM 10.48 50.864 0.143 7.22 8.59 10.31
5/7/2023 6:30:00 AM 10.44 50.792 0.142 7.22 8.33 10.33
5/7/2023 6:45:00 AM 10.41 50.738 0.142 7.22 7.92 10.37
5/7/2023 7:00:00 AM 10.37 50.666 0.141 7.24 8.12 10.43
5/7/2023 7:15:00 AM 10.34 50.612 0.141 7.25 7.98 10.49
5/7/2023 7:30:00 AM 10.32 50.576 0.142 7.26 7.62 10.53
5/7/2023 7:45:00 AM 10.31 50.558 0.144 7.27 7.47 10.57
5/7/2023 8:00:00 AM 10.31 50.558 0.145 7.28 7.03 10.63
5/7/2023 8:15:00 AM 10.31 50.558 0.145 7.3 6.93 10.7
5/7/2023 8:30:00 AM 10.31 50.558 0.144 7.31 6.73 10.74
5/7/2023 8:45:00 AM 10.32 50.576 0.142 7.33 6.62 10.84
5/7/2023 9:00:00 AM 10.34 50.612 0.141 7.36 6.49 10.93
5/7/2023 9:15:00 AM 10.35 50.63 0.14 7.38 6.2 11.01
5/7/2023 9:30:00 AM 10.38 50.684 0.14 7.41 9.31 11.09
5/7/2023 9:45:00 AM 10.39 50.702 0.139 7.43 6.22 11.13
5/7/2023 10:00:00 AM 10.41 50.738 0.139 7.45 6.3 11.18
5/7/2023 10:15:00 AM 10.45 50.81 0.14 7.48 5.99 11.23
5/7/2023 10:30:00 AM 10.49 50.882 0.142 7.51 6.03 11.3
5/7/2023 10:45:00 AM 10.53 50.954 0.143 7.54 6.13 11.34
5/7/2023 11:00:00 AM 10.55 50.99 0.142 7.56 5.87 11.33
5/7/2023 11:15:00 AM 10.63 51.134 0.141 7.6 6.08 11.44
5/7/2023 11:30:00 AM 10.7 51.26 0.14 7.65 6.23 11.53
5/7/2023 11:45:00 AM 10.81 51.458 0.139 7.72 6.09 11.64
5/7/2023 12:00:00 PM 10.95 51.71 0.139 7.79 6.01 11.73
5/7/2023 12:15:00 PM 11.06 51.908 0.138 7.86 6.07 11.79
5/7/2023 12:30:00 PM 11.15 52.07 0.138 7.92 6.26 11.82
5/7/2023 12:45:00 PM 11.19 52.142 0.138 7.95 6.28 11.77
5/7/2023 1:00:00 PM 11.24 52.232 0.139 7.96 5.94 11.71
5/7/2023 1:15:00 PM 11.27 52.286 0.141 7.92 5.79 11.57
5/7/2023 1:30:00 PM 11.3 52.34 0.142 7.88 9.12 11.46
5/7/2023 1:45:00 PM 11.36 52.448 0.141 7.91 7.82 11.49
5/7/2023 2:00:00 PM 11.44 52.592 0.14 7.96 8.71 11.56
5/7/2023 2:15:00 PM 11.51 52.718 0.14 8.02 8.22 11.61
5/7/2023 2:30:00 PM 11.52 52.736 0.14 7.99 6.02 11.48
5/7/2023 2:45:00 PM 11.55 52.79 0.139 7.95 6.1 11.38
5/7/2023 3:00:00 PM 11.57 52.826 0.139 7.89 5.97 11.24
5/7/2023 3:15:00 PM 11.59 52.862 0.139 7.84 6.35 11.14
5/7/2023 3:30:00 PM 11.63 52.934 0.14 7.82 6.31 11.12
5/7/2023 3:45:00 PM 11.66 52.988 0.142 7.81 6.25 11.08
5/7/2023 4:00:00 PM 11.7 53.06 0.144 7.81 6.08 11.08
5/7/2023 4:15:00 PM 11.75 53.15 0.144 7.83 9.11 11.11
5/7/2023 4:30:00 PM 11.8 53.24 0.143 7.85 7.76 11.13
5/7/2023 4:45:00 PM 11.86 53.348 0.143 7.86 9.47 11.13
5/7/2023 5:00:00 PM 11.89 53.402 0.142 7.84 6.1 11.06
5/7/2023 5:15:00 PM 11.92 53.456 0.142 7.81 6.42 10.94
5/7/2023 5:30:00 PM 11.96 53.528 0.142 7.77 9.73 10.87
5/7/2023 5:45:00 PM 12 53.6 0.141 7.75 6.78 10.84
5/7/2023 6:00:00 PM 12.01 53.618 0.141 7.71 6.78 10.74
5/7/2023 6:15:00 PM 12.02 53.636 0.14 7.68 9.9 10.65
5/7/2023 6:30:00 PM 12.05 53.69 0.145 7.64 8.32 10.56
5/7/2023 6:45:00 PM 12.07 53.726 0.147 7.6 7 10.48
5/7/2023 7:00:00 PM 12.09 53.762 0.148 7.57 6.93 10.42
5/7/2023 7:15:00 PM 12.09 53.762 0.147 7.54 7.16 10.35
5/7/2023 7:30:00 PM 12.1 53.78 0.146 7.52 7.23 10.28
5/7/2023 7:45:00 PM 12.1 53.78 0.143 7.49 11.07 10.21
5/7/2023 8:00:00 PM 12.09 53.762 0.145 7.46 8.17 10.15
5/7/2023 8:15:00 PM 12.08 53.744 0.144 7.43 8.4 10.11
5/7/2023 8:30:00 PM 12.06 53.708 0.144 7.41 8.69 10.08
5/7/2023 8:45:00 PM 12.05 53.69 0.144 7.39 8.91 10.05
5/7/2023 9:00:00 PM 12.05 53.69 0.133 7.38 12.49 10.02
5/7/2023 9:15:00 PM 12.05 53.69 0.15 7.36 9.1 9.99
5/7/2023 9:30:00 PM 12.04 53.672 0.151 7.35 10.19 9.97
5/7/2023 9:45:00 PM 12.04 53.672 0.151 7.34 9.96 9.95
5/7/2023 10:00:00 PM 12.04 53.672 0.15 7.33 9.62 9.94
5/7/2023 10:15:00 PM 12.03 53.654 0.15 7.33 13.43 9.93
5/7/2023 10:30:00 PM 12.02 53.636 0.132 7.32 11.87 9.93
5/7/2023 10:45:00 PM 12 53.6 0.148 7.31 9.77 9.92
5/7/2023 11:00:00 PM 11.99 53.582 0.148 7.3 9.38 9.92
5/7/2023 11:15:00 PM 11.97 53.546 0.149 7.3 9.86 9.92
5/7/2023 11:30:00 PM 11.96 53.528 0.152 7.29 9.3 9.91
5/7/2023 11:45:00 PM 11.95 53.51 0.155 7.31 13.24 9.9
5/8/2023 12:00:00 AM 11.95 53.51 0.157 7.29 9.86 9.9
5/8/2023 12:15:00 AM 11.94 53.492 0.158 7.29 12.09 9.89
5/8/2023 12:30:00 AM 11.94 53.492 0.16 7.29 10.72 9.89
5/8/2023 12:45:00 AM 11.94 53.492 0.16 7.29 10.33 9.88
5/8/2023 1:00:00 AM 11.94 53.492 0.161 7.28 10 9.87
5/8/2023 1:15:00 AM 11.93 53.474 0.161 7.28 9.96 9.87
5/8/2023 1:30:00 AM 11.92 53.456 0.16 7.28 9.87 9.87
5/8/2023 1:45:00 AM 11.9 53.42 0.16 7.28 9.71 9.87
5/8/2023 2:00:00 AM 11.89 53.402 0.161 7.27 9.52 9.87
5/8/2023 2:15:00 AM 11.88 53.384 0.164 7.27 9.33 9.86
5/8/2023 2:30:00 AM 11.86 53.348 0.165 7.27 9.22 9.85
5/8/2023 2:45:00 AM 11.85 53.33 0.165 7.27 9.23 9.85
5/8/2023 3:00:00 AM 11.84 53.312 0.162 7.26 11.75 9.85
5/8/2023 3:15:00 AM 11.84 53.312 0.165 7.26 12.39 9.85
5/8/2023 3:30:00 AM 11.83 53.294 0.166 7.26 9.32 9.85
5/8/2023 3:45:00 AM 11.82 53.276 0.166 7.26 9.22 9.85
5/8/2023 4:00:00 AM 11.81 53.258 0.166 7.26 8.94 9.85
5/8/2023 4:15:00 AM 11.79 53.222 0.165 7.26 13.48 9.85
5/8/2023 4:30:00 AM 11.78 53.204 0.165 7.26 10.42 9.86
5/8/2023 4:45:00 AM 11.77 53.186 0.165 7.27 11.09 9.86
5/8/2023 5:00:00 AM 11.76 53.168 0.165 7.26 11.78 9.86
5/8/2023 5:15:00 AM 11.75 53.15 0.166 7.26 8.67 9.86
5/8/2023 5:30:00 AM 11.73 53.114 0.166 7.26 8.71 9.86
5/8/2023 5:45:00 AM 11.71 53.078 0.119 7.27 10.68 9.87
5/8/2023 6:00:00 AM 11.69 53.042 0.162 7.26 8.8 9.88
5/8/2023 6:15:00 AM 11.68 53.024 0.161 7.26 8.87 9.88
5/8/2023 6:30:00 AM 11.68 53.024 0.16 7.26 9.09 9.9
5/8/2023 6:45:00 AM 11.66 52.988 0.159 7.26 8.04 9.93
5/8/2023 7:00:00 AM 11.66 52.988 0.158 7.27 8.96 9.97
5/8/2023 7:15:00 AM 11.65 52.97 0.157 7.27 8.13 10
5/8/2023 7:30:00 AM 11.65 52.97 0.157 7.28 7.57 10.02
5/8/2023 7:45:00 AM 11.66 52.988 0.157 7.29 7.34 10.08
5/8/2023 8:00:00 AM 11.69 53.042 0.159 7.31 7 10.19
5/8/2023 8:15:00 AM 11.72 53.096 0.159 7.34 6.91 10.29
5/8/2023 8:30:00 AM 11.77 53.186 0.157 7.37 6.79 10.42
5/8/2023 8:45:00 AM 11.81 53.258 0.155 7.41 6.61 10.53
5/8/2023 9:00:00 AM 11.89 53.402 0.153 7.45 7.25 10.67
5/8/2023 9:15:00 AM 11.93 53.474 0.151 7.48 6.98 10.72
5/8/2023 9:30:00 AM 11.94 53.492 0.15 7.5 6.9 10.74
5/8/2023 9:45:00 AM 12.02 53.636 0.147 7.54 10.39 10.87
5/8/2023 10:00:00 AM 12.18 53.924 0.148 7.61 10.08 11.06
5/8/2023 10:15:00 AM 12.18 53.924 0.132 7.67 9.1 11.09
5/8/2023 10:30:00 AM 12.25 54.05 0.149 7.7 10.05 11.15
5/8/2023 10:45:00 AM 12.31 54.158 0.151 7.74 6.69 11.19
5/8/2023 11:00:00 AM 12.39 54.302 0.151 7.8 8.6 11.24
5/8/2023 11:15:00 AM 12.46 54.428 0.15 7.85 6.2 11.32
5/8/2023 11:30:00 AM 12.54 54.572 0.15 7.91 8.32 11.37
5/8/2023 11:45:00 AM 12.73 54.914 0.149 7.99 6.38 11.46
5/8/2023 12:00:00 PM 12.77 54.986 0.13 8.04 7.4 11.47
5/8/2023 12:15:00 PM 12.8 55.04 0.147 8.06 7.91 11.42
5/8/2023 12:30:00 PM 12.85 55.13 0.147 8.09 6.4 11.42
5/8/2023 12:45:00 PM 12.94 55.292 0.146 8.15 6.63 11.49
5/8/2023 1:00:00 PM 12.99 55.382 0.147 8.17 6.1 11.41
5/8/2023 1:15:00 PM 13.07 55.526 0.148 8.2 5.89 11.44
5/8/2023 1:30:00 PM 13.15 55.67 0.15 8.22 7.03 11.44
5/8/2023 1:45:00 PM 13.21 55.778 0.15 8.26 6.25 11.44
5/8/2023 2:00:00 PM 13.27 55.886 0.15 8.28 6.04 11.44
5/8/2023 2:15:00 PM 13.33 55.994 0.149 8.3 6.66 11.43
5/8/2023 2:30:00 PM 13.38 56.084 0.149 8.31 7.86 11.37
5/8/2023 2:45:00 PM 13.48 56.264 0.148 8.34 6.24 11.43
5/8/2023 3:00:00 PM 13.67 56.606 0.148 8.4 6.08 11.48
5/8/2023 3:15:00 PM 13.8 56.84 0.147 8.43 7.95 11.45
5/8/2023 3:30:00 PM 13.93 57.074 0.147 8.44 6.33 11.43
5/8/2023 3:45:00 PM 14.13 57.434 0.148 8.48 9.82 11.45
5/8/2023 4:00:00 PM 14.25 57.65 0.15 8.48 6.49 11.36
5/8/2023 4:15:00 PM 14.31 57.758 0.152 8.46 6.4 11.28
5/8/2023 4:30:00 PM 14.43 57.974 0.154 8.46 6.49 11.23
5/8/2023 4:45:00 PM 14.51 58.118 0.126 8.46 7.77 11.17
5/8/2023 5:00:00 PM 14.56 58.208 0.153 8.43 7.48 11.07
5/8/2023 5:15:00 PM 14.64 58.352 0.151 8.41 9.45 11.01
5/8/2023 5:30:00 PM 14.68 58.424 0.151 8.38 6.4 10.91
5/8/2023 5:45:00 PM 14.64 58.352 0.151 8.31 9.77 10.74
5/8/2023 6:00:00 PM 14.62 58.316 0.15 8.24 10.07 10.63
5/8/2023 6:15:00 PM 14.61 58.298 0.15 8.18 6.3 10.54
5/8/2023 6:30:00 PM 14.6 58.28 0.151 8.11 6.76 10.42
5/8/2023 6:45:00 PM 14.58 58.244 0.154 8.05 6.52 10.35
5/8/2023 7:00:00 PM 14.57 58.226 0.156 7.98 8.77 10.26
5/8/2023 7:15:00 PM 14.53 58.154 0.158 7.92 6.89 10.16
5/8/2023 7:30:00 PM 14.49 58.082 0.157 7.85 6.67 10.04
5/8/2023 7:45:00 PM 14.45 58.01 0.157 7.79 7.24 9.94
5/8/2023 8:00:00 PM 14.41 57.938 0.156 7.73 6.86 9.85
5/8/2023 8:15:00 PM 14.36 57.848 0.155 7.68 7.04 9.76
5/8/2023 8:30:00 PM 14.32 57.776 0.154 7.63 6.9 9.68
5/8/2023 8:45:00 PM 14.28 57.704 0.153 7.59 10.1 9.61
5/8/2023 9:00:00 PM 14.23 57.614 0.153 7.55 7.69 9.56
5/8/2023 9:15:00 PM 14.19 57.542 0.153 7.52 11.21 9.51
5/8/2023 9:30:00 PM 14.15 57.47 0.156 7.49 8 9.47
5/8/2023 9:45:00 PM 14.11 57.398 0.159 7.47 10.01 9.44
5/8/2023 10:00:00 PM 14.07 57.326 0.16 7.45 8.02 9.41
5/8/2023 10:15:00 PM 14.02 57.236 0.159 7.44 11.6 9.39
5/8/2023 10:30:00 PM 13.98 57.164 0.16 7.42 12.13 9.38
5/8/2023 10:45:00 PM 13.94 57.092 0.158 7.41 9.76 9.37
5/8/2023 11:00:00 PM 13.9 57.02 0.157 7.39 8.11 9.36
5/8/2023 11:15:00 PM 13.85 56.93 0.155 7.37 7.85 9.36
5/8/2023 11:30:00 PM 13.79 56.822 0.154 7.36 8.38 9.37
5/8/2023 11:45:00 PM 13.73 56.714 0.154 7.35 11.67 9.37
5/9/2023 12:00:00 AM 13.67 56.606 0.154 7.34 10.11 9.38
5/9/2023 12:15:00 AM 13.61 56.498 0.156 7.33 7.96 9.39
5/9/2023 12:30:00 AM 13.55 56.39 0.159 7.33 8.13 9.39
5/9/2023 12:45:00 AM 13.49 56.282 0.16 7.32 8.38 9.4
5/9/2023 1:00:00 AM 13.44 56.192 0.16 7.32 7.91 9.4
5/9/2023 1:15:00 AM 13.39 56.102 0.159 7.31 7.54 9.41
5/9/2023 1:30:00 AM 13.33 55.994 0.158 7.3 8.03 9.42
5/9/2023 1:45:00 AM 13.28 55.904 0.157 7.3 7.79 9.43
5/9/2023 2:00:00 AM 13.22 55.796 0.144 7.29 11.37 9.45
5/9/2023 2:15:00 AM 13.16 55.688 0.154 7.29 11.44 9.47
5/9/2023 2:30:00 AM 13.1 55.58 0.155 7.28 10.53 9.48
5/9/2023 2:45:00 AM 13.04 55.472 0.156 7.28 7.62 9.49
5/9/2023 3:00:00 AM 12.99 55.382 0.159 7.28 7.62 9.5
5/9/2023 3:15:00 AM 12.94 55.292 0.162 7.28 7.42 9.51
5/9/2023 3:30:00 AM 12.89 55.202 0.164 7.28 11.53 9.51
5/9/2023 3:45:00 AM 12.84 55.112 0.164 7.28 10.31 9.54
5/9/2023 4:00:00 AM 12.79 55.022 0.163 7.28 7.23 9.55
5/9/2023 4:15:00 AM 12.75 54.95 0.161 7.29 7.09 9.56
5/9/2023 4:30:00 AM 12.7 54.86 0.16 7.29 7.54 9.57
5/9/2023 4:45:00 AM 12.65 54.77 0.154 7.29 10.72 9.59
5/9/2023 5:00:00 AM 12.6 54.68 0.157 7.29 7.32 9.6
5/9/2023 5:15:00 AM 12.54 54.572 0.157 7.29 7.01 9.61
5/9/2023 5:30:00 AM 12.49 54.482 0.158 7.29 8.06 9.63
5/9/2023 5:45:00 AM 12.44 54.392 0.16 7.29 6.9 9.64
5/9/2023 6:00:00 AM 12.39 54.302 0.162 7.29 6.91 9.65
5/9/2023 6:15:00 AM 12.35 54.23 0.163 7.29 7.1 9.66
5/9/2023 6:30:00 AM 12.32 54.176 0.163 7.3 8.99 9.68
5/9/2023 6:45:00 AM 12.29 54.122 0.162 7.3 6.91 9.72
5/9/2023 7:00:00 AM 12.25 54.05 0.161 7.31 10.21 9.75
5/9/2023 7:15:00 AM 12.22 53.996 0.16 7.31 6.38 9.81
5/9/2023 7:30:00 AM 12.19 53.942 0.159 7.33 6.24 9.89
5/9/2023 7:45:00 AM 12.16 53.888 0.158 7.34 6.12 9.95
5/9/2023 8:00:00 AM 12.14 53.852 0.158 7.35 5.98 10.01
5/9/2023 8:15:00 AM 12.11 53.798 0.159 7.36 5.99 10.05
5/9/2023 8:30:00 AM 12.1 53.78 0.161 7.38 5.73 10.16
5/9/2023 8:45:00 AM 12.1 53.78 0.164 7.41 5.35 10.26
5/9/2023 9:00:00 AM 12.08 53.744 0.165 7.43 5.5 10.3
5/9/2023 9:15:00 AM 12.08 53.744 0.165 7.45 5.06 10.37
5/9/2023 9:30:00 AM 12.1 53.78 0.163 7.49 6.67 10.53
5/9/2023 9:45:00 AM 12.18 53.924 0.161 7.54 8.21 10.76
5/9/2023 10:00:00 AM 12.21 53.978 0.159 7.61 5.37 10.94
5/9/2023 10:15:00 AM 12.23 54.014 0.157 7.67 5.4 11.07
5/9/2023 10:30:00 AM 12.28 54.104 0.156 7.74 5.17 11.19
5/9/2023 10:45:00 AM 12.42 54.356 0.155 7.81 6.95 11.34
5/9/2023 11:00:00 AM 12.51 54.518 0.156 7.9 5.42 11.47
5/9/2023 11:15:00 AM 12.63 54.734 0.157 7.98 5.46 11.56
5/9/2023 11:30:00 AM 12.79 55.022 0.159 8.07 5.25 11.66
5/9/2023 11:45:00 AM 12.93 55.274 0.159 8.15 5.13 11.73
5/9/2023 12:00:00 PM 13.12 55.616 0.158 8.23 5.23 11.78
5/9/2023 12:15:00 PM 13.29 55.922 0.157 8.29 5.18 11.8
5/9/2023 12:30:00 PM 13.48 56.264 0.156 8.35 5.29 11.83
5/9/2023 12:45:00 PM 13.65 56.57 0.155 8.4 4.8 11.83
5/9/2023 1:00:00 PM 13.82 56.876 0.088 8.46 7.02 11.84
5/9/2023 1:15:00 PM 14.03 57.254 0.153 8.51 6.02 11.87
5/9/2023 1:30:00 PM 14.26 57.668 0.153 8.56 7.58 11.9
5/9/2023 1:45:00 PM 14.44 57.992 0.155 8.59 5.01 11.88
5/9/2023 2:00:00 PM 14.6 58.28 0.157 8.62 5 11.85
5/9/2023 2:15:00 PM 14.77 58.586 0.159 8.64 5.22 11.81
5/9/2023 2:30:00 PM 14.94 58.892 0.159 8.66 8.68 11.76
5/9/2023 2:45:00 PM 15.11 59.198 0.159 8.68 5 11.71
5/9/2023 3:00:00 PM 15.26 59.468 0.158 8.69 5.18 11.64
5/9/2023 3:15:00 PM 15.38 59.684 0.157 8.7 8.44 11.58
5/9/2023 3:30:00 PM 15.49 59.882 0.156 8.7 5.28 11.49
5/9/2023 3:45:00 PM 15.58 60.044 0.155 8.71 8.7 11.41
5/9/2023 4:00:00 PM 15.63 60.134 0.155 8.68 5.25 11.31
5/9/2023 4:15:00 PM 15.67 60.206 0.156 8.66 5.47 11.22
5/9/2023 4:30:00 PM 15.72 60.296 0.158 8.64 8.38 11.12
5/9/2023 4:45:00 PM 15.73 60.314 0.162 8.6 7.57 11
5/9/2023 5:00:00 PM 15.73 60.314 0.164 8.56 5.27 10.88
5/9/2023 5:15:00 PM 15.75 60.35 0.165 8.53 8.02 10.8
5/9/2023 5:30:00 PM 15.75 60.35 0.165 8.48 5.32 10.69
5/9/2023 5:45:00 PM 15.74 60.332 0.165 8.43 5.47 10.57
5/9/2023 6:00:00 PM 15.73 60.314 0.165 8.38 5.02 10.45
5/9/2023 6:15:00 PM 15.7 60.26 0.164 8.31 5.55 10.32
5/9/2023 6:30:00 PM 15.68 60.224 0.163 8.23 5.53 10.19
5/9/2023 6:45:00 PM 15.65 60.17 0.163 8.16 5.4 10.07
5/9/2023 7:00:00 PM 15.62 60.116 0.162 8.08 7.12 9.95
5/9/2023 7:15:00 PM 15.59 60.062 0.166 8 8.93 9.84
5/9/2023 7:30:00 PM 15.57 60.026 0.168 7.92 9.17 9.73
5/9/2023 7:45:00 PM 15.53 59.954 0.171 7.85 9.11 9.63
5/9/2023 8:00:00 PM 15.48 59.864 0.172 7.79 6 9.52
5/9/2023 8:15:00 PM 15.44 59.792 0.171 7.74 6.32 9.43
5/9/2023 8:30:00 PM 15.39 59.702 0.169 7.68 6.92 9.34
5/9/2023 8:45:00 PM 15.34 59.612 0.168 7.63 6.69 9.27
5/9/2023 9:00:00 PM 15.27 59.486 0.166 7.6 6.67 9.23
5/9/2023 9:15:00 PM 15.21 59.378 0.16 7.57 10.2 9.19
5/9/2023 9:30:00 PM 15.13 59.234 0.164 7.54 6.65 9.16
5/9/2023 9:45:00 PM 15.04 59.072 0.164 7.52 7.09 9.13
5/9/2023 10:00:00 PM 14.94 58.892 0.166 7.5 10.42 9.12
5/9/2023 10:15:00 PM 14.85 58.73 0.166 7.48 10.25 9.11
5/9/2023 10:30:00 PM 14.75 58.55 0.17 7.46 6.6 9.1
5/9/2023 10:45:00 PM 14.65 58.37 0.171 7.45 9.29 9.1
5/9/2023 11:00:00 PM 14.56 58.208 0.171 7.44 6.57 9.11
5/9/2023 11:15:00 PM 14.45 58.01 0.17 7.42 7.64 9.12
5/9/2023 11:30:00 PM 14.35 57.83 0.168 7.41 10.7 9.15
5/9/2023 11:45:00 PM 14.23 57.614 0.167 7.4 6.79 9.16
5/10/2023 12:00:00 AM 14.11 57.398 0.166 7.39 6.86 9.19
5/10/2023 12:15:00 AM 13.99 57.182 0.165 7.38 8.32 9.21
5/10/2023 12:30:00 AM 13.86 56.948 0.165 7.37 7.47 9.24
5/10/2023 12:45:00 AM 13.74 56.732 0.167 7.37 8.52 9.27
5/10/2023 1:00:00 AM 13.62 56.516 0.091 7.37 8.76 9.3
5/10/2023 1:15:00 AM 13.5 56.3 0.172 7.36 10.33 9.32
5/10/2023 1:30:00 AM 13.37 56.066 0.173 7.36 6.77 9.35
5/10/2023 1:45:00 AM 13.26 55.868 0.173 7.35 6.83 9.38
5/10/2023 2:00:00 AM 13.15 55.67 0.171 7.35 9.25 9.4
5/10/2023 2:15:00 AM 13.04 55.472 0.169 7.34 6.7 9.44
5/10/2023 2:30:00 AM 12.93 55.274 0.168 7.34 6.8 9.47
5/10/2023 2:45:00 AM 12.82 55.076 0.166 7.34 6.84 9.5
5/10/2023 3:00:00 AM 12.7 54.86 0.166 7.33 6.62 9.54
5/10/2023 3:15:00 AM 12.59 54.662 0.166 7.33 9.72 9.56
5/10/2023 3:30:00 AM 12.47 54.446 0.169 7.32 10.16 9.59
5/10/2023 3:45:00 AM 12.36 54.248 0.172 7.32 6.47 9.62
5/10/2023 4:00:00 AM 12.24 54.032 0.175 7.32 6.33 9.65
5/10/2023 4:15:00 AM 12.14 53.852 0.169 7.32 11.17 9.67
5/10/2023 4:30:00 AM 12.03 53.654 0.176 7.32 6.08 9.7
5/10/2023 4:45:00 AM 11.92 53.456 0.174 7.32 6.82 9.73
5/10/2023 5:00:00 AM 11.81 53.258 0.172 7.31 6.23 9.77
5/10/2023 5:15:00 AM 11.7 53.06 0.17 7.31 5.92 9.8
5/10/2023 5:30:00 AM 11.59 52.862 0.169 7.31 6.33 9.83
5/10/2023 5:45:00 AM 11.48 52.664 0.168 7.31 6.17 9.86
5/10/2023 6:00:00 AM 11.37 52.466 0.168 7.3 5.93 9.89
5/10/2023 6:15:00 AM 11.27 52.286 0.17 7.3 6.82 9.93
5/10/2023 6:30:00 AM 11.18 52.124 0.173 7.31 7.54 9.98
5/10/2023 6:45:00 AM 11.09 51.962 0.175 7.31 5.25 10.04
5/10/2023 7:00:00 AM 11.02 51.836 0.176 7.32 5.41 10.12
5/10/2023 7:15:00 AM 10.95 51.71 0.175 7.34 5.41 10.23
5/10/2023 7:30:00 AM 10.89 51.602 0.174 7.36 5.03 10.34
5/10/2023 7:45:00 AM 10.84 51.512 0.172 7.38 8.45 10.48
5/10/2023 8:00:00 AM 10.79 51.422 0.17 7.41 5.04 10.62
5/10/2023 8:15:00 AM 10.77 51.386 0.169 7.44 4.81 10.78
5/10/2023 8:30:00 AM 10.77 51.386 0.168 7.48 4.56 10.95
5/10/2023 8:45:00 AM 10.77 51.386 0.168 7.52 4.52 11.1
5/10/2023 9:00:00 AM 10.79 51.422 0.17 7.57 4.42 11.24
5/10/2023 9:15:00 AM 10.83 51.494 0.172 7.62 4.61 11.39
5/10/2023 9:30:00 AM 10.89 51.602 0.174 7.68 4.29 11.53
5/10/2023 9:45:00 AM 10.97 51.746 0.175 7.74 4.18 11.65
5/10/2023 10:00:00 AM 11.07 51.926 0.174 7.81 4.19 11.78
5/10/2023 10:15:00 AM 11.2 52.16 0.172 7.89 4.21 11.88
5/10/2023 10:30:00 AM 11.33 52.394 0.169 7.96 4.34 11.97
5/10/2023 10:45:00 AM 11.46 52.628 0.167 8.04 7.63 12.05
5/10/2023 11:00:00 AM 11.6 52.88 0.165 8.11 4.15 12.1
5/10/2023 11:15:00 AM 11.77 53.186 0.164 8.17 4.42 12.16
5/10/2023 11:30:00 AM 11.92 53.456 0.164 8.24 4.49 12.2
5/10/2023 11:45:00 AM 12.1 53.78 0.165 8.3 4.22 12.24
5/10/2023 12:00:00 PM 12.28 54.104 0.167 8.35 4.23 12.26
5/10/2023 12:15:00 PM 12.46 54.428 0.146 8.41 7.23 12.29
5/10/2023 12:30:00 PM 12.65 54.77 0.169 8.45 4.66 12.3
5/10/2023 12:45:00 PM 12.85 55.13 0.168 8.5 4.37 12.28
5/10/2023 1:00:00 PM 13.07 55.526 0.158 8.54 8.38 12.27
5/10/2023 1:15:00 PM 13.25 55.85 0.165 8.58 4.34 12.25
5/10/2023 1:30:00 PM 13.45 56.21 0.163 8.61 4.19 12.22
5/10/2023 1:45:00 PM 13.66 56.588 0.162 8.65 7.13 12.18
5/10/2023 2:00:00 PM 13.87 56.966 0.162 8.67 8.03 12.16
5/10/2023 2:15:00 PM 14.06 57.308 0.161 8.69 6.86 12.12
5/10/2023 2:30:00 PM 14.24 57.632 0.164 8.71 4.5 12.08
5/10/2023 2:45:00 PM 14.41 57.938 0.166 8.73 4.95 12.04
5/10/2023 3:00:00 PM 14.57 58.226 0.168 8.74 4.59 11.98
5/10/2023 3:15:00 PM 14.71 58.478 0.168 8.75 4.28 11.93
5/10/2023 3:30:00 PM 14.84 58.712 0.167 8.77 4.48 11.86
5/10/2023 3:45:00 PM 14.94 58.892 0.166 8.77 4.38 11.77
5/10/2023 4:00:00 PM 15 59 0.165 8.77 4.69 11.69
5/10/2023 4:15:00 PM 15.06 59.108 0.094 8.76 6.11 11.57
5/10/2023 4:30:00 PM 15.07 59.126 0.163 8.74 4.64 11.44
5/10/2023 4:45:00 PM 15.05 59.09 0.164 8.7 4.37 11.29
5/10/2023 5:00:00 PM 15.06 59.108 0.165 8.67 4.58 11.19
5/10/2023 5:15:00 PM 15.08 59.144 0.168 8.63 4.62 11.08
5/10/2023 5:30:00 PM 15.1 59.18 0.17 8.6 4.71 10.99
5/10/2023 5:45:00 PM 15.11 59.198 0.172 8.56 4.55 10.89
5/10/2023 6:00:00 PM 15.12 59.216 0.173 8.52 4.63 10.78
5/10/2023 6:15:00 PM 15.11 59.198 0.172 8.47 4.89 10.65
5/10/2023 6:30:00 PM 15.08 59.144 0.171 8.41 4.89 10.5
5/10/2023 6:45:00 PM 15.07 59.126 0.17 8.33 5.11 10.37
5/10/2023 7:00:00 PM 15.06 59.108 0.169 8.25 4.86 10.23
5/10/2023 7:15:00 PM 15.04 59.072 0.169 8.17 4.87 10.12
5/10/2023 7:30:00 PM 15.02 59.036 0.162 8.08 8.45 9.99
5/10/2023 7:45:00 PM 14.99 58.982 0.171 8 5.21 9.86
5/10/2023 8:00:00 PM 14.96 58.928 0.168 7.92 7.95 9.74
5/10/2023 8:15:00 PM 14.93 58.874 0.177 7.84 6.67 9.62
5/10/2023 8:30:00 PM 14.9 58.82 0.179 7.77 5.32 9.53
5/10/2023 8:45:00 PM 14.86 58.748 0.18 7.72 5.85 9.43
5/10/2023 9:00:00 PM 14.82 58.676 0.18 7.67 5.67 9.36
5/10/2023 9:15:00 PM 14.78 58.604 0.178 7.63 5.79 9.3
5/10/2023 9:30:00 PM 14.73 58.514 0.118 7.59 8.63 9.25
5/10/2023 9:45:00 PM 14.66 58.388 0.174 7.56 6.21 9.23
5/10/2023 10:00:00 PM 14.59 58.262 0.173 7.53 9.57 9.2
5/10/2023 10:15:00 PM 14.52 58.136 0.172 7.51 8.38 9.18
5/10/2023 10:30:00 PM 14.44 57.992 0.174 7.49 6.01 9.17
5/10/2023 10:45:00 PM 14.36 57.848 0.177 7.47 6.28 9.16
5/10/2023 11:00:00 PM 14.28 57.704 0.18 7.46 9.76 9.15
5/10/2023 11:15:00 PM 14.2 57.56 0.183 7.45 6.36 9.16
5/10/2023 11:30:00 PM 14.12 57.416 0.183 7.44 8.17 9.16
5/10/2023 11:45:00 PM 14.03 57.254 0.182 7.43 6.39 9.18
5/11/2023 12:00:00 AM 13.94 57.092 0.18 7.42 6.13 9.19
5/11/2023 12:15:00 AM 13.84 56.912 0.176 7.41 8.86 9.21
5/11/2023 12:30:00 AM 13.74 56.732 0.175 7.4 10.61 9.24
5/11/2023 12:45:00 AM 13.64 56.552 0.153 7.39 8.65 9.26
5/11/2023 1:00:00 AM 13.54 56.372 0.174 7.38 5.91 9.27
5/11/2023 1:15:00 AM 13.44 56.192 0.176 7.37 6.29 9.3
5/11/2023 1:30:00 AM 13.34 56.012 0.178 7.37 5.89 9.32
5/11/2023 1:45:00 AM 13.24 55.832 0.181 7.36 5.87 9.34
5/11/2023 2:00:00 AM 13.15 55.67 0.183 7.36 7.17 9.36
5/11/2023 2:15:00 AM 13.04 55.472 0.184 7.36 5.97 9.38
5/11/2023 2:30:00 AM 12.95 55.31 0.182 7.35 5.85 9.41
5/11/2023 2:45:00 AM 12.84 55.112 0.18 7.35 9.18 9.44
5/11/2023 3:00:00 AM 12.74 54.932 0.178 7.34 9.16 9.47
5/11/2023 3:15:00 AM 12.63 54.734 0.177 7.34 5.94 9.49
5/11/2023 3:30:00 AM 12.53 54.554 0.176 7.33 5.81 9.52
5/11/2023 3:45:00 AM 12.43 54.374 0.176 7.33 5.78 9.55
5/11/2023 4:00:00 AM 12.32 54.176 0.177 7.33 5.75 9.58
5/11/2023 4:15:00 AM 12.23 54.014 0.18 7.33 5.64 9.59
5/11/2023 4:30:00 AM 12.13 53.834 0.182 7.33 5.76 9.62
5/11/2023 4:45:00 AM 12.04 53.672 0.183 7.32 5.46 9.64
5/11/2023 5:00:00 AM 11.95 53.51 0.183 7.32 5.69 9.67
5/11/2023 5:15:00 AM 11.86 53.348 0.182 7.32 5.66 9.69
5/11/2023 5:30:00 AM 11.76 53.168 0.18 7.32 5.57 9.72
5/11/2023 5:45:00 AM 11.67 53.006 0.179 7.31 7.2 9.75
5/11/2023 6:00:00 AM 11.58 52.844 0.178 7.31 7.8 9.78
5/11/2023 6:15:00 AM 11.49 52.682 0.177 7.31 5.61 9.82
5/11/2023 6:30:00 AM 11.41 52.538 0.178 7.32 5.12 9.87
5/11/2023 6:45:00 AM 11.34 52.412 0.179 7.32 5.53 9.94
5/11/2023 7:00:00 AM 11.27 52.286 0.181 7.33 5.24 10.01
5/11/2023 7:15:00 AM 11.21 52.178 0.184 7.35 4.66 10.1
5/11/2023 7:30:00 AM 11.17 52.106 0.185 7.37 4.77 10.19
5/11/2023 7:45:00 AM 11.14 52.052 0.185 7.39 4.69 10.31
5/11/2023 8:00:00 AM 11.13 52.034 0.184 7.41 4.55 10.43
5/11/2023 8:15:00 AM 11.13 52.034 0.182 7.44 4.43 10.58
5/11/2023 8:30:00 AM 11.16 52.088 0.18 7.47 4.79 10.73
5/11/2023 8:45:00 AM 11.2 52.16 0.179 7.52 7.45 10.88
5/11/2023 9:00:00 AM 11.25 52.25 0.178 7.56 4.25 11.03
5/11/2023 9:15:00 AM 11.31 52.358 0.178 7.6 3.84 11.16
5/11/2023 9:30:00 AM 11.41 52.538 0.179 7.66 7.32 11.29
5/11/2023 9:45:00 AM 11.51 52.718 0.181 7.71 3.73 11.41
5/11/2023 10:00:00 AM 11.66 52.988 0.183 7.78 4.24 11.53
5/11/2023 10:15:00 AM 11.81 53.258 0.183 7.85 3.66 11.64
5/11/2023 10:30:00 AM 11.97 53.546 0.183 7.92 4.06 11.74
5/11/2023 10:45:00 AM 12.12 53.816 0.181 8 4.37 11.84
5/11/2023 11:00:00 AM 12.28 54.104 0.179 8.07 3.89 11.9
5/11/2023 11:15:00 AM 12.45 54.41 0.177 8.15 3.95 11.98
5/11/2023 11:30:00 AM 12.64 54.752 0.175 8.22 4.95 12.04
5/11/2023 11:45:00 AM 12.83 55.094 0.175 8.28 4.03 12.07
5/11/2023 12:00:00 PM 13.02 55.436 0.175 8.35 7.57 12.12
5/11/2023 12:15:00 PM 13.21 55.778 0.175 8.41 4.4 12.15
5/11/2023 12:30:00 PM 13.42 56.156 0.177 8.46 4.23 12.16
5/11/2023 12:45:00 PM 13.62 56.516 0.178 8.52 4.09 12.18
5/11/2023 1:00:00 PM 13.83 56.894 0.178 8.57 3.98 12.2
5/11/2023 1:15:00 PM 14.03 57.254 0.177 8.61 4.9 12.18
5/11/2023 1:30:00 PM 14.24 57.632 0.176 8.65 7.71 12.17
5/11/2023 1:45:00 PM 14.45 58.01 0.174 8.69 4.12 12.12
5/11/2023 2:00:00 PM 14.66 58.388 0.173 8.72 3.93 12.08
5/11/2023 2:15:00 PM 14.87 58.766 0.172 8.75 6.45 12.04
5/11/2023 2:30:00 PM 15.06 59.108 0.172 8.77 4.01 12.01
5/11/2023 2:45:00 PM 15.24 59.432 0.172 8.79 4.26 11.95
5/11/2023 3:00:00 PM 15.4 59.72 0.174 8.8 7.85 11.89
5/11/2023 3:15:00 PM 15.54 59.972 0.174 8.81 6.57 11.81
5/11/2023 3:30:00 PM 15.66 60.188 0.177 8.82 4.21 11.75
5/11/2023 3:45:00 PM 15.78 60.404 0.177 8.82 4.43 11.66
5/11/2023 4:00:00 PM 15.87 60.566 0.176 8.81 4.51 11.54
5/11/2023 4:15:00 PM 15.94 60.692 0.175 8.8 4.59 11.42
5/11/2023 4:30:00 PM 16.01 60.818 0.173 8.78 4.54 11.28
5/11/2023 4:45:00 PM 16.04 60.872 0.172 8.76 5.82 11.13
5/11/2023 5:00:00 PM 16.09 60.962 0.172 8.72 4.12 10.99
5/11/2023 5:15:00 PM 16.11 60.998 0.173 8.68 7.36 10.84
5/11/2023 5:30:00 PM 16.13 61.034 0.175 8.63 4.17 10.7
5/11/2023 5:45:00 PM 16.13 61.034 0.178 8.57 4.26 10.55
5/11/2023 6:00:00 PM 16.14 61.052 0.181 8.52 8.18 10.42
5/11/2023 6:15:00 PM 16.15 61.07 0.184 8.45 5.42 10.28
5/11/2023 6:30:00 PM 16.15 61.07 0.185 8.38 4.48 10.14
5/11/2023 6:45:00 PM 16.15 61.07 0.184 8.31 5.92 10
5/11/2023 7:00:00 PM 16.14 61.052 0.182 8.23 4.36 9.87
5/11/2023 7:15:00 PM 16.12 61.016 0.181 8.15 4.67 9.73
5/11/2023 7:30:00 PM 16.1 60.98 0.18 8.06 4.46 9.61
5/11/2023 7:45:00 PM 16.08 60.944 0.18 7.98 5.69 9.49
5/11/2023 8:00:00 PM 16.05 60.89 0.18 7.9 4.84 9.37
5/11/2023 8:15:00 PM 16.02 60.836 0.182 7.82 5.17 9.26
5/11/2023 8:30:00 PM 15.98 60.764 0.186 7.76 7.71 9.16
5/11/2023 8:45:00 PM 15.95 60.71 0.189 7.7 6.55 9.07
5/11/2023 9:00:00 PM 15.92 60.656 0.192 7.66 8.04 9.01
5/11/2023 9:15:00 PM 15.88 60.584 0.193 7.62 5.48 8.95
5/11/2023 9:30:00 PM 15.84 60.512 0.192 7.58 5.03 8.9
5/11/2023 9:45:00 PM 15.79 60.422 0.189 7.55 5.86 8.87
5/11/2023 10:00:00 PM 15.74 60.332 0.187 7.52 5.82 8.84
5/11/2023 10:15:00 PM 15.68 60.224 0.185 7.5 5.33 8.81
5/11/2023 10:30:00 PM 15.61 60.098 0.184 7.47 5.54 8.78
5/11/2023 10:45:00 PM 15.55 59.99 0.184 7.45 5.78 8.79
5/11/2023 11:00:00 PM 15.48 59.864 0.1 7.44 6.96 8.77
5/11/2023 11:15:00 PM 15.4 59.72 0.188 7.42 5.81 8.77
5/11/2023 11:30:00 PM 15.32 59.576 0.191 7.41 5.55 8.77
5/11/2023 11:45:00 PM 15.25 59.45 0.193 7.41 5.9 8.78
5/12/2023 12:00:00 AM 15.16 59.288 0.194 7.4 9.07 8.79
5/12/2023 12:15:00 AM 15.08 59.144 0.192 7.39 5.63 8.81
5/12/2023 12:30:00 AM 14.98 58.964 0.19 7.38 9.17 8.83
5/12/2023 12:45:00 AM 14.88 58.784 0.188 7.37 5.59 8.84
5/12/2023 1:00:00 AM 14.78 58.604 0.186 7.36 5.46 8.87
5/12/2023 1:15:00 AM 14.68 58.424 0.185 7.36 5.53 8.89
5/12/2023 1:30:00 AM 14.57 58.226 0.185 7.35 5.23 8.92
5/12/2023 1:45:00 AM 14.47 58.046 0.187 7.35 5.87 8.95
5/12/2023 2:00:00 AM 14.36 57.848 0.158 7.35 8.02 8.97
5/12/2023 2:15:00 AM 14.26 57.668 0.192 7.34 5.4 8.98
5/12/2023 2:30:00 AM 14.16 57.488 0.194 7.35 9.46 9.01
5/12/2023 2:45:00 AM 14.06 57.308 0.195 7.34 9.55 9.02
5/12/2023 3:00:00 AM 13.95 57.11 0.193 7.34 5.48 9.06
5/12/2023 3:15:00 AM 13.85 56.93 0.191 7.34 5.62 9.09
5/12/2023 3:30:00 AM 13.74 56.732 0.189 7.33 5.22 9.13
5/12/2023 3:45:00 AM 13.63 56.534 0.111 7.33 6.91 9.15
5/12/2023 4:00:00 AM 13.52 56.336 0.186 7.32 6.89 9.18
5/12/2023 4:15:00 AM 13.41 56.138 0.187 7.32 5.07 9.22
5/12/2023 4:30:00 AM 13.31 55.958 0.189 7.32 8.93 9.24
5/12/2023 4:45:00 AM 13.22 55.796 0.191 7.32 8.76 9.26
5/12/2023 5:00:00 AM 13.13 55.634 0.194 7.32 5.46 9.28
5/12/2023 5:15:00 AM 13.04 55.472 0.196 7.32 4.99 9.3
5/12/2023 5:30:00 AM 12.95 55.31 0.195 7.32 5.01 9.32
5/12/2023 5:45:00 AM 12.85 55.13 0.194 7.31 5.45 9.36
5/12/2023 6:00:00 AM 12.77 54.986 0.191 7.31 8.93 9.39
5/12/2023 6:15:00 AM 12.67 54.806 0.189 7.31 5.38 9.44
5/12/2023 6:30:00 AM 12.59 54.662 0.188 7.32 5.13 9.5
5/12/2023 6:45:00 AM 12.52 54.536 0.186 7.32 9.24 9.56
5/12/2023 7:00:00 AM 12.46 54.428 0.187 7.33 10.64 9.66
5/12/2023 7:15:00 AM 12.41 54.338 0.188 7.34 5.89 9.75
5/12/2023 7:30:00 AM 12.37 54.266 0.19 7.36 7.17 9.83
5/12/2023 7:45:00 AM 12.34 54.212 0.193 7.39 7.9 9.94
5/12/2023 8:00:00 AM 12.32 54.176 0.194 7.41 4.42 10.05
5/12/2023 8:15:00 AM 12.31 54.158 0.193 7.43 5.55 10.15
5/12/2023 8:30:00 AM 12.32 54.176 0.192 7.46 4.31 10.29
5/12/2023 8:45:00 AM 12.35 54.23 0.19 7.49 3.98 10.43
5/12/2023 9:00:00 AM 12.41 54.338 0.188 7.53 7.79 10.59
5/12/2023 9:15:00 AM 12.49 54.482 0.186 7.57 3.92 10.74
5/12/2023 9:30:00 AM 12.59 54.662 0.186 7.62 4.14 10.9
5/12/2023 9:45:00 AM 12.7 54.86 0.186 7.68 7.6 11.03
5/12/2023 10:00:00 AM 12.83 55.094 0.189 7.74 3.83 11.17
5/12/2023 10:15:00 AM 12.98 55.364 0.191 7.81 3.68 11.3
5/12/2023 10:30:00 AM 13.14 55.652 0.195 7.88 3.6 11.39
5/12/2023 10:45:00 AM 13.31 55.958 0.196 7.96 3.7 11.5
5/12/2023 11:00:00 AM 13.49 56.282 0.195 8.04 3.82 11.59
5/12/2023 11:15:00 AM 13.66 56.588 0.193 8.11 3.68 11.65
5/12/2023 11:30:00 AM 13.86 56.948 0.19 8.18 3.8 11.72
5/12/2023 11:45:00 AM 14.04 57.272 0.188 8.25 4.12 11.75
5/12/2023 12:00:00 PM 14.23 57.614 0.185 8.31 4.11 11.79
5/12/2023 12:15:00 PM 14.37 57.866 0.184 8.37 4.09 11.83
5/12/2023 12:30:00 PM 14.55 58.19 0.184 8.43 3.92 11.86
5/12/2023 12:45:00 PM 14.74 58.532 0.185 8.48 3.67 11.88
5/12/2023 1:00:00 PM 14.95 58.91 0.186 8.54 4.03 11.89
5/12/2023 1:15:00 PM 15.17 59.306 0.187 8.59 3.91 11.93
5/12/2023 1:30:00 PM 15.37 59.666 0.185 8.64 5.17 11.91
5/12/2023 1:45:00 PM 15.54 59.972 0.185 8.68 4.26 11.89
5/12/2023 2:00:00 PM 15.73 60.314 0.183 8.71 4.29 11.84
5/12/2023 2:15:00 PM 15.93 60.674 0.182 8.75 3.54 11.83
5/12/2023 2:30:00 PM 16.13 61.034 0.18 8.78 7.7 11.78
5/12/2023 2:45:00 PM 16.27 61.286 0.18 8.8 7.17 11.73
5/12/2023 3:00:00 PM 16.44 61.592 0.18 8.82 3.83 11.7
5/12/2023 3:15:00 PM 16.63 61.934 0.18 8.84 6.3 11.65
5/12/2023 3:30:00 PM 16.76 62.168 0.181 8.85 7.92 11.59
5/12/2023 3:45:00 PM 16.86 62.348 0.184 8.85 7.7 11.51
5/12/2023 4:00:00 PM 16.94 62.492 0.185 8.85 3.78 11.41
5/12/2023 4:15:00 PM 17 62.6 0.185 8.85 3.91 11.3
5/12/2023 4:30:00 PM 17.04 62.672 0.184 8.83 3.88 11.13
5/12/2023 4:45:00 PM 17.05 62.69 0.182 8.81 3.92 10.98
5/12/2023 5:00:00 PM 17.08 62.744 0.181 8.78 4 10.83
5/12/2023 5:15:00 PM 17.11 62.798 0.18 8.75 3.78 10.69
5/12/2023 5:30:00 PM 17.11 62.798 0.18 8.71 3.89 10.52
5/12/2023 5:45:00 PM 17.11 62.798 0.181 8.66 7.44 10.38
5/12/2023 6:00:00 PM 17.11 62.798 0.183 8.6 4.03 10.25
5/12/2023 6:15:00 PM 17.09 62.762 0.186 8.54 4.22 10.09
5/12/2023 6:30:00 PM 17.07 62.726 0.19 8.47 4.12 9.93
5/12/2023 6:45:00 PM 17.09 62.762 0.191 8.41 4.11 9.86
5/12/2023 7:00:00 PM 17.1 62.78 0.191 8.35 4.14 9.76
5/12/2023 7:15:00 PM 17.06 62.708 0.19 8.27 4.28 9.6
5/12/2023 7:30:00 PM 17.04 62.672 0.189 8.17 4.14 9.45
5/12/2023 7:45:00 PM 17.02 62.636 0.188 8.08 4.43 9.31
5/12/2023 8:00:00 PM 16.99 62.582 0.187 7.99 8.08 9.17
5/12/2023 8:15:00 PM 16.96 62.528 0.188 7.89 7.83 9.03
5/12/2023 8:30:00 PM 16.93 62.474 0.189 7.81 9.66 8.92
5/12/2023 8:45:00 PM 16.91 62.438 0.191 7.74 6.96 8.84
5/12/2023 9:00:00 PM 16.89 62.402 0.195 7.69 4.62 8.75
5/12/2023 9:15:00 PM 16.87 62.366 0.199 7.64 8.91 8.69
5/12/2023 9:30:00 PM 16.84 62.312 0.201 7.6 5.03 8.63
5/12/2023 9:45:00 PM 16.81 62.258 0.201 7.57 5.05 8.59
5/12/2023 10:00:00 PM 16.77 62.186 0.2 7.54 5.64 8.55
5/12/2023 10:15:00 PM 16.73 62.114 0.197 7.51 5.03 8.51
5/12/2023 10:30:00 PM 16.69 62.042 0.195 7.49 7.4 8.48
5/12/2023 10:45:00 PM 16.65 61.97 0.193 7.46 5.1 8.47
5/12/2023 11:00:00 PM 16.61 61.898 0.193 7.44 4.87 8.46
5/12/2023 11:15:00 PM 16.56 61.808 0.193 7.43 8.83 8.44
5/12/2023 11:30:00 PM 16.52 61.736 0.194 7.41 8.74 8.44
5/12/2023 11:45:00 PM 16.48 61.664 0.197 7.4 8.11 8.43
5/13/2023 12:00:00 AM 16.43 61.574 0.2 7.4 5.19 8.42
5/13/2023 12:15:00 AM 16.38 61.484 0.201 7.39 8.42 8.43
5/13/2023 12:30:00 AM 16.33 61.394 0.198 7.38 8.08 8.44
5/13/2023 12:45:00 AM 16.27 61.286 0.2 7.38 5.45 8.45
5/13/2023 1:00:00 AM 16.21 61.178 0.198 7.37 5.41 8.46
5/13/2023 1:15:00 AM 16.14 61.052 0.178 7.36 7.96 8.48
5/13/2023 1:30:00 AM 16.08 60.944 0.194 7.36 5.29 8.49
5/13/2023 1:45:00 AM 16.01 60.818 0.193 7.35 5.75 8.51
5/13/2023 2:00:00 AM 15.95 60.71 0.193 7.35 5.1 8.52
5/13/2023 2:15:00 AM 15.89 60.602 0.195 7.34 5.87 8.53
5/13/2023 2:30:00 AM 15.82 60.476 0.184 7.34 7.87 8.55
5/13/2023 2:45:00 AM 15.76 60.368 0.201 7.34 5.24 8.56
5/13/2023 3:00:00 AM 15.7 60.26 0.195 7.34 9.39 8.58
5/13/2023 3:15:00 AM 15.63 60.134 0.202 7.34 5.27 8.6
5/13/2023 3:30:00 AM 15.56 60.008 0.2 7.33 6.43 8.62
5/13/2023 3:45:00 AM 15.48 59.864 0.195 7.33 9.57 8.64
5/13/2023 4:00:00 AM 15.41 59.738 0.197 7.32 4.99 8.66
5/13/2023 4:15:00 AM 15.34 59.612 0.187 7.32 7.88 8.68
5/13/2023 4:30:00 AM 15.27 59.486 0.194 7.32 6.05 8.7
5/13/2023 4:45:00 AM 15.21 59.378 0.195 7.31 4.93 8.72
5/13/2023 5:00:00 AM 15.14 59.252 0.197 7.31 5.05 8.72
5/13/2023 5:15:00 AM 15.09 59.162 0.199 7.31 7.62 8.74
5/13/2023 5:30:00 AM 15.03 59.054 0.202 7.31 5.18 8.75
5/13/2023 5:45:00 AM 14.97 58.946 0.203 7.32 7.48 8.77
5/13/2023 6:00:00 AM 14.92 58.856 0.202 7.32 9.4 8.79
5/13/2023 6:15:00 AM 14.86 58.748 0.2 7.32 8.83 8.81
5/13/2023 6:30:00 AM 14.8 58.64 0.198 7.31 5.39 8.85
5/13/2023 6:45:00 AM 14.75 58.55 0.197 7.32 5.59 8.89
5/13/2023 7:00:00 AM 14.7 58.46 0.195 7.32 4.92 8.95
5/13/2023 7:15:00 AM 14.66 58.388 0.194 7.33 4.93 9.03
5/13/2023 7:30:00 AM 14.63 58.334 0.194 7.34 7.62 9.08
5/13/2023 7:45:00 AM 14.59 58.262 0.196 7.35 7.94 9.11
5/13/2023 8:00:00 AM 14.56 58.208 0.199 7.35 4.87 9.13
5/13/2023 8:15:00 AM 14.55 58.19 0.2 7.36 5.42 9.24
5/13/2023 8:30:00 AM 14.53 58.154 0.2 7.38 7.86 9.34
5/13/2023 8:45:00 AM 14.51 58.118 0.199 7.4 4.56 9.39
5/13/2023 9:00:00 AM 14.49 58.082 0.192 7.41 6.94 9.45
5/13/2023 9:15:00 AM 14.47 58.046 0.196 7.42 7.85 9.53
5/13/2023 9:30:00 AM 14.46 58.028 0.195 7.44 7.54 9.61
5/13/2023 9:45:00 AM 14.47 58.046 0.194 7.47 4.14 9.77
5/13/2023 10:00:00 AM 14.49 58.082 0.193 7.51 4.23 9.95
5/13/2023 10:15:00 AM 14.51 58.118 0.195 7.55 3.97 10.07
5/13/2023 10:30:00 AM 14.52 58.136 0.198 7.59 4.14 10.14
5/13/2023 10:45:00 AM 14.52 58.136 0.202 7.62 7.12 10.18
5/13/2023 11:00:00 AM 14.53 58.154 0.204 7.65 3.83 10.24
5/13/2023 11:15:00 AM 14.54 58.172 0.205 7.67 3.84 10.26
5/13/2023 11:30:00 AM 14.54 58.172 0.204 7.69 4.44 10.29
5/13/2023 11:45:00 AM 14.55 58.19 0.202 7.72 7 10.34
5/13/2023 12:00:00 PM 14.54 58.172 0.198 7.74 5.07 10.34
5/13/2023 12:15:00 PM 14.52 58.136 0.197 7.74 4.2 10.32
5/13/2023 12:30:00 PM 14.51 58.118 0.108 7.75 5.55 10.31
5/13/2023 12:45:00 PM 14.51 58.118 0.193 7.76 4.03 10.33
5/13/2023 1:00:00 PM 14.51 58.118 0.193 7.79 7.14 10.35
5/13/2023 1:15:00 PM 14.5 58.1 0.195 7.8 4.49 10.36
5/13/2023 1:30:00 PM 14.5 58.1 0.196 7.8 4.17 10.34
5/13/2023 1:45:00 PM 14.49 58.082 0.196 7.8 7.76 10.29
5/13/2023 2:00:00 PM 14.47 58.046 0.196 7.79 4.42 10.23
5/13/2023 2:15:00 PM 14.46 58.028 0.194 7.78 4.61 10.22
5/13/2023 2:30:00 PM 14.46 58.028 0.192 7.79 4.32 10.26
5/13/2023 2:45:00 PM 14.46 58.028 0.19 7.81 4.28 10.28
5/13/2023 3:00:00 PM 14.45 58.01 0.189 7.81 4.42 10.27
5/13/2023 3:15:00 PM 14.45 58.01 0.188 7.82 6.7 10.27
5/13/2023 3:30:00 PM 14.44 57.992 0.188 7.82 7.47 10.27
5/13/2023 3:45:00 PM 14.45 58.01 0.19 7.83 4.62 10.3
5/13/2023 4:00:00 PM 14.46 58.028 0.192 7.85 4.56 10.33
5/13/2023 4:15:00 PM 14.46 58.028 0.194 7.85 4.51 10.31
5/13/2023 4:30:00 PM 14.46 58.028 0.191 7.86 6.81 10.3
5/13/2023 4:45:00 PM 14.46 58.028 0.193 7.86 4.4 10.29
5/13/2023 5:00:00 PM 14.47 58.046 0.192 7.86 4.34 10.3
5/13/2023 5:15:00 PM 14.48 58.064 0.187 7.87 7.68 10.3
5/13/2023 5:30:00 PM 14.49 58.082 0.189 7.87 4.42 10.32
5/13/2023 5:45:00 PM 14.52 58.136 0.188 7.89 4.4 10.36
5/13/2023 6:00:00 PM 14.53 58.154 0.188 7.89 4.48 10.35
5/13/2023 6:15:00 PM 14.54 58.172 0.189 7.88 4.72 10.3
5/13/2023 6:30:00 PM 14.53 58.154 0.19 7.86 4.34 10.21
5/13/2023 6:45:00 PM 14.51 58.118 0.192 7.84 4.68 10.13
5/13/2023 7:00:00 PM 14.5 58.1 0.193 7.81 5.06 10.04
5/13/2023 7:15:00 PM 14.48 58.064 0.193 7.77 7.98 9.93
5/13/2023 7:30:00 PM 14.45 58.01 0.192 7.73 7.87 9.83
5/13/2023 7:45:00 PM 14.43 57.974 0.191 7.7 4.76 9.79
5/13/2023 8:00:00 PM 14.41 57.938 0.19 7.67 4.74 9.74
5/13/2023 8:15:00 PM 14.39 57.902 0.189 7.65 5.11 9.68
5/13/2023 8:30:00 PM 14.35 57.83 0.189 7.62 4.99 9.61
5/13/2023 8:45:00 PM 14.32 57.776 0.191 7.59 5.46 9.55
5/13/2023 9:00:00 PM 14.28 57.704 0.194 7.56 8.82 9.49
5/13/2023 9:15:00 PM 14.24 57.632 0.197 7.54 5.73 9.45
5/13/2023 9:30:00 PM 14.2 57.56 0.199 7.52 6.69 9.41
5/13/2023 9:45:00 PM 14.16 57.488 0.2 7.51 5.76 9.38
5/13/2023 10:00:00 PM 14.13 57.434 0.2 7.49 5.43 9.34
5/13/2023 10:15:00 PM 14.1 57.38 0.2 7.48 6.05 9.32
5/13/2023 10:30:00 PM 14.07 57.326 0.2 7.47 5.68 9.3
5/13/2023 10:45:00 PM 14.03 57.254 0.2 7.46 5.17 9.28
5/13/2023 11:00:00 PM 14 57.2 0.201 7.45 5.46 9.28
5/13/2023 11:15:00 PM 13.97 57.146 0.202 7.44 5.12 9.26
5/13/2023 11:30:00 PM 13.93 57.074 0.205 7.44 8.43 9.26
5/13/2023 11:45:00 PM 13.9 57.02 0.208 7.43 8.96 9.26
5/14/2023 12:00:00 AM 13.87 56.966 0.21 7.43 9.33 9.25
5/14/2023 12:15:00 AM 13.84 56.912 0.21 7.42 5.24 9.26
5/14/2023 12:30:00 AM 13.81 56.858 0.209 7.41 5.35 9.26
5/14/2023 12:45:00 AM 13.77 56.786 0.153 7.41 7.59 9.27
5/14/2023 1:00:00 AM 13.73 56.714 0.205 7.4 5.59 9.26
5/14/2023 1:15:00 AM 13.69 56.642 0.204 7.39 5.61 9.29
5/14/2023 1:30:00 AM 13.65 56.57 0.203 7.39 5.5 9.28
5/14/2023 1:45:00 AM 13.61 56.498 0.203 7.38 5 9.3
5/14/2023 2:00:00 AM 13.57 56.426 0.204 7.38 9.32 9.3
5/14/2023 2:15:00 AM 13.53 56.354 0.206 7.37 7.28 9.31
5/14/2023 2:30:00 AM 13.49 56.282 0.211 7.37 4.99 9.31
5/14/2023 2:45:00 AM 13.46 56.228 0.214 7.36 5.15 9.32
5/14/2023 3:00:00 AM 13.44 56.192 0.216 7.36 5.29 9.32
5/14/2023 3:15:00 AM 13.41 56.138 0.217 7.36 5.09 9.33
5/14/2023 3:30:00 AM 13.38 56.084 0.216 7.36 5.19 9.34
5/14/2023 3:45:00 AM 13.35 56.03 0.215 7.36 9.14 9.35
5/14/2023 4:00:00 AM 13.31 55.958 0.213 7.36 5.41 9.36
5/14/2023 4:15:00 AM 13.27 55.886 0.212 7.36 10.5 9.37
5/14/2023 4:30:00 AM 13.22 55.796 0.211 7.36 9.69 9.38
5/14/2023 4:45:00 AM 13.18 55.724 0.21 7.36 5.33 9.4
5/14/2023 5:00:00 AM 13.14 55.652 0.21 7.36 8.71 9.41
5/14/2023 5:15:00 AM 13.09 55.562 0.212 7.37 5.16 9.42
5/14/2023 5:30:00 AM 13.04 55.472 0.212 7.37 5.05 9.44
5/14/2023 5:45:00 AM 12.99 55.382 0.212 7.37 6.79 9.45
5/14/2023 6:00:00 AM 12.94 55.292 0.211 7.37 4.94 9.46
5/14/2023 6:15:00 AM 12.88 55.184 0.208 7.37 5.99 9.48
5/14/2023 6:30:00 AM 12.82 55.076 0.206 7.37 5.01 9.53
5/14/2023 6:45:00 AM 12.77 54.986 0.205 7.38 4.95 9.58
5/14/2023 7:00:00 AM 12.73 54.914 0.204 7.39 4.67 9.65
5/14/2023 7:15:00 AM 12.7 54.86 0.204 7.41 4.69 9.73
5/14/2023 7:30:00 AM 12.67 54.806 0.205 7.42 5.28 9.82
5/14/2023 7:45:00 AM 12.66 54.788 0.207 7.44 4.68 9.89
5/14/2023 8:00:00 AM 12.65 54.77 0.209 7.46 4.55 9.94
5/14/2023 8:15:00 AM 12.67 54.806 0.211 7.47 4.41 10.02
5/14/2023 8:30:00 AM 12.72 54.896 0.211 7.5 6.96 10.12
5/14/2023 8:45:00 AM 12.8 55.04 0.21 7.52 4.29 10.25
5/14/2023 9:00:00 AM 12.88 55.184 0.208 7.55 4.08 10.35
5/14/2023 9:15:00 AM 12.97 55.346 0.162 7.58 6.3 10.46
5/14/2023 9:30:00 AM 13.06 55.508 0.108 7.62 5.97 10.57
5/14/2023 9:45:00 AM 13.18 55.724 0.202 7.65 4.35 10.66
5/14/2023 10:00:00 AM 13.32 55.976 0.202 7.69 4.02 10.76
5/14/2023 10:15:00 AM 13.46 56.228 0.202 7.73 4.32 10.85
5/14/2023 10:30:00 AM 13.61 56.498 0.203 7.78 3.68 10.93
5/14/2023 10:45:00 AM 13.77 56.786 0.204 7.83 3.83 11.01
5/14/2023 11:00:00 AM 13.93 57.074 0.206 7.88 3.96 11.07
5/14/2023 11:15:00 AM 14.11 57.398 0.206 7.93 4.2 11.15
5/14/2023 11:30:00 AM 14.29 57.722 0.206 7.98 4.09 11.21
5/14/2023 11:45:00 AM 14.44 57.992 0.206 8.03 7.63 11.25
5/14/2023 12:00:00 PM 14.63 58.334 0.205 8.08 7.59 11.29
5/14/2023 12:15:00 PM 14.79 58.622 0.205 8.12 4.16 11.31
5/14/2023 12:30:00 PM 14.84 58.712 0.205 8.16 4.02 11.31
5/14/2023 12:45:00 PM 15.05 59.09 0.205 8.21 3.84 11.35
5/14/2023 1:00:00 PM 15.26 59.468 0.205 8.25 4.02 11.35
5/14/2023 1:15:00 PM 15.47 59.846 0.207 8.29 4.05 11.33
5/14/2023 1:30:00 PM 15.7 60.26 0.209 8.32 4.4 11.3
5/14/2023 1:45:00 PM 15.92 60.656 0.211 8.35 4.14 11.25
5/14/2023 2:00:00 PM 16.13 61.034 0.211 8.38 4.19 11.22
5/14/2023 2:15:00 PM 16.34 61.412 0.211 8.41 4.11 11.17
5/14/2023 2:30:00 PM 16.52 61.736 0.21 8.44 5.67 11.12
5/14/2023 2:45:00 PM 16.71 62.078 0.208 8.45 4.16 11.05
5/14/2023 3:00:00 PM 16.85 62.33 0.205 8.48 6.87 11
5/14/2023 3:15:00 PM 16.96 62.528 0.204 8.49 4.08 10.94
5/14/2023 3:30:00 PM 17.07 62.726 0.202 8.52 6.8 10.93
5/14/2023 3:45:00 PM 17.18 62.924 0.201 8.52 4.71 10.85
5/14/2023 4:00:00 PM 17.27 63.086 0.201 8.53 7.63 10.77
5/14/2023 4:15:00 PM 17.3 63.14 0.201 8.52 4.33 10.65
5/14/2023 4:30:00 PM 17.32 63.176 0.2 8.5 4.13 10.55
5/14/2023 4:45:00 PM 17.29 63.122 0.2 8.47 8.4 10.43
5/14/2023 5:00:00 PM 17.26 63.068 0.199 8.45 4.37 10.33
5/14/2023 5:15:00 PM 17.22 62.996 0.198 8.41 4.16 10.23
5/14/2023 5:30:00 PM 17.18 62.924 0.197 8.37 7.32 10.1
5/14/2023 5:45:00 PM 17.12 62.816 0.196 8.32 4.63 9.99
5/14/2023 6:00:00 PM 17.06 62.708 0.195 8.27 4.59 9.89
5/14/2023 6:15:00 PM 17 62.6 0.158 8.22 8.34 9.8
5/14/2023 6:30:00 PM 16.94 62.492 0.195 8.17 8.16 9.7
5/14/2023 6:45:00 PM 16.86 62.348 0.197 8.11 4.5 9.61
5/14/2023 7:00:00 PM 16.8 62.24 0.198 8.05 5.98 9.53
5/14/2023 7:15:00 PM 16.74 62.132 0.199 8 4.76 9.44
5/14/2023 7:30:00 PM 16.67 62.006 0.2 7.94 4.5 9.35
5/14/2023 7:45:00 PM 16.6 61.88 0.199 7.89 4.85 9.25
5/14/2023 8:00:00 PM 16.52 61.736 0.199 7.83 4.47 9.16
5/14/2023 8:15:00 PM 16.43 61.574 0.198 7.78 4.63 9.08
5/14/2023 8:30:00 PM 16.35 61.43 0.197 7.74 8.03 9.01
5/14/2023 8:45:00 PM 16.26 61.268 0.197 7.69 4.69 8.94
5/14/2023 9:00:00 PM 16.18 61.124 0.197 7.65 4.74 8.88
5/14/2023 9:15:00 PM 16.11 60.998 0.198 7.62 9.91 8.84
5/14/2023 9:30:00 PM 16.04 60.872 0.2 7.59 5.03 8.81
5/14/2023 9:45:00 PM 15.98 60.764 0.201 7.57 8.73 8.78
5/14/2023 10:00:00 PM 15.92 60.656 0.204 7.55 5.24 8.75
5/14/2023 10:15:00 PM 15.86 60.548 0.205 7.53 5.14 8.75
5/14/2023 10:30:00 PM 15.79 60.422 0.205 7.51 5.17 8.72
5/14/2023 10:45:00 PM 15.73 60.314 0.132 7.5 6.79 8.72
5/14/2023 11:00:00 PM 15.66 60.188 0.204 7.49 5.01 8.71
5/14/2023 11:15:00 PM 15.59 60.062 0.203 7.47 5.32 8.71
5/14/2023 11:30:00 PM 15.53 59.954 0.203 7.46 5.24 8.72
5/14/2023 11:45:00 PM 15.46 59.828 0.201 7.45 9.23 8.72
5/15/2023 12:00:00 AM 15.39 59.702 0.204 7.44 5.25 8.72
5/15/2023 12:15:00 AM 15.32 59.576 0.205 7.44 4.82 8.73
5/15/2023 12:30:00 AM 15.24 59.432 0.19 7.44 8.57 8.75
5/15/2023 12:45:00 AM 15.17 59.306 0.209 7.43 4.95 8.76
5/15/2023 1:00:00 AM 15.09 59.162 0.21 7.43 4.96 8.77
5/15/2023 1:15:00 AM 15.02 59.036 0.21 7.43 4.94 8.8
5/15/2023 1:30:00 AM 14.93 58.874 0.209 7.43 4.96 8.82
5/15/2023 1:45:00 AM 14.84 58.712 0.208 7.42 4.82 8.85
5/15/2023 2:00:00 AM 14.75 58.55 0.207 7.42 5.29 8.87
5/15/2023 2:15:00 AM 14.66 58.388 0.206 7.42 5.26 8.89
5/15/2023 2:30:00 AM 14.56 58.208 0.194 7.42 8.03 8.92
5/15/2023 2:45:00 AM 14.46 58.028 0.205 7.41 7.1 8.94
5/15/2023 3:00:00 AM 14.36 57.848 0.206 7.41 5.16 8.96
5/15/2023 3:15:00 AM 14.25 57.65 0.187 7.41 7.74 9
5/15/2023 3:30:00 AM 14.15 57.47 0.209 7.41 8.06 9.02
5/15/2023 3:45:00 AM 14.03 57.254 0.209 7.41 8.61 9.06
5/15/2023 4:00:00 AM 13.92 57.056 0.207 7.41 8.69 9.09
5/15/2023 4:15:00 AM 13.8 56.84 0.208 7.41 4.99 9.12
5/15/2023 4:30:00 AM 13.69 56.642 0.207 7.4 5.78 9.16
5/15/2023 4:45:00 AM 13.57 56.426 0.206 7.4 13.5 9.19
5/15/2023 5:00:00 AM 13.46 56.228 0.204 7.4 8.88 9.22
5/15/2023 5:15:00 AM 13.35 56.03 0.204 7.4 5.05 9.25
5/15/2023 5:30:00 AM 13.24 55.832 0.204 7.4 8.21 9.29
5/15/2023 5:45:00 AM 13.13 55.634 0.206 7.4 5.05 9.31
5/15/2023 6:00:00 AM 13.02 55.436 0.207 7.4 4.8 9.35
5/15/2023 6:15:00 AM 12.92 55.256 0.208 7.4 9.12 9.38
5/15/2023 6:30:00 AM 12.82 55.076 0.208 7.4 4.48 9.46
5/15/2023 6:45:00 AM 12.73 54.914 0.208 7.41 4.31 9.54
5/15/2023 7:00:00 AM 12.63 54.734 0.207 7.42 4.34 9.6
5/15/2023 7:15:00 AM 12.53 54.554 0.206 7.43 8.99 9.66
5/15/2023 7:30:00 AM 12.45 54.41 0.205 7.43 3.93 9.72
5/15/2023 7:45:00 AM 12.38 54.284 0.204 7.44 6.16 9.8
5/15/2023 8:00:00 AM 12.33 54.194 0.201 7.42 7.16 9.9
5/15/2023 8:15:00 AM 12.31 54.158 0.204 7.48 3.82 10.02
5/15/2023 8:30:00 AM 12.32 54.176 0.205 7.5 3.73 10.14
5/15/2023 8:45:00 AM 12.35 54.23 0.206 7.53 3.8 10.27
5/15/2023 9:00:00 AM 12.39 54.302 0.207 7.56 7.26 10.39
5/15/2023 9:15:00 AM 12.44 54.392 0.207 7.59 3.82 10.52
5/15/2023 9:30:00 AM 12.51 54.518 0.207 7.62 3.93 10.61
5/15/2023 9:45:00 AM 12.6 54.68 0.206 7.66 3.74 10.7
5/15/2023 10:00:00 AM 12.71 54.878 0.205 7.69 3.55 10.81
5/15/2023 10:15:00 AM 12.84 55.112 0.204 7.73 4.28 10.9
5/15/2023 10:30:00 AM 12.97 55.346 0.188 7.77 6.44 10.97
5/15/2023 10:45:00 AM 13.1 55.58 0.203 7.81 3.95 11.04
5/15/2023 11:00:00 AM 13.24 55.832 0.203 7.84 3.55 11.09
5/15/2023 11:15:00 AM 13.39 56.102 0.204 7.89 3.54 11.16
5/15/2023 11:30:00 AM 13.55 56.39 0.156 7.93 4.52 11.21
5/15/2023 11:45:00 AM 13.72 56.696 0.206 7.97 3.54 11.25
5/15/2023 12:00:00 PM 13.88 56.984 0.206 8.01 5.19 11.27
5/15/2023 12:15:00 PM 14.03 57.254 0.206 8.05 3.73 11.29
5/15/2023 12:30:00 PM 14.2 57.56 0.205 8.09 7.12 11.3
5/15/2023 12:45:00 PM 14.36 57.848 0.204 8.13 4.17 11.31
5/15/2023 1:00:00 PM 14.54 58.172 0.203 8.17 3.92 11.29
5/15/2023 1:15:00 PM 14.74 58.532 0.202 8.2 4 11.28
5/15/2023 1:30:00 PM 14.93 58.874 0.112 7.9 6.44 11.26
5/15/2023 1:45:00 PM 15.14 59.252 0.201 8.26 4.38 11.23
5/15/2023 2:00:00 PM 15.34 59.612 0.202 8.29 4.75 11.2
5/15/2023 2:15:00 PM 15.54 59.972 0.202 8.32 5.12 11.15
5/15/2023 2:30:00 PM 15.74 60.332 0.202 8.35 7.7 11.1
5/15/2023 2:45:00 PM 15.92 60.656 0.202 8.36 4.34 11.03
5/15/2023 3:00:00 PM 16.09 60.962 0.202 8.38 7.74 10.96
5/15/2023 3:15:00 PM 16.25 61.25 0.201 8.39 7.76 10.89
5/15/2023 3:30:00 PM 16.38 61.484 0.2 8.39 3.92 10.8
5/15/2023 3:45:00 PM 16.5 61.7 0.2 8.4 3.8 10.74
5/15/2023 4:00:00 PM 16.59 61.862 0.199 8.4 3.85 10.66
5/15/2023 4:15:00 PM 16.66 61.988 0.199 8.4 3.82 10.57
5/15/2023 4:30:00 PM 16.7 62.06 0.2 8.39 4.11 10.5
5/15/2023 4:45:00 PM 16.72 62.096 0.2 8.37 4.07 10.4
5/15/2023 5:00:00 PM 16.71 62.078 0.2 8.35 7.93 10.33
5/15/2023 5:15:00 PM 16.7 62.06 0.2 8.33 4.25 10.24
5/15/2023 5:30:00 PM 16.67 62.006 0.2 8.3 4.36 10.15
5/15/2023 5:45:00 PM 16.61 61.898 0.2 8.27 4.23 10.05
5/15/2023 6:00:00 PM 16.55 61.79 0.2 8.23 4.08 9.97
5/15/2023 6:15:00 PM 16.49 61.682 0.199 8.18 4.48 9.87
5/15/2023 6:30:00 PM 16.45 61.61 0.199 8.14 7.43 9.79
5/15/2023 6:45:00 PM 16.4 61.52 0.199 8.09 7.46 9.69
5/15/2023 7:00:00 PM 16.33 61.394 0.2 8.05 7.43 9.61
5/15/2023 7:15:00 PM 16.27 61.286 0.201 8 5.15 9.53
5/15/2023 7:30:00 PM 16.21 61.178 0.202 7.95 8.02 9.45
5/15/2023 7:45:00 PM 16.14 61.052 0.203 7.9 4.14 9.37
5/15/2023 8:00:00 PM 16.06 60.908 0.204 7.84 4.51 9.28
5/15/2023 8:15:00 PM 15.98 60.764 0.204 7.8 7.82 9.21
5/15/2023 8:30:00 PM 15.89 60.602 0.204 7.75 4.32 9.13
5/15/2023 8:45:00 PM 15.81 60.458 0.203 7.71 6.69 9.06
5/15/2023 9:00:00 PM 15.74 60.332 0.203 7.67 8.25 9
5/15/2023 9:15:00 PM 15.66 60.188 0.203 7.64 13.4 8.96
5/15/2023 9:30:00 PM 15.59 60.062 0.203 7.61 8.67 8.91
5/15/2023 9:45:00 PM 15.52 59.936 0.205 7.59 8.46 8.89
5/15/2023 10:00:00 PM 15.46 59.828 0.207 7.57 5.09 8.86
5/15/2023 10:15:00 PM 15.41 59.738 0.195 7.55 9.56 8.83
5/15/2023 10:30:00 PM 15.36 59.648 0.212 7.54 7.8 8.81
5/15/2023 10:45:00 PM 15.29 59.522 0.213 7.52 4.68 8.78
5/15/2023 11:00:00 PM 15.23 59.414 0.213 7.51 10.32 8.78
5/15/2023 11:15:00 PM 15.16 59.288 0.213 7.49 4.65 8.78
5/15/2023 11:30:00 PM 15.09 59.162 0.212 7.48 4.63 8.77
5/15/2023 11:45:00 PM 15.02 59.036 0.211 7.47 4.97 8.77
5/16/2023 12:00:00 AM 14.94 58.892 0.211 7.46 5.02 8.78
5/16/2023 12:15:00 AM 14.87 58.766 0.211 7.46 4.78 8.79
5/16/2023 12:30:00 AM 14.8 58.64 0.212 7.45 4.43 8.79
5/16/2023 12:45:00 AM 14.73 58.514 0.214 7.45 4.81 8.8
5/16/2023 1:00:00 AM 14.66 58.388 0.216 7.44 4.9 8.81
5/16/2023 1:15:00 AM 14.58 58.244 0.217 7.44 4.95 8.83
5/16/2023 1:30:00 AM 14.49 58.082 0.218 7.44 4.38 8.84
5/16/2023 1:45:00 AM 14.4 57.92 0.16 7.44 6.98 8.87
5/16/2023 2:00:00 AM 14.31 57.758 0.217 7.43 4.52 8.89
5/16/2023 2:15:00 AM 14.21 57.578 0.216 7.43 4.49 8.91
5/16/2023 2:30:00 AM 14.11 57.398 0.214 7.42 4.86 8.93
5/16/2023 2:45:00 AM 14 57.2 0.213 7.42 4.65 8.96
5/16/2023 3:00:00 AM 13.9 57.02 0.213 7.42 4.7 8.99
5/16/2023 3:15:00 AM 13.8 56.84 0.213 7.42 4.97 9.02
5/16/2023 3:30:00 AM 13.71 56.678 0.215 7.42 4.44 9.04
5/16/2023 3:45:00 AM 13.61 56.498 0.115 7.42 7.3 9.06
5/16/2023 4:00:00 AM 13.51 56.318 0.217 7.42 5.46 9.1
5/16/2023 4:15:00 AM 13.4 56.12 0.217 7.42 4.66 9.13
5/16/2023 4:30:00 AM 13.29 55.922 0.217 7.41 4.87 9.14
5/16/2023 4:45:00 AM 13.18 55.724 0.216 7.41 4.28 9.18
5/16/2023 5:00:00 AM 13.07 55.526 0.215 7.41 5.89 9.21
5/16/2023 5:15:00 AM 12.96 55.328 0.214 7.41 4.57 9.26
5/16/2023 5:30:00 AM 12.85 55.13 0.214 7.41 4.99 9.29
5/16/2023 5:45:00 AM 12.74 54.932 0.214 7.41 4.47 9.32
5/16/2023 6:00:00 AM 12.64 54.752 0.215 7.41 4.33 9.35
5/16/2023 6:15:00 AM 12.55 54.59 0.216 7.41 7.88 9.39
5/16/2023 6:30:00 AM 12.45 54.41 0.218 7.4 4.47 9.44
5/16/2023 6:45:00 AM 12.37 54.266 0.219 7.42 4.14 9.51
5/16/2023 7:00:00 AM 12.28 54.104 0.22 7.42 4.29 9.57
5/16/2023 7:15:00 AM 12.22 53.996 0.22 7.43 3.87 9.64
5/16/2023 7:30:00 AM 12.17 53.906 0.219 7.44 4.1 9.73
5/16/2023 7:45:00 AM 12.13 53.834 0.217 7.46 7.21 9.83
5/16/2023 8:00:00 AM 12.11 53.798 0.216 7.47 3.81 9.93
5/16/2023 8:15:00 AM 12.12 53.816 0.215 7.49 3.85 10
5/16/2023 8:30:00 AM 12.13 53.834 0.215 7.51 4.06 10.1
5/16/2023 8:45:00 AM 12.18 53.924 0.215 7.53 8.01 10.18
5/16/2023 9:00:00 AM 12.26 54.068 0.216 7.55 3.82 10.28
5/16/2023 9:15:00 AM 12.34 54.212 0.216 7.58 3.62 10.38
5/16/2023 9:30:00 AM 12.43 54.374 0.217 7.61 3.44 10.48
5/16/2023 9:45:00 AM 12.54 54.572 0.216 7.65 3.61 10.57
5/16/2023 10:00:00 AM 12.68 54.824 0.215 7.68 3.48 10.66
5/16/2023 10:15:00 AM 12.8 55.04 0.214 7.72 3.33 10.75
5/16/2023 10:30:00 AM 12.89 55.202 0.213 7.76 3.51 10.81
5/16/2023 10:45:00 AM 12.99 55.382 0.212 7.8 3.53 10.87
5/16/2023 11:00:00 AM 13.07 55.526 0.211 7.84 3.64 10.91
5/16/2023 11:15:00 AM 13.18 55.724 0.212 7.88 7.51 10.96
5/16/2023 11:30:00 AM 13.3 55.94 0.213 7.92 7.42 11
5/16/2023 11:45:00 AM 13.43 56.174 0.215 7.95 3.7 11.02
5/16/2023 12:00:00 PM 13.57 56.426 0.217 7.99 6.37 11.04
5/16/2023 12:15:00 PM 13.81 56.858 0.22 8.03 5.01 11.09
5/16/2023 12:30:00 PM 13.99 57.182 0.219 8.07 6.71 11.1
5/16/2023 12:45:00 PM 14.17 57.506 0.22 8.11 7.1 11.1
5/16/2023 1:00:00 PM 14.39 57.902 0.219 8.14 3.64 11.09
5/16/2023 1:15:00 PM 14.58 58.244 0.215 8.18 6.82 11.09
5/16/2023 1:30:00 PM 14.74 58.532 0.215 8.21 3.7 11.06
5/16/2023 1:45:00 PM 14.85 58.73 0.214 8.24 3.75 11.03
5/16/2023 2:00:00 PM 14.96 58.928 0.213 8.27 4.93 11.01
5/16/2023 2:15:00 PM 15.05 59.09 0.212 8.29 3.73 10.97
5/16/2023 2:30:00 PM 15.15 59.27 0.212 8.31 3.93 10.93
5/16/2023 2:45:00 PM 15.25 59.45 0.213 8.32 4.51 10.87
5/16/2023 3:00:00 PM 15.39 59.702 0.213 8.34 3.85 10.84
5/16/2023 3:15:00 PM 15.51 59.918 0.213 8.35 3.46 10.77
5/16/2023 3:30:00 PM 15.63 60.134 0.137 8.37 5.05 10.73
5/16/2023 3:45:00 PM 15.74 60.332 0.21 8.37 3.6 10.68
5/16/2023 4:00:00 PM 15.81 60.458 0.209 8.38 3.75 10.62
5/16/2023 4:15:00 PM 15.82 60.476 0.209 8.37 3.82 10.54
5/16/2023 4:30:00 PM 15.82 60.476 0.209 8.37 7.27 10.46
5/16/2023 4:45:00 PM 15.8 60.44 0.194 8.35 6.58 10.4
5/16/2023 5:00:00 PM 15.82 60.476 0.21 8.34 4.39 10.35
5/16/2023 5:15:00 PM 15.83 60.494 0.208 8.33 5.97 10.28
5/16/2023 5:30:00 PM 15.81 60.458 0.211 8.3 7.35 10.16
5/16/2023 5:45:00 PM 15.78 60.404 0.21 8.26 8.08 10.04
5/16/2023 6:00:00 PM 15.76 60.368 0.21 8.21 4.57 9.93
5/16/2023 6:15:00 PM 15.73 60.314 0.21 8.16 4.59 9.81
5/16/2023 6:30:00 PM 15.71 60.278 0.206 8.12 8.57 9.75
5/16/2023 6:45:00 PM 15.7 60.26 0.208 8.08 5.84 9.69
5/16/2023 7:00:00 PM 15.68 60.224 0.208 8.04 4.42 9.63
5/16/2023 7:15:00 PM 15.63 60.134 0.21 8 4.55 9.57
5/16/2023 7:30:00 PM 15.58 60.044 0.211 7.96 8.37 9.48
5/16/2023 7:45:00 PM 15.52 59.936 0.213 7.91 4.56 9.39
5/16/2023 8:00:00 PM 15.46 59.828 0.215 7.86 4.46 9.3
5/16/2023 8:15:00 PM 15.41 59.738 0.215 7.82 4.24 9.21
5/16/2023 8:30:00 PM 15.36 59.648 0.216 7.77 4.21 9.12
5/16/2023 8:45:00 PM 15.33 59.594 0.215 7.74 4.23 9.05
5/16/2023 9:00:00 PM 15.3 59.54 0.214 7.7 28.47 8.98
5/16/2023 9:15:00 PM 15.28 59.504 0.213 7.68 8.66 8.94
5/16/2023 9:30:00 PM 15.25 59.45 0.213 7.65 4.68 8.91
5/16/2023 9:45:00 PM 15.22 59.396 0.213 7.63 8.25 8.87
5/16/2023 10:00:00 PM 15.2 59.36 0.215 7.61 5.63 8.84
5/16/2023 10:15:00 PM 15.19 59.342 0.218 7.59 4.69 8.81
5/16/2023 10:30:00 PM 15.18 59.324 0.221 7.59 6.39 8.78
5/16/2023 10:45:00 PM 15.17 59.306 0.224 7.57 6.1 8.76
5/16/2023 11:00:00 PM 15.15 59.27 0.225 7.56 4.84 8.74
5/16/2023 11:15:00 PM 15.13 59.234 0.225 7.56 8.28 8.72
5/16/2023 11:30:00 PM 15.1 59.18 0.225 7.54 4.55 8.7
5/16/2023 11:45:00 PM 15.07 59.126 0.223 7.53 4.38 8.7
5/17/2023 12:00:00 AM 15.05 59.09 0.221 7.52 4.8 8.7
5/17/2023 12:15:00 AM 15.02 59.036 0.22 7.51 4.6 8.7
5/17/2023 12:30:00 AM 14.99 58.982 0.219 7.5 8.21 8.69
5/17/2023 12:45:00 AM 14.96 58.928 0.22 7.5 4.93 8.69
5/17/2023 1:00:00 AM 14.93 58.874 0.222 7.49 4.68 8.69
5/17/2023 1:15:00 AM 14.91 58.838 0.145 7.49 6.32 8.69
5/17/2023 1:30:00 AM 14.88 58.784 0.225 7.49 6.7 8.7
5/17/2023 1:45:00 AM 14.84 58.712 0.226 7.48 4.85 8.7
5/17/2023 2:00:00 AM 14.8 58.64 0.226 7.48 8.54 8.71
5/17/2023 2:15:00 AM 14.75 58.55 0.225 7.48 7.29 8.72
5/17/2023 2:30:00 AM 14.71 58.478 0.224 7.48 6.16 8.73
5/17/2023 2:45:00 AM 14.66 58.388 0.223 7.47 6.41 8.75
5/17/2023 3:00:00 AM 14.6 58.28 0.222 7.46 4.76 8.76
5/17/2023 3:15:00 AM 14.55 58.19 0.222 7.46 4.55 8.78
5/17/2023 3:30:00 AM 14.51 58.118 0.223 7.46 4.88 8.79
5/17/2023 3:45:00 AM 14.46 58.028 0.225 7.46 4.8 8.79
5/17/2023 4:00:00 AM 14.41 57.938 0.227 7.47 7.19 8.82
5/17/2023 4:15:00 AM 14.36 57.848 0.228 7.46 4.43 8.82
5/17/2023 4:30:00 AM 14.3 57.74 0.229 7.46 4.44 8.85
5/17/2023 4:45:00 AM 14.24 57.632 0.228 7.46 4.29 8.86
5/17/2023 5:00:00 AM 14.17 57.506 0.228 7.46 4.47 8.88
5/17/2023 5:15:00 AM 14.1 57.38 0.227 7.45 5.73 8.89
5/17/2023 5:30:00 AM 14.02 57.236 0.225 7.45 4.28 8.92
5/17/2023 5:45:00 AM 13.96 57.128 0.224 7.46 7.94 8.93
5/17/2023 6:00:00 AM 13.88 56.984 0.224 7.45 7.66 8.94
5/17/2023 6:15:00 AM 13.81 56.858 0.225 7.46 11.52 8.99
5/17/2023 6:30:00 AM 13.75 56.75 0.226 7.46 9.69 9.03
5/17/2023 6:45:00 AM 13.68 56.624 0.227 7.46 9.99 9.08
5/17/2023 7:00:00 AM 13.62 56.516 0.228 7.47 4.26 9.14
5/17/2023 7:15:00 AM 13.55 56.39 0.228 7.48 4.19 9.19
5/17/2023 7:30:00 AM 13.5 56.3 0.228 7.49 4.12 9.26
5/17/2023 7:45:00 AM 13.46 56.228 0.227 7.5 3.62 9.34
5/17/2023 8:00:00 AM 13.43 56.174 0.225 7.52 7.34 9.4
5/17/2023 8:15:00 AM 13.42 56.156 0.224 7.53 3.94 9.49
5/17/2023 8:30:00 AM 13.39 56.102 0.223 7.54 3.87 9.56
5/17/2023 8:45:00 AM 13.43 56.174 0.223 7.56 3.86 9.68
5/17/2023 9:00:00 AM 13.47 56.246 0.224 7.58 3.82 9.78
5/17/2023 9:15:00 AM 13.53 56.354 0.225 7.61 7.42 9.87
5/17/2023 9:30:00 AM 13.61 56.498 0.226 7.63 4.03 9.95
5/17/2023 9:45:00 AM 13.7 56.66 0.227 7.66 3.7 10.03
5/17/2023 10:00:00 AM 13.83 56.894 0.227 7.68 3.76 10.11
5/17/2023 10:15:00 AM 13.96 57.128 0.219 7.72 6.98 10.19
5/17/2023 10:30:00 AM 14.1 57.38 0.225 7.75 3.71 10.25
5/17/2023 10:45:00 AM 14.24 57.632 0.224 7.77 3.51 10.31
5/17/2023 11:00:00 AM 14.35 57.83 0.222 7.8 3.54 10.38
5/17/2023 11:15:00 AM 14.48 58.064 0.222 7.83 3.73 10.41
5/17/2023 11:30:00 AM 14.62 58.316 0.222 7.86 5.27 10.46
5/17/2023 11:45:00 AM 14.76 58.568 0.223 7.89 6.46 10.49
5/17/2023 12:00:00 PM 14.9 58.82 0.225 7.91 5.99 10.53
5/17/2023 12:15:00 PM 15.04 59.072 0.228 7.94 7.04 10.55
5/17/2023 12:30:00 PM 15.17 59.306 0.229 7.97 5.05 10.55
5/17/2023 12:45:00 PM 15.32 59.576 0.23 7.99 5.54 10.55
5/17/2023 1:00:00 PM 15.45 59.81 0.23 8.01 3.69 10.55
5/17/2023 1:15:00 PM 15.62 60.116 0.228 8.04 5.09 10.54
5/17/2023 1:30:00 PM 15.78 60.404 0.228 8.06 3.93 10.53
5/17/2023 1:45:00 PM 15.95 60.71 0.225 8.08 3.6 10.48
5/17/2023 2:00:00 PM 16.11 60.998 0.224 8.1 3.66 10.46
5/17/2023 2:15:00 PM 16.28 61.304 0.223 8.12 4.09 10.43
5/17/2023 2:30:00 PM 16.44 61.592 0.222 8.14 7.13 10.39
5/17/2023 2:45:00 PM 16.6 61.88 0.135 8.16 5.14 10.35
5/17/2023 3:00:00 PM 16.73 62.114 0.221 8.16 4.3 10.31
5/17/2023 3:15:00 PM 16.85 62.33 0.221 8.18 7.67 10.25
5/17/2023 3:30:00 PM 16.95 62.51 0.221 8.18 3.95 10.21
5/17/2023 3:45:00 PM 17.02 62.636 0.22 8.19 3.96 10.15
5/17/2023 4:00:00 PM 17.08 62.744 0.219 8.19 3.97 10.11
5/17/2023 4:15:00 PM 17.1 62.78 0.141 8.2 6.01 10.06
5/17/2023 4:30:00 PM 17.08 62.744 0.217 8.19 4.03 10.01
5/17/2023 4:45:00 PM 17.07 62.726 0.217 8.19 7.63 9.95
5/17/2023 5:00:00 PM 17.01 62.618 0.218 8.17 4.1 9.91
5/17/2023 5:15:00 PM 16.96 62.528 0.218 8.17 7.58 9.86
5/17/2023 5:30:00 PM 16.9 62.42 0.219 8.15 8.04 9.8
5/17/2023 5:45:00 PM 16.81 62.258 0.22 8.13 5.46 9.75
5/17/2023 6:00:00 PM 16.72 62.096 0.22 8.11 4.03 9.7
5/17/2023 6:15:00 PM 16.64 61.952 0.22 8.08 4.13 9.64
5/17/2023 6:30:00 PM 16.55 61.79 0.219 8.05 4.14 9.57
5/17/2023 6:45:00 PM 16.45 61.61 0.218 8.02 4 9.52
5/17/2023 7:00:00 PM 16.34 61.412 0.217 7.99 4.18 9.45
5/17/2023 7:15:00 PM 16.24 61.232 0.217 7.95 4.32 9.4
5/17/2023 7:30:00 PM 16.13 61.034 0.218 7.92 7.99 9.34
5/17/2023 7:45:00 PM 16.01 60.818 0.219 7.88 4.58 9.27
5/17/2023 8:00:00 PM 15.89 60.602 0.221 7.84 4.27 9.22
5/17/2023 8:15:00 PM 15.77 60.386 0.222 7.81 4.4 9.15
5/17/2023 8:30:00 PM 15.64 60.152 0.223 7.77 4.31 9.1
5/17/2023 8:45:00 PM 15.52 59.936 0.223 7.73 5.81 9.05
5/17/2023 9:00:00 PM 15.39 59.702 0.223 7.7 4.83 9.02
5/17/2023 9:15:00 PM 15.27 59.486 0.222 7.68 11.46 8.99
5/17/2023 9:30:00 PM 15.16 59.288 0.222 7.66 8.11 8.99
5/17/2023 9:45:00 PM 15.05 59.09 0.221 7.63 5.3 8.97
5/17/2023 10:00:00 PM 14.95 58.91 0.221 7.61 5.03 8.96
5/17/2023 10:15:00 PM 14.85 58.73 0.223 7.6 5.3 8.95
5/17/2023 10:30:00 PM 14.75 58.55 0.225 7.59 4.93 8.95
5/17/2023 10:45:00 PM 14.66 58.388 0.227 7.57 4.78 8.94
5/17/2023 11:00:00 PM 14.57 58.226 0.23 7.56 4.78 8.86
5/17/2023 11:15:00 PM 14.49 58.082 0.23 7.56 8.55 8.94
5/17/2023 11:30:00 PM 14.41 57.938 0.233 7.55 8.53 8.95
5/17/2023 11:45:00 PM 14.32 57.776 0.233 7.53 4.62 8.96
5/18/2023 12:00:00 AM 14.24 57.632 0.233 7.52 4.63 8.97
5/18/2023 12:15:00 AM 14.16 57.488 0.162 7.53 6.2 8.98
5/18/2023 12:30:00 AM 14.07 57.326 0.231 7.51 4.68 8.99
5/18/2023 12:45:00 AM 13.98 57.164 0.23 7.5 4.68 9.01
5/18/2023 1:00:00 AM 13.89 57.002 0.23 7.5 4.63 9.03
5/18/2023 1:15:00 AM 13.81 56.858 0.231 7.5 4.41 9.05
5/18/2023 1:30:00 AM 13.72 56.696 0.228 7.5 7.55 9.06
5/18/2023 1:45:00 AM 13.62 56.516 0.234 7.5 8.1 9.1
5/18/2023 2:00:00 AM 13.52 56.336 0.236 7.49 4.75 9.13
5/18/2023 2:15:00 AM 13.41 56.138 0.236 7.49 7.94 9.15
5/18/2023 2:30:00 AM 13.3 55.94 0.237 7.49 4.5 9.19
5/18/2023 2:45:00 AM 13.19 55.742 0.236 7.49 4.33 9.2
5/18/2023 3:00:00 AM 13.09 55.562 0.234 7.49 4.59 9.25
5/18/2023 3:15:00 AM 12.98 55.364 0.233 7.48 4.84 9.28
5/18/2023 3:30:00 AM 12.89 55.202 0.231 7.51 7.28 9.31
5/18/2023 3:45:00 AM 12.78 55.004 0.225 7.49 7.46 9.35
5/18/2023 4:00:00 AM 12.67 54.806 0.231 7.48 4.37 9.38
5/18/2023 4:15:00 AM 12.57 54.626 0.232 7.48 8.21 9.41
5/18/2023 4:30:00 AM 12.47 54.446 0.232 7.48 7.81 9.44
5/18/2023 4:45:00 AM 12.35 54.23 0.233 7.48 4.05 9.47
5/18/2023 5:00:00 AM 12.25 54.05 0.234 7.48 4.33 9.51
5/18/2023 5:15:00 AM 12.13 53.834 0.234 7.46 4.5 9.54
5/18/2023 5:30:00 AM 12.02 53.636 0.233 7.48 7.65 9.57
5/18/2023 5:45:00 AM 11.91 53.438 0.233 7.47 8.4 9.61
5/18/2023 6:00:00 AM 11.8 53.24 0.232 7.47 4.59 9.65
5/18/2023 6:15:00 AM 11.7 53.06 0.231 7.47 4.92 9.68
5/18/2023 6:30:00 AM 11.6 52.88 0.231 7.47 4.21 9.74
5/18/2023 6:45:00 AM 11.51 52.718 0.231 7.47 4.27 9.8
5/18/2023 7:00:00 AM 11.42 52.556 0.232 7.48 4.04 9.87
5/18/2023 7:15:00 AM 11.34 52.412 0.233 7.49 3.84 9.96
5/18/2023 7:30:00 AM 11.26 52.268 0.235 7.5 4.01 10.05
5/18/2023 7:45:00 AM 11.19 52.142 0.236 7.51 3.89 10.14
5/18/2023 8:00:00 AM 11.14 52.052 0.236 7.53 3.87 10.24
5/18/2023 8:15:00 AM 11.11 51.998 0.235 7.54 3.82 10.34
5/18/2023 8:30:00 AM 11.1 51.98 0.233 7.57 5.17 10.45
5/18/2023 8:45:00 AM 11.11 51.998 0.232 7.58 3.71 10.55
5/18/2023 9:00:00 AM 11.12 52.016 0.231 7.61 3.65 10.64
5/18/2023 9:15:00 AM 11.16 52.088 0.23 7.63 3.5 10.73
5/18/2023 9:30:00 AM 11.21 52.178 0.229 7.66 7.19 10.82
5/18/2023 9:45:00 AM 11.29 52.322 0.229 7.69 7.17 10.89
5/18/2023 10:00:00 AM 11.38 52.484 0.229 7.71 3.41 10.95
5/18/2023 10:15:00 AM 11.51 52.718 0.23 7.74 3.32 11.02
5/18/2023 10:30:00 AM 11.65 52.97 0.23 7.78 6.96 11.08
5/18/2023 10:45:00 AM 11.8 53.24 0.229 7.8 7.06 11.13
5/18/2023 11:00:00 AM 11.95 53.51 0.228 7.83 3.36 11.17
5/18/2023 11:15:00 AM 12.1 53.78 0.228 7.85 3.44 11.21
5/18/2023 11:30:00 AM 12.27 54.086 0.227 7.88 8.44 11.23
5/18/2023 11:45:00 AM 12.43 54.374 0.223 7.91 6.75 11.26
5/18/2023 12:00:00 PM 12.59 54.662 0.226 7.94 3.17 11.28
5/18/2023 12:15:00 PM 12.74 54.932 0.226 7.96 3.7 11.28
5/18/2023 12:30:00 PM 12.9 55.22 0.228 7.99 6.84 11.29
5/18/2023 12:45:00 PM 13.05 55.49 0.23 8.02 7.08 11.28
5/18/2023 1:00:00 PM 13.21 55.778 0.232 8.04 3.61 11.26
5/18/2023 1:15:00 PM 13.38 56.084 0.234 8.06 3.76 11.24
5/18/2023 1:30:00 PM 13.57 56.426 0.2 8.09 6.74 11.21
5/18/2023 1:45:00 PM 13.75 56.75 0.235 8.1 3.85 11.18
5/18/2023 2:00:00 PM 13.93 57.074 0.235 8.12 3.59 11.14
5/18/2023 2:15:00 PM 14.12 57.416 0.233 8.14 3.75 11.11
5/18/2023 2:30:00 PM 14.3 57.74 0.231 8.16 3.62 11.07
5/18/2023 2:45:00 PM 14.47 58.046 0.229 8.18 5.59 11.03
5/18/2023 3:00:00 PM 14.64 58.352 0.222 8.2 6.35 10.98
5/18/2023 3:15:00 PM 14.79 58.622 0.226 8.21 7.65 10.9
5/18/2023 3:30:00 PM 14.93 58.874 0.135 8.22 5.81 10.86
5/18/2023 3:45:00 PM 15.05 59.09 0.227 8.22 3.61 10.8
5/18/2023 4:00:00 PM 15.15 59.27 0.226 8.22 3.76 10.74
5/18/2023 4:15:00 PM 15.24 59.432 0.226 8.22 3.72 10.67
5/18/2023 4:30:00 PM 15.3 59.54 0.225 8.22 3.64 10.6
5/18/2023 4:45:00 PM 15.33 59.594 0.224 8.21 7.05 10.51
5/18/2023 5:00:00 PM 15.34 59.612 0.223 8.19 3.73 10.44
5/18/2023 5:15:00 PM 15.34 59.612 0.223 8.18 4.01 10.37
5/18/2023 5:30:00 PM 15.32 59.576 0.222 8.16 3.8 10.3
5/18/2023 5:45:00 PM 15.29 59.522 0.222 8.14 4.05 10.22
5/18/2023 6:00:00 PM 15.25 59.45 0.222 8.11 7.51 10.15
5/18/2023 6:15:00 PM 15.2 59.36 0.223 8.08 3.88 10.07
5/18/2023 6:30:00 PM 15.15 59.27 0.223 8.05 3.85 10
5/18/2023 6:45:00 PM 15.1 59.18 0.223 8.02 3.96 9.93
5/18/2023 7:00:00 PM 15.05 59.09 0.223 7.99 5.37 9.88

These are provisional data and have not been subject to a quality assurance process, but rather are the raw data reported by the instrument.
H: value is above sensor operating range
L: value is below sensor operating range
Offline: station is not reporting data
NC: parameter is not collected at site

Data Availability & Limitations

Uncertainty and potential for error can be associated with environmental monitoring data. Provisional data have not been subject to a quality assurance process, but rather are the raw data reported by the instrument. Data users are cautioned to consider carefully the provisional nature of the information before using it for decisions that concern personal or public safety or the conduct of business that involves substantial monetary or operational consequences.

Approved data are currently available by request by emailing: [email protected]. Approved data have been subject to a quality assurance process to correct for equipment or fouling drift. Data recorded during equipment malfunctions have been removed.

View Historical Stations that have been discontinued.